<?xml version="1.0" encoding="UTF-8" standalone="no" ?>
<gpx xmlns="http://www.topografix.com/GPX/1/1" xmlns:xsi="http://www.w3.org/2001/XMLSchema-instance" xsi:schemaLocation="http://www.topografix.com/GPX/1/1 http://www.topografix.com/GPX/1/1/gpx.xsd" version="1.1" creator="VisuGPX - https://www.visugpx.com">
  <metadata>
    <name>Balade avec People</name>
    <desc><![CDATA[séance en attelage du 8/12/13]]></desc>
  </metadata>
  <trk>
    <name><![CDATA[8 déc. 2013 10:55:48]]></name>
    <cmt><![CDATA[8 déc. 2013 10:55:48]]></cmt>
    <trkseg>
      <trkpt lat="44.3293" lon="2.7047">
        <ele>820</ele>
        <time>2013-12-08T09:55:48Z</time>
      </trkpt>
      <trkpt lat="44.32939" lon="2.70469">
        <ele>820</ele>
        <time>2013-12-08T09:55:51Z</time>
      </trkpt>
      <trkpt lat="44.32945" lon="2.70468">
        <ele>820</ele>
        <time>2013-12-08T09:55:54Z</time>
      </trkpt>
      <trkpt lat="44.3295" lon="2.70467">
        <ele>818</ele>
        <time>2013-12-08T09:55:59Z</time>
      </trkpt>
      <trkpt lat="44.32955" lon="2.70466">
        <ele>817</ele>
        <time>2013-12-08T09:56:03Z</time>
      </trkpt>
      <trkpt lat="44.3296" lon="2.70468">
        <ele>816</ele>
        <time>2013-12-08T09:56:07Z</time>
      </trkpt>
      <trkpt lat="44.32964" lon="2.70469">
        <ele>816</ele>
        <time>2013-12-08T09:56:10Z</time>
      </trkpt>
      <trkpt lat="44.32969" lon="2.70469">
        <ele>815</ele>
        <time>2013-12-08T09:56:13Z</time>
      </trkpt>
      <trkpt lat="44.32976" lon="2.70469">
        <ele>814</ele>
        <time>2013-12-08T09:56:18Z</time>
      </trkpt>
      <trkpt lat="44.32982" lon="2.70468">
        <ele>814</ele>
        <time>2013-12-08T09:56:22Z</time>
      </trkpt>
      <trkpt lat="44.32986" lon="2.70468">
        <ele>814</ele>
        <time>2013-12-08T09:56:25Z</time>
      </trkpt>
      <trkpt lat="44.32993" lon="2.70467">
        <ele>814</ele>
        <time>2013-12-08T09:56:28Z</time>
      </trkpt>
      <trkpt lat="44.32997" lon="2.70467">
        <ele>814</ele>
        <time>2013-12-08T09:56:31Z</time>
      </trkpt>
      <trkpt lat="44.33002" lon="2.70467">
        <ele>815</ele>
        <time>2013-12-08T09:56:34Z</time>
      </trkpt>
      <trkpt lat="44.33007" lon="2.70467">
        <ele>815</ele>
        <time>2013-12-08T09:56:37Z</time>
      </trkpt>
      <trkpt lat="44.33011" lon="2.70467">
        <ele>816</ele>
        <time>2013-12-08T09:56:41Z</time>
      </trkpt>
      <trkpt lat="44.33016" lon="2.70467">
        <ele>816</ele>
        <time>2013-12-08T09:56:45Z</time>
      </trkpt>
      <trkpt lat="44.33022" lon="2.70468">
        <ele>815</ele>
        <time>2013-12-08T09:56:49Z</time>
      </trkpt>
      <trkpt lat="44.33026" lon="2.70469">
        <ele>816</ele>
        <time>2013-12-08T09:56:52Z</time>
      </trkpt>
      <trkpt lat="44.33031" lon="2.7047">
        <ele>815</ele>
        <time>2013-12-08T09:56:56Z</time>
      </trkpt>
      <trkpt lat="44.33036" lon="2.70472">
        <ele>814</ele>
        <time>2013-12-08T09:57:00Z</time>
      </trkpt>
      <trkpt lat="44.33041" lon="2.70473">
        <ele>814</ele>
        <time>2013-12-08T09:57:04Z</time>
      </trkpt>
      <trkpt lat="44.33047" lon="2.70476">
        <ele>813</ele>
        <time>2013-12-08T09:57:08Z</time>
      </trkpt>
      <trkpt lat="44.33052" lon="2.70479">
        <ele>813</ele>
        <time>2013-12-08T09:57:12Z</time>
      </trkpt>
      <trkpt lat="44.33056" lon="2.70482">
        <ele>813</ele>
        <time>2013-12-08T09:57:16Z</time>
      </trkpt>
      <trkpt lat="44.33061" lon="2.70486">
        <ele>813</ele>
        <time>2013-12-08T09:57:20Z</time>
      </trkpt>
      <trkpt lat="44.33065" lon="2.70488">
        <ele>811</ele>
        <time>2013-12-08T09:57:24Z</time>
      </trkpt>
      <trkpt lat="44.3307" lon="2.70493">
        <ele>811</ele>
        <time>2013-12-08T09:57:28Z</time>
      </trkpt>
      <trkpt lat="44.33075" lon="2.70496">
        <ele>812</ele>
        <time>2013-12-08T09:57:32Z</time>
      </trkpt>
      <trkpt lat="44.33079" lon="2.70501">
        <ele>812</ele>
        <time>2013-12-08T09:57:36Z</time>
      </trkpt>
      <trkpt lat="44.33082" lon="2.70506">
        <ele>813</ele>
        <time>2013-12-08T09:57:41Z</time>
      </trkpt>
      <trkpt lat="44.3309" lon="2.70514">
        <ele>813</ele>
        <time>2013-12-08T09:57:47Z</time>
      </trkpt>
      <trkpt lat="44.33099" lon="2.70524">
        <ele>814</ele>
        <time>2013-12-08T09:57:55Z</time>
      </trkpt>
      <trkpt lat="44.33104" lon="2.70529">
        <ele>816</ele>
        <time>2013-12-08T09:57:58Z</time>
      </trkpt>
      <trkpt lat="44.33107" lon="2.70533">
        <ele>816</ele>
        <time>2013-12-08T09:58:00Z</time>
      </trkpt>
      <trkpt lat="44.33113" lon="2.70539">
        <ele>817</ele>
        <time>2013-12-08T09:58:04Z</time>
      </trkpt>
      <trkpt lat="44.33117" lon="2.70543">
        <ele>817</ele>
        <time>2013-12-08T09:58:07Z</time>
      </trkpt>
      <trkpt lat="44.33121" lon="2.70548">
        <ele>817</ele>
        <time>2013-12-08T09:58:11Z</time>
      </trkpt>
      <trkpt lat="44.33125" lon="2.70553">
        <ele>816</ele>
        <time>2013-12-08T09:58:17Z</time>
      </trkpt>
      <trkpt lat="44.33129" lon="2.70557">
        <ele>817</ele>
        <time>2013-12-08T09:58:20Z</time>
      </trkpt>
      <trkpt lat="44.33134" lon="2.70561">
        <ele>818</ele>
        <time>2013-12-08T09:58:23Z</time>
      </trkpt>
      <trkpt lat="44.33138" lon="2.70565">
        <ele>818</ele>
        <time>2013-12-08T09:58:26Z</time>
      </trkpt>
      <trkpt lat="44.33142" lon="2.70569">
        <ele>819</ele>
        <time>2013-12-08T09:58:29Z</time>
      </trkpt>
      <trkpt lat="44.33146" lon="2.70574">
        <ele>820</ele>
        <time>2013-12-08T09:58:32Z</time>
      </trkpt>
      <trkpt lat="44.3315" lon="2.70579">
        <ele>821</ele>
        <time>2013-12-08T09:58:35Z</time>
      </trkpt>
      <trkpt lat="44.33155" lon="2.70584">
        <ele>822</ele>
        <time>2013-12-08T09:58:39Z</time>
      </trkpt>
      <trkpt lat="44.33159" lon="2.70588">
        <ele>822</ele>
        <time>2013-12-08T09:58:43Z</time>
      </trkpt>
      <trkpt lat="44.33163" lon="2.70593">
        <ele>823</ele>
        <time>2013-12-08T09:58:46Z</time>
      </trkpt>
      <trkpt lat="44.33168" lon="2.70597">
        <ele>823</ele>
        <time>2013-12-08T09:58:50Z</time>
      </trkpt>
      <trkpt lat="44.33173" lon="2.70602">
        <ele>823</ele>
        <time>2013-12-08T09:58:54Z</time>
      </trkpt>
      <trkpt lat="44.33176" lon="2.70607">
        <ele>824</ele>
        <time>2013-12-08T09:58:57Z</time>
      </trkpt>
      <trkpt lat="44.33179" lon="2.70612">
        <ele>825</ele>
        <time>2013-12-08T09:59:00Z</time>
      </trkpt>
      <trkpt lat="44.33182" lon="2.70618">
        <ele>826</ele>
        <time>2013-12-08T09:59:03Z</time>
      </trkpt>
      <trkpt lat="44.33185" lon="2.70623">
        <ele>827</ele>
        <time>2013-12-08T09:59:06Z</time>
      </trkpt>
      <trkpt lat="44.33188" lon="2.70629">
        <ele>828</ele>
        <time>2013-12-08T09:59:10Z</time>
      </trkpt>
      <trkpt lat="44.33192" lon="2.70635">
        <ele>829</ele>
        <time>2013-12-08T09:59:14Z</time>
      </trkpt>
      <trkpt lat="44.33195" lon="2.70642">
        <ele>830</ele>
        <time>2013-12-08T09:59:18Z</time>
      </trkpt>
      <trkpt lat="44.33198" lon="2.70647">
        <ele>830</ele>
        <time>2013-12-08T09:59:22Z</time>
      </trkpt>
      <trkpt lat="44.33202" lon="2.70653">
        <ele>830</ele>
        <time>2013-12-08T09:59:26Z</time>
      </trkpt>
      <trkpt lat="44.33205" lon="2.70658">
        <ele>831</ele>
        <time>2013-12-08T09:59:29Z</time>
      </trkpt>
      <trkpt lat="44.33208" lon="2.70664">
        <ele>831</ele>
        <time>2013-12-08T09:59:33Z</time>
      </trkpt>
      <trkpt lat="44.33211" lon="2.70669">
        <ele>831</ele>
        <time>2013-12-08T09:59:37Z</time>
      </trkpt>
      <trkpt lat="44.33214" lon="2.70676">
        <ele>831</ele>
        <time>2013-12-08T09:59:41Z</time>
      </trkpt>
      <trkpt lat="44.33217" lon="2.70682">
        <ele>831</ele>
        <time>2013-12-08T09:59:45Z</time>
      </trkpt>
      <trkpt lat="44.33221" lon="2.70689">
        <ele>831</ele>
        <time>2013-12-08T09:59:49Z</time>
      </trkpt>
      <trkpt lat="44.33223" lon="2.70695">
        <ele>831</ele>
        <time>2013-12-08T09:59:52Z</time>
      </trkpt>
      <trkpt lat="44.33226" lon="2.707">
        <ele>831</ele>
        <time>2013-12-08T09:59:55Z</time>
      </trkpt>
      <trkpt lat="44.3323" lon="2.70705">
        <ele>832</ele>
        <time>2013-12-08T09:59:59Z</time>
      </trkpt>
      <trkpt lat="44.33233" lon="2.70709">
        <ele>832</ele>
        <time>2013-12-08T10:00:02Z</time>
      </trkpt>
      <trkpt lat="44.33236" lon="2.70716">
        <ele>832</ele>
        <time>2013-12-08T10:00:07Z</time>
      </trkpt>
      <trkpt lat="44.33238" lon="2.70722">
        <ele>833</ele>
        <time>2013-12-08T10:00:11Z</time>
      </trkpt>
      <trkpt lat="44.33239" lon="2.70731">
        <ele>832</ele>
        <time>2013-12-08T10:00:15Z</time>
      </trkpt>
      <trkpt lat="44.3324" lon="2.70738">
        <ele>832</ele>
        <time>2013-12-08T10:00:18Z</time>
      </trkpt>
      <trkpt lat="44.33242" lon="2.70745">
        <ele>832</ele>
        <time>2013-12-08T10:00:21Z</time>
      </trkpt>
      <trkpt lat="44.33243" lon="2.70752">
        <ele>832</ele>
        <time>2013-12-08T10:00:24Z</time>
      </trkpt>
      <trkpt lat="44.33244" lon="2.70759">
        <ele>832</ele>
        <time>2013-12-08T10:00:27Z</time>
      </trkpt>
      <trkpt lat="44.33245" lon="2.70765">
        <ele>832</ele>
        <time>2013-12-08T10:00:30Z</time>
      </trkpt>
      <trkpt lat="44.33247" lon="2.70772">
        <ele>832</ele>
        <time>2013-12-08T10:00:34Z</time>
      </trkpt>
      <trkpt lat="44.33248" lon="2.70779">
        <ele>832</ele>
        <time>2013-12-08T10:00:38Z</time>
      </trkpt>
      <trkpt lat="44.33249" lon="2.70787">
        <ele>832</ele>
        <time>2013-12-08T10:00:42Z</time>
      </trkpt>
      <trkpt lat="44.33251" lon="2.70795">
        <ele>832</ele>
        <time>2013-12-08T10:00:46Z</time>
      </trkpt>
      <trkpt lat="44.33253" lon="2.70802">
        <ele>832</ele>
        <time>2013-12-08T10:00:50Z</time>
      </trkpt>
      <trkpt lat="44.33254" lon="2.70809">
        <ele>832</ele>
        <time>2013-12-08T10:00:53Z</time>
      </trkpt>
      <trkpt lat="44.33255" lon="2.70816">
        <ele>832</ele>
        <time>2013-12-08T10:00:56Z</time>
      </trkpt>
      <trkpt lat="44.33257" lon="2.70822">
        <ele>832</ele>
        <time>2013-12-08T10:00:59Z</time>
      </trkpt>
      <trkpt lat="44.3326" lon="2.70828">
        <ele>832</ele>
        <time>2013-12-08T10:01:02Z</time>
      </trkpt>
      <trkpt lat="44.33262" lon="2.70835">
        <ele>833</ele>
        <time>2013-12-08T10:01:05Z</time>
      </trkpt>
      <trkpt lat="44.33264" lon="2.7084">
        <ele>834</ele>
        <time>2013-12-08T10:01:08Z</time>
      </trkpt>
      <trkpt lat="44.33268" lon="2.70845">
        <ele>834</ele>
        <time>2013-12-08T10:01:12Z</time>
      </trkpt>
      <trkpt lat="44.33272" lon="2.70851">
        <ele>833</ele>
        <time>2013-12-08T10:01:16Z</time>
      </trkpt>
      <trkpt lat="44.33274" lon="2.70858">
        <ele>834</ele>
        <time>2013-12-08T10:01:20Z</time>
      </trkpt>
      <trkpt lat="44.33277" lon="2.70865">
        <ele>834</ele>
        <time>2013-12-08T10:01:24Z</time>
      </trkpt>
      <trkpt lat="44.33281" lon="2.70871">
        <ele>834</ele>
        <time>2013-12-08T10:01:28Z</time>
      </trkpt>
      <trkpt lat="44.33284" lon="2.70878">
        <ele>835</ele>
        <time>2013-12-08T10:01:32Z</time>
      </trkpt>
      <trkpt lat="44.33286" lon="2.70884">
        <ele>835</ele>
        <time>2013-12-08T10:01:36Z</time>
      </trkpt>
      <trkpt lat="44.3329" lon="2.7089">
        <ele>835</ele>
        <time>2013-12-08T10:01:39Z</time>
      </trkpt>
      <trkpt lat="44.33293" lon="2.70898">
        <ele>835</ele>
        <time>2013-12-08T10:01:42Z</time>
      </trkpt>
      <trkpt lat="44.33296" lon="2.70902">
        <ele>835</ele>
        <time>2013-12-08T10:01:45Z</time>
      </trkpt>
      <trkpt lat="44.33299" lon="2.70908">
        <ele>835</ele>
        <time>2013-12-08T10:01:48Z</time>
      </trkpt>
      <trkpt lat="44.33305" lon="2.70919">
        <ele>834</ele>
        <time>2013-12-08T10:01:55Z</time>
      </trkpt>
      <trkpt lat="44.33307" lon="2.70925">
        <ele>834</ele>
        <time>2013-12-08T10:01:59Z</time>
      </trkpt>
      <trkpt lat="44.33312" lon="2.70935">
        <ele>833</ele>
        <time>2013-12-08T10:02:06Z</time>
      </trkpt>
      <trkpt lat="44.33314" lon="2.70943">
        <ele>833</ele>
        <time>2013-12-08T10:02:10Z</time>
      </trkpt>
      <trkpt lat="44.33316" lon="2.70949">
        <ele>833</ele>
        <time>2013-12-08T10:02:13Z</time>
      </trkpt>
      <trkpt lat="44.33319" lon="2.70958">
        <ele>833</ele>
        <time>2013-12-08T10:02:18Z</time>
      </trkpt>
      <trkpt lat="44.33322" lon="2.70965">
        <ele>834</ele>
        <time>2013-12-08T10:02:22Z</time>
      </trkpt>
      <trkpt lat="44.33325" lon="2.70971">
        <ele>834</ele>
        <time>2013-12-08T10:02:26Z</time>
      </trkpt>
      <trkpt lat="44.33328" lon="2.70978">
        <ele>834</ele>
        <time>2013-12-08T10:02:31Z</time>
      </trkpt>
      <trkpt lat="44.3333" lon="2.70983">
        <ele>834</ele>
        <time>2013-12-08T10:02:34Z</time>
      </trkpt>
      <trkpt lat="44.33333" lon="2.70989">
        <ele>834</ele>
        <time>2013-12-08T10:02:38Z</time>
      </trkpt>
      <trkpt lat="44.33336" lon="2.70995">
        <ele>835</ele>
        <time>2013-12-08T10:02:42Z</time>
      </trkpt>
      <trkpt lat="44.33338" lon="2.71002">
        <ele>835</ele>
        <time>2013-12-08T10:02:45Z</time>
      </trkpt>
      <trkpt lat="44.33341" lon="2.71007">
        <ele>835</ele>
        <time>2013-12-08T10:02:48Z</time>
      </trkpt>
      <trkpt lat="44.33343" lon="2.71015">
        <ele>835</ele>
        <time>2013-12-08T10:02:52Z</time>
      </trkpt>
      <trkpt lat="44.33346" lon="2.71022">
        <ele>835</ele>
        <time>2013-12-08T10:02:55Z</time>
      </trkpt>
      <trkpt lat="44.33349" lon="2.71027">
        <ele>835</ele>
        <time>2013-12-08T10:02:58Z</time>
      </trkpt>
      <trkpt lat="44.33352" lon="2.71033">
        <ele>835</ele>
        <time>2013-12-08T10:03:01Z</time>
      </trkpt>
      <trkpt lat="44.33354" lon="2.71039">
        <ele>835</ele>
        <time>2013-12-08T10:03:05Z</time>
      </trkpt>
      <trkpt lat="44.33357" lon="2.71046">
        <ele>835</ele>
        <time>2013-12-08T10:03:09Z</time>
      </trkpt>
      <trkpt lat="44.3336" lon="2.71052">
        <ele>835</ele>
        <time>2013-12-08T10:03:13Z</time>
      </trkpt>
      <trkpt lat="44.33364" lon="2.71058">
        <ele>834</ele>
        <time>2013-12-08T10:03:17Z</time>
      </trkpt>
      <trkpt lat="44.33371" lon="2.71067">
        <ele>833</ele>
        <time>2013-12-08T10:03:24Z</time>
      </trkpt>
      <trkpt lat="44.33375" lon="2.71072">
        <ele>833</ele>
        <time>2013-12-08T10:03:27Z</time>
      </trkpt>
      <trkpt lat="44.3338" lon="2.71078">
        <ele>832</ele>
        <time>2013-12-08T10:03:31Z</time>
      </trkpt>
      <trkpt lat="44.33386" lon="2.71089">
        <ele>831</ele>
        <time>2013-12-08T10:03:39Z</time>
      </trkpt>
      <trkpt lat="44.33391" lon="2.71094">
        <ele>832</ele>
        <time>2013-12-08T10:03:44Z</time>
      </trkpt>
      <trkpt lat="44.33395" lon="2.71098">
        <ele>833</ele>
        <time>2013-12-08T10:03:48Z</time>
      </trkpt>
      <trkpt lat="44.33399" lon="2.71105">
        <ele>834</ele>
        <time>2013-12-08T10:03:51Z</time>
      </trkpt>
      <trkpt lat="44.33403" lon="2.7111">
        <ele>835</ele>
        <time>2013-12-08T10:03:54Z</time>
      </trkpt>
      <trkpt lat="44.33406" lon="2.71116">
        <ele>835</ele>
        <time>2013-12-08T10:03:57Z</time>
      </trkpt>
      <trkpt lat="44.33409" lon="2.71121">
        <ele>835</ele>
        <time>2013-12-08T10:04:00Z</time>
      </trkpt>
      <trkpt lat="44.33412" lon="2.71126">
        <ele>836</ele>
        <time>2013-12-08T10:04:04Z</time>
      </trkpt>
      <trkpt lat="44.33416" lon="2.7113">
        <ele>836</ele>
        <time>2013-12-08T10:04:07Z</time>
      </trkpt>
      <trkpt lat="44.33419" lon="2.71135">
        <ele>836</ele>
        <time>2013-12-08T10:04:11Z</time>
      </trkpt>
      <trkpt lat="44.33424" lon="2.71139">
        <ele>836</ele>
        <time>2013-12-08T10:04:15Z</time>
      </trkpt>
      <trkpt lat="44.33429" lon="2.71144">
        <ele>836</ele>
        <time>2013-12-08T10:04:18Z</time>
      </trkpt>
      <trkpt lat="44.33433" lon="2.71149">
        <ele>837</ele>
        <time>2013-12-08T10:04:21Z</time>
      </trkpt>
      <trkpt lat="44.33437" lon="2.71154">
        <ele>838</ele>
        <time>2013-12-08T10:04:24Z</time>
      </trkpt>
      <trkpt lat="44.33441" lon="2.71159">
        <ele>839</ele>
        <time>2013-12-08T10:04:27Z</time>
      </trkpt>
      <trkpt lat="44.33445" lon="2.71164">
        <ele>839</ele>
        <time>2013-12-08T10:04:30Z</time>
      </trkpt>
      <trkpt lat="44.33448" lon="2.71168">
        <ele>840</ele>
        <time>2013-12-08T10:04:33Z</time>
      </trkpt>
      <trkpt lat="44.33452" lon="2.71175">
        <ele>841</ele>
        <time>2013-12-08T10:04:37Z</time>
      </trkpt>
      <trkpt lat="44.33455" lon="2.7118">
        <ele>842</ele>
        <time>2013-12-08T10:04:40Z</time>
      </trkpt>
      <trkpt lat="44.33459" lon="2.71185">
        <ele>843</ele>
        <time>2013-12-08T10:04:44Z</time>
      </trkpt>
      <trkpt lat="44.33463" lon="2.71191">
        <ele>843</ele>
        <time>2013-12-08T10:04:47Z</time>
      </trkpt>
      <trkpt lat="44.33467" lon="2.71196">
        <ele>844</ele>
        <time>2013-12-08T10:04:50Z</time>
      </trkpt>
      <trkpt lat="44.3347" lon="2.71201">
        <ele>844</ele>
        <time>2013-12-08T10:04:53Z</time>
      </trkpt>
      <trkpt lat="44.33473" lon="2.71205">
        <ele>845</ele>
        <time>2013-12-08T10:04:56Z</time>
      </trkpt>
      <trkpt lat="44.33478" lon="2.71211">
        <ele>845</ele>
        <time>2013-12-08T10:05:00Z</time>
      </trkpt>
      <trkpt lat="44.33482" lon="2.71215">
        <ele>845</ele>
        <time>2013-12-08T10:05:03Z</time>
      </trkpt>
      <trkpt lat="44.33488" lon="2.7122">
        <ele>844</ele>
        <time>2013-12-08T10:05:08Z</time>
      </trkpt>
      <trkpt lat="44.33492" lon="2.71225">
        <ele>844</ele>
        <time>2013-12-08T10:05:12Z</time>
      </trkpt>
      <trkpt lat="44.33495" lon="2.71235">
        <ele>844</ele>
        <time>2013-12-08T10:05:17Z</time>
      </trkpt>
      <trkpt lat="44.33496" lon="2.71243">
        <ele>844</ele>
        <time>2013-12-08T10:05:21Z</time>
      </trkpt>
      <trkpt lat="44.33498" lon="2.71249">
        <ele>844</ele>
        <time>2013-12-08T10:05:24Z</time>
      </trkpt>
      <trkpt lat="44.335" lon="2.71256">
        <ele>843</ele>
        <time>2013-12-08T10:05:27Z</time>
      </trkpt>
      <trkpt lat="44.33503" lon="2.71261">
        <ele>842</ele>
        <time>2013-12-08T10:05:32Z</time>
      </trkpt>
      <trkpt lat="44.33506" lon="2.71267">
        <ele>842</ele>
        <time>2013-12-08T10:05:35Z</time>
      </trkpt>
      <trkpt lat="44.33508" lon="2.71276">
        <ele>841</ele>
        <time>2013-12-08T10:05:39Z</time>
      </trkpt>
      <trkpt lat="44.3351" lon="2.71283">
        <ele>841</ele>
        <time>2013-12-08T10:05:42Z</time>
      </trkpt>
      <trkpt lat="44.33511" lon="2.71289">
        <ele>842</ele>
        <time>2013-12-08T10:05:45Z</time>
      </trkpt>
      <trkpt lat="44.33512" lon="2.71297">
        <ele>842</ele>
        <time>2013-12-08T10:05:50Z</time>
      </trkpt>
      <trkpt lat="44.33514" lon="2.71311">
        <ele>841</ele>
        <time>2013-12-08T10:05:58Z</time>
      </trkpt>
      <trkpt lat="44.33517" lon="2.71324">
        <ele>841</ele>
        <time>2013-12-08T10:06:05Z</time>
      </trkpt>
      <trkpt lat="44.33514" lon="2.71331">
        <ele>842</ele>
        <time>2013-12-08T10:06:08Z</time>
      </trkpt>
      <trkpt lat="44.33513" lon="2.71338">
        <ele>842</ele>
        <time>2013-12-08T10:06:12Z</time>
      </trkpt>
      <trkpt lat="44.33513" lon="2.71346">
        <ele>841</ele>
        <time>2013-12-08T10:06:16Z</time>
      </trkpt>
      <trkpt lat="44.33511" lon="2.71359">
        <ele>841</ele>
        <time>2013-12-08T10:06:21Z</time>
      </trkpt>
      <trkpt lat="44.3351" lon="2.71367">
        <ele>841</ele>
        <time>2013-12-08T10:06:24Z</time>
      </trkpt>
      <trkpt lat="44.3351" lon="2.71374">
        <ele>842</ele>
        <time>2013-12-08T10:06:28Z</time>
      </trkpt>
      <trkpt lat="44.3351" lon="2.71381">
        <ele>842</ele>
        <time>2013-12-08T10:06:31Z</time>
      </trkpt>
      <trkpt lat="44.3351" lon="2.71388">
        <ele>843</ele>
        <time>2013-12-08T10:06:34Z</time>
      </trkpt>
      <trkpt lat="44.33511" lon="2.71395">
        <ele>844</ele>
        <time>2013-12-08T10:06:38Z</time>
      </trkpt>
      <trkpt lat="44.33512" lon="2.71402">
        <ele>844</ele>
        <time>2013-12-08T10:06:42Z</time>
      </trkpt>
      <trkpt lat="44.33514" lon="2.71408">
        <ele>844</ele>
        <time>2013-12-08T10:06:45Z</time>
      </trkpt>
      <trkpt lat="44.33516" lon="2.71414">
        <ele>844</ele>
        <time>2013-12-08T10:06:48Z</time>
      </trkpt>
      <trkpt lat="44.33518" lon="2.71422">
        <ele>844</ele>
        <time>2013-12-08T10:06:52Z</time>
      </trkpt>
      <trkpt lat="44.33521" lon="2.71427">
        <ele>846</ele>
        <time>2013-12-08T10:06:57Z</time>
      </trkpt>
      <trkpt lat="44.33524" lon="2.71434">
        <ele>846</ele>
        <time>2013-12-08T10:07:01Z</time>
      </trkpt>
      <trkpt lat="44.33524" lon="2.71444">
        <ele>846</ele>
        <time>2013-12-08T10:07:06Z</time>
      </trkpt>
      <trkpt lat="44.33519" lon="2.71455">
        <ele>845</ele>
        <time>2013-12-08T10:07:12Z</time>
      </trkpt>
      <trkpt lat="44.33513" lon="2.71465">
        <ele>843</ele>
        <time>2013-12-08T10:07:17Z</time>
      </trkpt>
      <trkpt lat="44.33506" lon="2.71473">
        <ele>842</ele>
        <time>2013-12-08T10:07:22Z</time>
      </trkpt>
      <trkpt lat="44.335" lon="2.71484">
        <ele>841</ele>
        <time>2013-12-08T10:07:28Z</time>
      </trkpt>
      <trkpt lat="44.33496" lon="2.7149">
        <ele>842</ele>
        <time>2013-12-08T10:07:31Z</time>
      </trkpt>
      <trkpt lat="44.3349" lon="2.71492">
        <ele>842</ele>
        <time>2013-12-08T10:07:35Z</time>
      </trkpt>
      <trkpt lat="44.33485" lon="2.71493">
        <ele>843</ele>
        <time>2013-12-08T10:07:38Z</time>
      </trkpt>
      <trkpt lat="44.3348" lon="2.71496">
        <ele>843</ele>
        <time>2013-12-08T10:07:42Z</time>
      </trkpt>
      <trkpt lat="44.33476" lon="2.71498">
        <ele>843</ele>
        <time>2013-12-08T10:07:45Z</time>
      </trkpt>
      <trkpt lat="44.33468" lon="2.71502">
        <ele>842</ele>
        <time>2013-12-08T10:07:51Z</time>
      </trkpt>
      <trkpt lat="44.33463" lon="2.71504">
        <ele>841</ele>
        <time>2013-12-08T10:07:55Z</time>
      </trkpt>
      <trkpt lat="44.33456" lon="2.71506">
        <ele>841</ele>
        <time>2013-12-08T10:07:58Z</time>
      </trkpt>
      <trkpt lat="44.3345" lon="2.71506">
        <ele>841</ele>
        <time>2013-12-08T10:08:01Z</time>
      </trkpt>
      <trkpt lat="44.33446" lon="2.71506">
        <ele>842</ele>
        <time>2013-12-08T10:08:04Z</time>
      </trkpt>
      <trkpt lat="44.33441" lon="2.71505">
        <ele>842</ele>
        <time>2013-12-08T10:08:07Z</time>
      </trkpt>
      <trkpt lat="44.33435" lon="2.71503">
        <ele>841</ele>
        <time>2013-12-08T10:08:11Z</time>
      </trkpt>
      <trkpt lat="44.3343" lon="2.71501">
        <ele>841</ele>
        <time>2013-12-08T10:08:14Z</time>
      </trkpt>
      <trkpt lat="44.33425" lon="2.71499">
        <ele>841</ele>
        <time>2013-12-08T10:08:17Z</time>
      </trkpt>
      <trkpt lat="44.33418" lon="2.71497">
        <ele>842</ele>
        <time>2013-12-08T10:08:21Z</time>
      </trkpt>
      <trkpt lat="44.33412" lon="2.71495">
        <ele>843</ele>
        <time>2013-12-08T10:08:24Z</time>
      </trkpt>
      <trkpt lat="44.33408" lon="2.71501">
        <ele>844</ele>
        <time>2013-12-08T10:08:27Z</time>
      </trkpt>
      <trkpt lat="44.33407" lon="2.71509">
        <ele>844</ele>
        <time>2013-12-08T10:08:30Z</time>
      </trkpt>
      <trkpt lat="44.33403" lon="2.71516">
        <ele>845</ele>
        <time>2013-12-08T10:08:33Z</time>
      </trkpt>
      <trkpt lat="44.334" lon="2.71522">
        <ele>845</ele>
        <time>2013-12-08T10:08:36Z</time>
      </trkpt>
      <trkpt lat="44.33397" lon="2.71528">
        <ele>845</ele>
        <time>2013-12-08T10:08:39Z</time>
      </trkpt>
      <trkpt lat="44.33395" lon="2.71535">
        <ele>845</ele>
        <time>2013-12-08T10:08:43Z</time>
      </trkpt>
      <trkpt lat="44.33392" lon="2.71541">
        <ele>846</ele>
        <time>2013-12-08T10:08:46Z</time>
      </trkpt>
      <trkpt lat="44.33391" lon="2.71549">
        <ele>846</ele>
        <time>2013-12-08T10:08:50Z</time>
      </trkpt>
      <trkpt lat="44.33389" lon="2.71555">
        <ele>847</ele>
        <time>2013-12-08T10:08:54Z</time>
      </trkpt>
      <trkpt lat="44.33387" lon="2.71561">
        <ele>848</ele>
        <time>2013-12-08T10:08:58Z</time>
      </trkpt>
      <trkpt lat="44.33385" lon="2.71568">
        <ele>849</ele>
        <time>2013-12-08T10:09:02Z</time>
      </trkpt>
      <trkpt lat="44.33384" lon="2.71575">
        <ele>850</ele>
        <time>2013-12-08T10:09:06Z</time>
      </trkpt>
      <trkpt lat="44.33383" lon="2.71582">
        <ele>851</ele>
        <time>2013-12-08T10:09:10Z</time>
      </trkpt>
      <trkpt lat="44.33382" lon="2.71589">
        <ele>851</ele>
        <time>2013-12-08T10:09:15Z</time>
      </trkpt>
      <trkpt lat="44.33381" lon="2.71596">
        <ele>851</ele>
        <time>2013-12-08T10:09:19Z</time>
      </trkpt>
      <trkpt lat="44.33383" lon="2.71602">
        <ele>851</ele>
        <time>2013-12-08T10:09:24Z</time>
      </trkpt>
      <trkpt lat="44.33384" lon="2.7161">
        <ele>851</ele>
        <time>2013-12-08T10:09:28Z</time>
      </trkpt>
      <trkpt lat="44.33385" lon="2.71619">
        <ele>851</ele>
        <time>2013-12-08T10:09:32Z</time>
      </trkpt>
      <trkpt lat="44.33385" lon="2.71626">
        <ele>851</ele>
        <time>2013-12-08T10:09:35Z</time>
      </trkpt>
      <trkpt lat="44.33386" lon="2.71634">
        <ele>853</ele>
        <time>2013-12-08T10:09:40Z</time>
      </trkpt>
      <trkpt lat="44.33387" lon="2.71641">
        <ele>853</ele>
        <time>2013-12-08T10:09:44Z</time>
      </trkpt>
      <trkpt lat="44.33389" lon="2.71647">
        <ele>853</ele>
        <time>2013-12-08T10:09:49Z</time>
      </trkpt>
      <trkpt lat="44.3339" lon="2.71655">
        <ele>854</ele>
        <time>2013-12-08T10:09:54Z</time>
      </trkpt>
      <trkpt lat="44.3339" lon="2.71662">
        <ele>854</ele>
        <time>2013-12-08T10:09:58Z</time>
      </trkpt>
      <trkpt lat="44.33393" lon="2.71668">
        <ele>853</ele>
        <time>2013-12-08T10:10:02Z</time>
      </trkpt>
      <trkpt lat="44.33394" lon="2.71676">
        <ele>854</ele>
        <time>2013-12-08T10:10:07Z</time>
      </trkpt>
      <trkpt lat="44.33395" lon="2.71683">
        <ele>854</ele>
        <time>2013-12-08T10:10:10Z</time>
      </trkpt>
      <trkpt lat="44.33395" lon="2.7169">
        <ele>855</ele>
        <time>2013-12-08T10:10:13Z</time>
      </trkpt>
      <trkpt lat="44.33395" lon="2.71698">
        <ele>856</ele>
        <time>2013-12-08T10:10:17Z</time>
      </trkpt>
      <trkpt lat="44.33395" lon="2.71705">
        <ele>856</ele>
        <time>2013-12-08T10:10:21Z</time>
      </trkpt>
      <trkpt lat="44.33394" lon="2.71713">
        <ele>857</ele>
        <time>2013-12-08T10:10:25Z</time>
      </trkpt>
      <trkpt lat="44.33395" lon="2.7172">
        <ele>857</ele>
        <time>2013-12-08T10:10:29Z</time>
      </trkpt>
      <trkpt lat="44.33396" lon="2.71726">
        <ele>858</ele>
        <time>2013-12-08T10:10:33Z</time>
      </trkpt>
      <trkpt lat="44.33396" lon="2.71733">
        <ele>859</ele>
        <time>2013-12-08T10:10:37Z</time>
      </trkpt>
      <trkpt lat="44.33396" lon="2.71741">
        <ele>860</ele>
        <time>2013-12-08T10:10:41Z</time>
      </trkpt>
      <trkpt lat="44.33395" lon="2.71748">
        <ele>859</ele>
        <time>2013-12-08T10:10:45Z</time>
      </trkpt>
      <trkpt lat="44.33394" lon="2.71755">
        <ele>860</ele>
        <time>2013-12-08T10:10:49Z</time>
      </trkpt>
      <trkpt lat="44.33393" lon="2.71762">
        <ele>861</ele>
        <time>2013-12-08T10:10:53Z</time>
      </trkpt>
      <trkpt lat="44.33393" lon="2.71769">
        <ele>861</ele>
        <time>2013-12-08T10:10:56Z</time>
      </trkpt>
      <trkpt lat="44.33392" lon="2.71776">
        <ele>863</ele>
        <time>2013-12-08T10:10:59Z</time>
      </trkpt>
      <trkpt lat="44.33392" lon="2.71783">
        <ele>863</ele>
        <time>2013-12-08T10:11:03Z</time>
      </trkpt>
      <trkpt lat="44.33391" lon="2.71792">
        <ele>863</ele>
        <time>2013-12-08T10:11:07Z</time>
      </trkpt>
      <trkpt lat="44.3339" lon="2.71799">
        <ele>863</ele>
        <time>2013-12-08T10:11:11Z</time>
      </trkpt>
      <trkpt lat="44.3339" lon="2.71805">
        <ele>862</ele>
        <time>2013-12-08T10:11:15Z</time>
      </trkpt>
      <trkpt lat="44.33388" lon="2.71813">
        <ele>862</ele>
        <time>2013-12-08T10:11:19Z</time>
      </trkpt>
      <trkpt lat="44.33387" lon="2.71819">
        <ele>862</ele>
        <time>2013-12-08T10:11:23Z</time>
      </trkpt>
      <trkpt lat="44.33387" lon="2.71827">
        <ele>862</ele>
        <time>2013-12-08T10:11:28Z</time>
      </trkpt>
      <trkpt lat="44.33386" lon="2.71834">
        <ele>862</ele>
        <time>2013-12-08T10:11:31Z</time>
      </trkpt>
      <trkpt lat="44.33385" lon="2.71841">
        <ele>863</ele>
        <time>2013-12-08T10:11:35Z</time>
      </trkpt>
      <trkpt lat="44.33384" lon="2.71848">
        <ele>863</ele>
        <time>2013-12-08T10:11:38Z</time>
      </trkpt>
      <trkpt lat="44.33383" lon="2.71856">
        <ele>863</ele>
        <time>2013-12-08T10:11:42Z</time>
      </trkpt>
      <trkpt lat="44.33382" lon="2.71863">
        <ele>864</ele>
        <time>2013-12-08T10:11:45Z</time>
      </trkpt>
      <trkpt lat="44.33381" lon="2.7187">
        <ele>864</ele>
        <time>2013-12-08T10:11:48Z</time>
      </trkpt>
      <trkpt lat="44.3338" lon="2.71878">
        <ele>864</ele>
        <time>2013-12-08T10:11:51Z</time>
      </trkpt>
      <trkpt lat="44.3338" lon="2.71884">
        <ele>865</ele>
        <time>2013-12-08T10:11:54Z</time>
      </trkpt>
      <trkpt lat="44.3338" lon="2.71892">
        <ele>866</ele>
        <time>2013-12-08T10:11:58Z</time>
      </trkpt>
      <trkpt lat="44.33379" lon="2.719">
        <ele>867</ele>
        <time>2013-12-08T10:12:02Z</time>
      </trkpt>
      <trkpt lat="44.33379" lon="2.71908">
        <ele>867</ele>
        <time>2013-12-08T10:12:05Z</time>
      </trkpt>
      <trkpt lat="44.33379" lon="2.71917">
        <ele>866</ele>
        <time>2013-12-08T10:12:10Z</time>
      </trkpt>
      <trkpt lat="44.33378" lon="2.71924">
        <ele>867</ele>
        <time>2013-12-08T10:12:14Z</time>
      </trkpt>
      <trkpt lat="44.33378" lon="2.71931">
        <ele>868</ele>
        <time>2013-12-08T10:12:18Z</time>
      </trkpt>
      <trkpt lat="44.33378" lon="2.71937">
        <ele>869</ele>
        <time>2013-12-08T10:12:21Z</time>
      </trkpt>
      <trkpt lat="44.33377" lon="2.71944">
        <ele>870</ele>
        <time>2013-12-08T10:12:24Z</time>
      </trkpt>
      <trkpt lat="44.33376" lon="2.71952">
        <ele>870</ele>
        <time>2013-12-08T10:12:28Z</time>
      </trkpt>
      <trkpt lat="44.33375" lon="2.71958">
        <ele>870</ele>
        <time>2013-12-08T10:12:31Z</time>
      </trkpt>
      <trkpt lat="44.33375" lon="2.71965">
        <ele>871</ele>
        <time>2013-12-08T10:12:34Z</time>
      </trkpt>
      <trkpt lat="44.33374" lon="2.71972">
        <ele>872</ele>
        <time>2013-12-08T10:12:37Z</time>
      </trkpt>
      <trkpt lat="44.33373" lon="2.71979">
        <ele>872</ele>
        <time>2013-12-08T10:12:40Z</time>
      </trkpt>
      <trkpt lat="44.33372" lon="2.71987">
        <ele>873</ele>
        <time>2013-12-08T10:12:44Z</time>
      </trkpt>
      <trkpt lat="44.3337" lon="2.71994">
        <ele>873</ele>
        <time>2013-12-08T10:12:48Z</time>
      </trkpt>
      <trkpt lat="44.33369" lon="2.72">
        <ele>874</ele>
        <time>2013-12-08T10:12:51Z</time>
      </trkpt>
      <trkpt lat="44.33368" lon="2.72007">
        <ele>874</ele>
        <time>2013-12-08T10:12:54Z</time>
      </trkpt>
      <trkpt lat="44.33367" lon="2.72013">
        <ele>873</ele>
        <time>2013-12-08T10:12:57Z</time>
      </trkpt>
      <trkpt lat="44.33366" lon="2.7202">
        <ele>873</ele>
        <time>2013-12-08T10:13:00Z</time>
      </trkpt>
      <trkpt lat="44.33365" lon="2.72027">
        <ele>873</ele>
        <time>2013-12-08T10:13:03Z</time>
      </trkpt>
      <trkpt lat="44.33364" lon="2.72035">
        <ele>874</ele>
        <time>2013-12-08T10:13:07Z</time>
      </trkpt>
      <trkpt lat="44.33364" lon="2.72044">
        <ele>874</ele>
        <time>2013-12-08T10:13:11Z</time>
      </trkpt>
      <trkpt lat="44.33364" lon="2.7205">
        <ele>874</ele>
        <time>2013-12-08T10:13:15Z</time>
      </trkpt>
      <trkpt lat="44.33362" lon="2.72056">
        <ele>875</ele>
        <time>2013-12-08T10:13:20Z</time>
      </trkpt>
      <trkpt lat="44.33359" lon="2.72069">
        <ele>876</ele>
        <time>2013-12-08T10:13:43Z</time>
      </trkpt>
      <trkpt lat="44.33357" lon="2.72076">
        <ele>877</ele>
        <time>2013-12-08T10:13:46Z</time>
      </trkpt>
      <trkpt lat="44.33355" lon="2.72084">
        <ele>877</ele>
        <time>2013-12-08T10:13:50Z</time>
      </trkpt>
      <trkpt lat="44.33352" lon="2.7209">
        <ele>878</ele>
        <time>2013-12-08T10:13:54Z</time>
      </trkpt>
      <trkpt lat="44.3335" lon="2.72097">
        <ele>878</ele>
        <time>2013-12-08T10:13:58Z</time>
      </trkpt>
      <trkpt lat="44.33347" lon="2.72102">
        <ele>878</ele>
        <time>2013-12-08T10:14:01Z</time>
      </trkpt>
      <trkpt lat="44.33344" lon="2.72108">
        <ele>877</ele>
        <time>2013-12-08T10:14:04Z</time>
      </trkpt>
      <trkpt lat="44.33341" lon="2.72114">
        <ele>878</ele>
        <time>2013-12-08T10:14:07Z</time>
      </trkpt>
      <trkpt lat="44.33339" lon="2.72121">
        <ele>877</ele>
        <time>2013-12-08T10:14:11Z</time>
      </trkpt>
      <trkpt lat="44.33335" lon="2.72127">
        <ele>877</ele>
        <time>2013-12-08T10:14:15Z</time>
      </trkpt>
      <trkpt lat="44.33332" lon="2.72133">
        <ele>876</ele>
        <time>2013-12-08T10:14:18Z</time>
      </trkpt>
      <trkpt lat="44.3333" lon="2.72139">
        <ele>876</ele>
        <time>2013-12-08T10:14:21Z</time>
      </trkpt>
      <trkpt lat="44.33326" lon="2.72146">
        <ele>875</ele>
        <time>2013-12-08T10:14:25Z</time>
      </trkpt>
      <trkpt lat="44.33323" lon="2.72152">
        <ele>875</ele>
        <time>2013-12-08T10:14:29Z</time>
      </trkpt>
      <trkpt lat="44.3332" lon="2.72157">
        <ele>875</ele>
        <time>2013-12-08T10:14:32Z</time>
      </trkpt>
      <trkpt lat="44.33317" lon="2.72164">
        <ele>875</ele>
        <time>2013-12-08T10:14:35Z</time>
      </trkpt>
      <trkpt lat="44.33314" lon="2.72169">
        <ele>875</ele>
        <time>2013-12-08T10:14:38Z</time>
      </trkpt>
      <trkpt lat="44.33311" lon="2.72175">
        <ele>875</ele>
        <time>2013-12-08T10:14:43Z</time>
      </trkpt>
      <trkpt lat="44.33308" lon="2.72181">
        <ele>875</ele>
        <time>2013-12-08T10:14:47Z</time>
      </trkpt>
      <trkpt lat="44.33305" lon="2.72187">
        <ele>875</ele>
        <time>2013-12-08T10:14:51Z</time>
      </trkpt>
      <trkpt lat="44.33303" lon="2.72194">
        <ele>875</ele>
        <time>2013-12-08T10:14:54Z</time>
      </trkpt>
      <trkpt lat="44.33301" lon="2.72202">
        <ele>874</ele>
        <time>2013-12-08T10:14:57Z</time>
      </trkpt>
      <trkpt lat="44.33297" lon="2.72208">
        <ele>874</ele>
        <time>2013-12-08T10:15:00Z</time>
      </trkpt>
      <trkpt lat="44.33294" lon="2.72215">
        <ele>874</ele>
        <time>2013-12-08T10:15:04Z</time>
      </trkpt>
      <trkpt lat="44.33292" lon="2.72221">
        <ele>874</ele>
        <time>2013-12-08T10:15:07Z</time>
      </trkpt>
      <trkpt lat="44.33288" lon="2.72225">
        <ele>874</ele>
        <time>2013-12-08T10:15:11Z</time>
      </trkpt>
      <trkpt lat="44.33288" lon="2.72229">
        <ele>872</ele>
        <time>2013-12-08T10:15:51Z</time>
      </trkpt>
      <trkpt lat="44.3329" lon="2.72236">
        <ele>871</ele>
        <time>2013-12-08T10:15:54Z</time>
      </trkpt>
      <trkpt lat="44.3329" lon="2.72243">
        <ele>870</ele>
        <time>2013-12-08T10:15:57Z</time>
      </trkpt>
      <trkpt lat="44.33291" lon="2.7225">
        <ele>870</ele>
        <time>2013-12-08T10:16:00Z</time>
      </trkpt>
      <trkpt lat="44.33291" lon="2.72257">
        <ele>870</ele>
        <time>2013-12-08T10:16:03Z</time>
      </trkpt>
      <trkpt lat="44.33291" lon="2.72264">
        <ele>870</ele>
        <time>2013-12-08T10:16:06Z</time>
      </trkpt>
      <trkpt lat="44.33292" lon="2.72271">
        <ele>870</ele>
        <time>2013-12-08T10:16:09Z</time>
      </trkpt>
      <trkpt lat="44.33293" lon="2.72277">
        <ele>870</ele>
        <time>2013-12-08T10:16:12Z</time>
      </trkpt>
      <trkpt lat="44.33295" lon="2.72285">
        <ele>870</ele>
        <time>2013-12-08T10:16:16Z</time>
      </trkpt>
      <trkpt lat="44.33295" lon="2.72292">
        <ele>871</ele>
        <time>2013-12-08T10:16:19Z</time>
      </trkpt>
      <trkpt lat="44.33296" lon="2.72299">
        <ele>871</ele>
        <time>2013-12-08T10:16:22Z</time>
      </trkpt>
      <trkpt lat="44.33298" lon="2.72306">
        <ele>870</ele>
        <time>2013-12-08T10:16:26Z</time>
      </trkpt>
      <trkpt lat="44.33299" lon="2.72312">
        <ele>870</ele>
        <time>2013-12-08T10:16:29Z</time>
      </trkpt>
      <trkpt lat="44.333" lon="2.72319">
        <ele>871</ele>
        <time>2013-12-08T10:16:32Z</time>
      </trkpt>
      <trkpt lat="44.33302" lon="2.72327">
        <ele>872</ele>
        <time>2013-12-08T10:16:36Z</time>
      </trkpt>
      <trkpt lat="44.33305" lon="2.72334">
        <ele>873</ele>
        <time>2013-12-08T10:16:40Z</time>
      </trkpt>
      <trkpt lat="44.33308" lon="2.72341">
        <ele>874</ele>
        <time>2013-12-08T10:16:44Z</time>
      </trkpt>
      <trkpt lat="44.3331" lon="2.72347">
        <ele>875</ele>
        <time>2013-12-08T10:16:48Z</time>
      </trkpt>
      <trkpt lat="44.33313" lon="2.72354">
        <ele>875</ele>
        <time>2013-12-08T10:16:52Z</time>
      </trkpt>
      <trkpt lat="44.33317" lon="2.72361">
        <ele>874</ele>
        <time>2013-12-08T10:16:56Z</time>
      </trkpt>
      <trkpt lat="44.33321" lon="2.72367">
        <ele>872</ele>
        <time>2013-12-08T10:17:00Z</time>
      </trkpt>
      <trkpt lat="44.33326" lon="2.72371">
        <ele>871</ele>
        <time>2013-12-08T10:17:04Z</time>
      </trkpt>
      <trkpt lat="44.33331" lon="2.72374">
        <ele>871</ele>
        <time>2013-12-08T10:17:07Z</time>
      </trkpt>
      <trkpt lat="44.33337" lon="2.7238">
        <ele>871</ele>
        <time>2013-12-08T10:17:13Z</time>
      </trkpt>
      <trkpt lat="44.33341" lon="2.72383">
        <ele>870</ele>
        <time>2013-12-08T10:17:17Z</time>
      </trkpt>
      <trkpt lat="44.33346" lon="2.72388">
        <ele>870</ele>
        <time>2013-12-08T10:17:21Z</time>
      </trkpt>
      <trkpt lat="44.33351" lon="2.72392">
        <ele>869</ele>
        <time>2013-12-08T10:17:24Z</time>
      </trkpt>
      <trkpt lat="44.33358" lon="2.724">
        <ele>867</ele>
        <time>2013-12-08T10:17:33Z</time>
      </trkpt>
      <trkpt lat="44.33362" lon="2.72412">
        <ele>864</ele>
        <time>2013-12-08T10:17:42Z</time>
      </trkpt>
      <trkpt lat="44.33364" lon="2.72423">
        <ele>861</ele>
        <time>2013-12-08T10:17:46Z</time>
      </trkpt>
      <trkpt lat="44.33366" lon="2.72432">
        <ele>859</ele>
        <time>2013-12-08T10:17:49Z</time>
      </trkpt>
      <trkpt lat="44.33367" lon="2.72439">
        <ele>857</ele>
        <time>2013-12-08T10:17:52Z</time>
      </trkpt>
      <trkpt lat="44.33369" lon="2.72446">
        <ele>856</ele>
        <time>2013-12-08T10:17:57Z</time>
      </trkpt>
      <trkpt lat="44.33369" lon="2.72454">
        <ele>856</ele>
        <time>2013-12-08T10:18:01Z</time>
      </trkpt>
      <trkpt lat="44.33369" lon="2.72462">
        <ele>856</ele>
        <time>2013-12-08T10:18:04Z</time>
      </trkpt>
      <trkpt lat="44.33368" lon="2.72469">
        <ele>857</ele>
        <time>2013-12-08T10:18:07Z</time>
      </trkpt>
      <trkpt lat="44.33368" lon="2.72477">
        <ele>857</ele>
        <time>2013-12-08T10:18:10Z</time>
      </trkpt>
      <trkpt lat="44.33367" lon="2.72483">
        <ele>857</ele>
        <time>2013-12-08T10:18:13Z</time>
      </trkpt>
      <trkpt lat="44.33367" lon="2.72491">
        <ele>858</ele>
        <time>2013-12-08T10:18:18Z</time>
      </trkpt>
      <trkpt lat="44.33366" lon="2.72498">
        <ele>858</ele>
        <time>2013-12-08T10:18:22Z</time>
      </trkpt>
      <trkpt lat="44.33365" lon="2.72505">
        <ele>858</ele>
        <time>2013-12-08T10:18:26Z</time>
      </trkpt>
      <trkpt lat="44.33365" lon="2.72513">
        <ele>858</ele>
        <time>2013-12-08T10:18:31Z</time>
      </trkpt>
      <trkpt lat="44.33365" lon="2.72521">
        <ele>855</ele>
        <time>2013-12-08T10:18:36Z</time>
      </trkpt>
      <trkpt lat="44.33367" lon="2.72529">
        <ele>855</ele>
        <time>2013-12-08T10:18:40Z</time>
      </trkpt>
      <trkpt lat="44.33368" lon="2.72535">
        <ele>854</ele>
        <time>2013-12-08T10:18:43Z</time>
      </trkpt>
      <trkpt lat="44.3337" lon="2.72541">
        <ele>853</ele>
        <time>2013-12-08T10:18:46Z</time>
      </trkpt>
      <trkpt lat="44.33371" lon="2.72547">
        <ele>851</ele>
        <time>2013-12-08T10:18:49Z</time>
      </trkpt>
      <trkpt lat="44.33373" lon="2.72553">
        <ele>850</ele>
        <time>2013-12-08T10:18:52Z</time>
      </trkpt>
      <trkpt lat="44.33376" lon="2.72558">
        <ele>849</ele>
        <time>2013-12-08T10:18:56Z</time>
      </trkpt>
      <trkpt lat="44.33378" lon="2.72565">
        <ele>847</ele>
        <time>2013-12-08T10:19:00Z</time>
      </trkpt>
      <trkpt lat="44.33381" lon="2.72572">
        <ele>846</ele>
        <time>2013-12-08T10:19:05Z</time>
      </trkpt>
      <trkpt lat="44.33385" lon="2.72584">
        <ele>843</ele>
        <time>2013-12-08T10:19:12Z</time>
      </trkpt>
      <trkpt lat="44.3339" lon="2.72595">
        <ele>842</ele>
        <time>2013-12-08T10:19:17Z</time>
      </trkpt>
      <trkpt lat="44.33397" lon="2.72604">
        <ele>843</ele>
        <time>2013-12-08T10:19:21Z</time>
      </trkpt>
      <trkpt lat="44.33401" lon="2.7261">
        <ele>843</ele>
        <time>2013-12-08T10:19:24Z</time>
      </trkpt>
      <trkpt lat="44.33409" lon="2.72618">
        <ele>844</ele>
        <time>2013-12-08T10:19:31Z</time>
      </trkpt>
      <trkpt lat="44.33413" lon="2.72623">
        <ele>845</ele>
        <time>2013-12-08T10:19:35Z</time>
      </trkpt>
      <trkpt lat="44.33417" lon="2.72629">
        <ele>845</ele>
        <time>2013-12-08T10:19:39Z</time>
      </trkpt>
      <trkpt lat="44.33419" lon="2.72635">
        <ele>844</ele>
        <time>2013-12-08T10:19:43Z</time>
      </trkpt>
      <trkpt lat="44.33421" lon="2.72642">
        <ele>841</ele>
        <time>2013-12-08T10:19:47Z</time>
      </trkpt>
      <trkpt lat="44.33425" lon="2.7265">
        <ele>839</ele>
        <time>2013-12-08T10:19:51Z</time>
      </trkpt>
      <trkpt lat="44.33429" lon="2.72658">
        <ele>837</ele>
        <time>2013-12-08T10:19:56Z</time>
      </trkpt>
      <trkpt lat="44.33433" lon="2.72666">
        <ele>835</ele>
        <time>2013-12-08T10:20:02Z</time>
      </trkpt>
      <trkpt lat="44.33436" lon="2.72672">
        <ele>834</ele>
        <time>2013-12-08T10:20:05Z</time>
      </trkpt>
      <trkpt lat="44.33439" lon="2.72677">
        <ele>833</ele>
        <time>2013-12-08T10:20:09Z</time>
      </trkpt>
      <trkpt lat="44.33443" lon="2.72687">
        <ele>833</ele>
        <time>2013-12-08T10:20:15Z</time>
      </trkpt>
      <trkpt lat="44.33446" lon="2.72695">
        <ele>834</ele>
        <time>2013-12-08T10:20:19Z</time>
      </trkpt>
      <trkpt lat="44.33448" lon="2.72701">
        <ele>835</ele>
        <time>2013-12-08T10:20:23Z</time>
      </trkpt>
      <trkpt lat="44.33451" lon="2.72708">
        <ele>835</ele>
        <time>2013-12-08T10:20:29Z</time>
      </trkpt>
      <trkpt lat="44.33454" lon="2.72715">
        <ele>835</ele>
        <time>2013-12-08T10:20:32Z</time>
      </trkpt>
      <trkpt lat="44.33457" lon="2.72721">
        <ele>835</ele>
        <time>2013-12-08T10:20:35Z</time>
      </trkpt>
      <trkpt lat="44.3346" lon="2.72726">
        <ele>835</ele>
        <time>2013-12-08T10:20:39Z</time>
      </trkpt>
      <trkpt lat="44.33465" lon="2.72736">
        <ele>834</ele>
        <time>2013-12-08T10:20:45Z</time>
      </trkpt>
      <trkpt lat="44.33467" lon="2.72743">
        <ele>834</ele>
        <time>2013-12-08T10:20:49Z</time>
      </trkpt>
      <trkpt lat="44.33469" lon="2.7275">
        <ele>835</ele>
        <time>2013-12-08T10:20:54Z</time>
      </trkpt>
      <trkpt lat="44.33471" lon="2.72757">
        <ele>836</ele>
        <time>2013-12-08T10:20:57Z</time>
      </trkpt>
      <trkpt lat="44.33473" lon="2.72764">
        <ele>837</ele>
        <time>2013-12-08T10:21:00Z</time>
      </trkpt>
      <trkpt lat="44.33474" lon="2.72771">
        <ele>837</ele>
        <time>2013-12-08T10:21:03Z</time>
      </trkpt>
      <trkpt lat="44.33476" lon="2.72778">
        <ele>838</ele>
        <time>2013-12-08T10:21:07Z</time>
      </trkpt>
      <trkpt lat="44.33478" lon="2.72784">
        <ele>837</ele>
        <time>2013-12-08T10:21:11Z</time>
      </trkpt>
      <trkpt lat="44.33481" lon="2.72792">
        <ele>836</ele>
        <time>2013-12-08T10:21:17Z</time>
      </trkpt>
      <trkpt lat="44.33487" lon="2.72802">
        <ele>836</ele>
        <time>2013-12-08T10:21:22Z</time>
      </trkpt>
      <trkpt lat="44.3349" lon="2.72809">
        <ele>836</ele>
        <time>2013-12-08T10:21:25Z</time>
      </trkpt>
      <trkpt lat="44.33492" lon="2.72816">
        <ele>835</ele>
        <time>2013-12-08T10:21:28Z</time>
      </trkpt>
      <trkpt lat="44.33495" lon="2.72821">
        <ele>834</ele>
        <time>2013-12-08T10:21:31Z</time>
      </trkpt>
      <trkpt lat="44.33498" lon="2.72834">
        <ele>833</ele>
        <time>2013-12-08T10:21:36Z</time>
      </trkpt>
      <trkpt lat="44.33499" lon="2.7284">
        <ele>832</ele>
        <time>2013-12-08T10:21:39Z</time>
      </trkpt>
      <trkpt lat="44.33499" lon="2.72847">
        <ele>831</ele>
        <time>2013-12-08T10:21:42Z</time>
      </trkpt>
      <trkpt lat="44.33499" lon="2.72854">
        <ele>830</ele>
        <time>2013-12-08T10:21:46Z</time>
      </trkpt>
      <trkpt lat="44.33501" lon="2.72862">
        <ele>830</ele>
        <time>2013-12-08T10:21:50Z</time>
      </trkpt>
      <trkpt lat="44.33503" lon="2.72868">
        <ele>830</ele>
        <time>2013-12-08T10:21:54Z</time>
      </trkpt>
      <trkpt lat="44.33504" lon="2.72875">
        <ele>830</ele>
        <time>2013-12-08T10:21:57Z</time>
      </trkpt>
      <trkpt lat="44.33507" lon="2.72882">
        <ele>831</ele>
        <time>2013-12-08T10:22:01Z</time>
      </trkpt>
      <trkpt lat="44.33509" lon="2.72888">
        <ele>831</ele>
        <time>2013-12-08T10:22:04Z</time>
      </trkpt>
      <trkpt lat="44.3351" lon="2.72895">
        <ele>831</ele>
        <time>2013-12-08T10:22:07Z</time>
      </trkpt>
      <trkpt lat="44.3351" lon="2.72903">
        <ele>831</ele>
        <time>2013-12-08T10:22:10Z</time>
      </trkpt>
      <trkpt lat="44.33511" lon="2.7291">
        <ele>831</ele>
        <time>2013-12-08T10:22:13Z</time>
      </trkpt>
      <trkpt lat="44.33512" lon="2.72918">
        <ele>831</ele>
        <time>2013-12-08T10:22:17Z</time>
      </trkpt>
      <trkpt lat="44.33512" lon="2.72926">
        <ele>831</ele>
        <time>2013-12-08T10:22:21Z</time>
      </trkpt>
      <trkpt lat="44.33514" lon="2.72934">
        <ele>831</ele>
        <time>2013-12-08T10:22:25Z</time>
      </trkpt>
      <trkpt lat="44.33516" lon="2.72939">
        <ele>831</ele>
        <time>2013-12-08T10:22:29Z</time>
      </trkpt>
      <trkpt lat="44.3352" lon="2.72946">
        <ele>830</ele>
        <time>2013-12-08T10:22:34Z</time>
      </trkpt>
      <trkpt lat="44.33526" lon="2.72956">
        <ele>828</ele>
        <time>2013-12-08T10:22:42Z</time>
      </trkpt>
      <trkpt lat="44.33529" lon="2.72962">
        <ele>828</ele>
        <time>2013-12-08T10:22:45Z</time>
      </trkpt>
      <trkpt lat="44.33533" lon="2.72971">
        <ele>827</ele>
        <time>2013-12-08T10:22:50Z</time>
      </trkpt>
      <trkpt lat="44.33537" lon="2.72978">
        <ele>827</ele>
        <time>2013-12-08T10:22:54Z</time>
      </trkpt>
      <trkpt lat="44.33539" lon="2.72984">
        <ele>826</ele>
        <time>2013-12-08T10:22:57Z</time>
      </trkpt>
      <trkpt lat="44.3354" lon="2.72991">
        <ele>827</ele>
        <time>2013-12-08T10:23:00Z</time>
      </trkpt>
      <trkpt lat="44.33544" lon="2.72998">
        <ele>827</ele>
        <time>2013-12-08T10:23:04Z</time>
      </trkpt>
      <trkpt lat="44.33546" lon="2.73005">
        <ele>827</ele>
        <time>2013-12-08T10:23:08Z</time>
      </trkpt>
      <trkpt lat="44.33548" lon="2.73011">
        <ele>828</ele>
        <time>2013-12-08T10:23:11Z</time>
      </trkpt>
      <trkpt lat="44.33551" lon="2.73018">
        <ele>827</ele>
        <time>2013-12-08T10:23:15Z</time>
      </trkpt>
      <trkpt lat="44.33553" lon="2.73023">
        <ele>826</ele>
        <time>2013-12-08T10:23:19Z</time>
      </trkpt>
      <trkpt lat="44.33556" lon="2.7303">
        <ele>825</ele>
        <time>2013-12-08T10:23:23Z</time>
      </trkpt>
      <trkpt lat="44.3356" lon="2.73042">
        <ele>826</ele>
        <time>2013-12-08T10:23:30Z</time>
      </trkpt>
      <trkpt lat="44.33562" lon="2.73048">
        <ele>826</ele>
        <time>2013-12-08T10:23:34Z</time>
      </trkpt>
      <trkpt lat="44.33565" lon="2.73061">
        <ele>826</ele>
        <time>2013-12-08T10:23:41Z</time>
      </trkpt>
      <trkpt lat="44.33568" lon="2.73068">
        <ele>825</ele>
        <time>2013-12-08T10:23:46Z</time>
      </trkpt>
      <trkpt lat="44.3357" lon="2.73074">
        <ele>826</ele>
        <time>2013-12-08T10:23:50Z</time>
      </trkpt>
      <trkpt lat="44.33572" lon="2.73082">
        <ele>827</ele>
        <time>2013-12-08T10:23:53Z</time>
      </trkpt>
      <trkpt lat="44.33574" lon="2.73089">
        <ele>827</ele>
        <time>2013-12-08T10:23:56Z</time>
      </trkpt>
      <trkpt lat="44.33574" lon="2.73096">
        <ele>828</ele>
        <time>2013-12-08T10:24:01Z</time>
      </trkpt>
      <trkpt lat="44.33573" lon="2.73103">
        <ele>828</ele>
        <time>2013-12-08T10:24:04Z</time>
      </trkpt>
      <trkpt lat="44.33574" lon="2.7311">
        <ele>829</ele>
        <time>2013-12-08T10:24:07Z</time>
      </trkpt>
      <trkpt lat="44.33575" lon="2.73116">
        <ele>830</ele>
        <time>2013-12-08T10:24:10Z</time>
      </trkpt>
      <trkpt lat="44.33576" lon="2.73122">
        <ele>831</ele>
        <time>2013-12-08T10:24:13Z</time>
      </trkpt>
      <trkpt lat="44.33578" lon="2.7313">
        <ele>832</ele>
        <time>2013-12-08T10:24:17Z</time>
      </trkpt>
      <trkpt lat="44.33579" lon="2.73136">
        <ele>833</ele>
        <time>2013-12-08T10:24:20Z</time>
      </trkpt>
      <trkpt lat="44.3358" lon="2.73143">
        <ele>833</ele>
        <time>2013-12-08T10:24:23Z</time>
      </trkpt>
      <trkpt lat="44.33582" lon="2.7315">
        <ele>834</ele>
        <time>2013-12-08T10:24:27Z</time>
      </trkpt>
      <trkpt lat="44.33584" lon="2.73157">
        <ele>834</ele>
        <time>2013-12-08T10:24:30Z</time>
      </trkpt>
      <trkpt lat="44.33585" lon="2.73163">
        <ele>835</ele>
        <time>2013-12-08T10:24:33Z</time>
      </trkpt>
      <trkpt lat="44.33588" lon="2.73169">
        <ele>835</ele>
        <time>2013-12-08T10:24:37Z</time>
      </trkpt>
      <trkpt lat="44.3359" lon="2.73176">
        <ele>836</ele>
        <time>2013-12-08T10:24:41Z</time>
      </trkpt>
      <trkpt lat="44.33591" lon="2.73183">
        <ele>837</ele>
        <time>2013-12-08T10:24:45Z</time>
      </trkpt>
      <trkpt lat="44.33593" lon="2.7319">
        <ele>837</ele>
        <time>2013-12-08T10:24:49Z</time>
      </trkpt>
      <trkpt lat="44.33596" lon="2.73199">
        <ele>837</ele>
        <time>2013-12-08T10:24:54Z</time>
      </trkpt>
      <trkpt lat="44.33597" lon="2.73206">
        <ele>837</ele>
        <time>2013-12-08T10:24:57Z</time>
      </trkpt>
      <trkpt lat="44.33598" lon="2.73214">
        <ele>837</ele>
        <time>2013-12-08T10:25:02Z</time>
      </trkpt>
      <trkpt lat="44.336" lon="2.7322">
        <ele>836</ele>
        <time>2013-12-08T10:25:06Z</time>
      </trkpt>
      <trkpt lat="44.33603" lon="2.73226">
        <ele>836</ele>
        <time>2013-12-08T10:25:09Z</time>
      </trkpt>
      <trkpt lat="44.33606" lon="2.73232">
        <ele>835</ele>
        <time>2013-12-08T10:25:13Z</time>
      </trkpt>
      <trkpt lat="44.3361" lon="2.73239">
        <ele>835</ele>
        <time>2013-12-08T10:25:17Z</time>
      </trkpt>
      <trkpt lat="44.33612" lon="2.73245">
        <ele>836</ele>
        <time>2013-12-08T10:25:20Z</time>
      </trkpt>
      <trkpt lat="44.33616" lon="2.73251">
        <ele>835</ele>
        <time>2013-12-08T10:25:24Z</time>
      </trkpt>
      <trkpt lat="44.33619" lon="2.73258">
        <ele>835</ele>
        <time>2013-12-08T10:25:28Z</time>
      </trkpt>
      <trkpt lat="44.33621" lon="2.73264">
        <ele>835</ele>
        <time>2013-12-08T10:25:31Z</time>
      </trkpt>
      <trkpt lat="44.33623" lon="2.7327">
        <ele>835</ele>
        <time>2013-12-08T10:25:34Z</time>
      </trkpt>
      <trkpt lat="44.33625" lon="2.73277">
        <ele>835</ele>
        <time>2013-12-08T10:25:37Z</time>
      </trkpt>
      <trkpt lat="44.33628" lon="2.73282">
        <ele>836</ele>
        <time>2013-12-08T10:25:41Z</time>
      </trkpt>
      <trkpt lat="44.33631" lon="2.73289">
        <ele>836</ele>
        <time>2013-12-08T10:25:45Z</time>
      </trkpt>
      <trkpt lat="44.33633" lon="2.73294">
        <ele>836</ele>
        <time>2013-12-08T10:25:48Z</time>
      </trkpt>
      <trkpt lat="44.33636" lon="2.73299">
        <ele>836</ele>
        <time>2013-12-08T10:25:51Z</time>
      </trkpt>
      <trkpt lat="44.33639" lon="2.73305">
        <ele>838</ele>
        <time>2013-12-08T10:25:54Z</time>
      </trkpt>
      <trkpt lat="44.33642" lon="2.73312">
        <ele>839</ele>
        <time>2013-12-08T10:25:58Z</time>
      </trkpt>
      <trkpt lat="44.33645" lon="2.73317">
        <ele>839</ele>
        <time>2013-12-08T10:26:01Z</time>
      </trkpt>
      <trkpt lat="44.3365" lon="2.73321">
        <ele>839</ele>
        <time>2013-12-08T10:26:05Z</time>
      </trkpt>
      <trkpt lat="44.33653" lon="2.73326">
        <ele>839</ele>
        <time>2013-12-08T10:26:08Z</time>
      </trkpt>
      <trkpt lat="44.33657" lon="2.7333">
        <ele>838</ele>
        <time>2013-12-08T10:26:11Z</time>
      </trkpt>
      <trkpt lat="44.33659" lon="2.73337">
        <ele>837</ele>
        <time>2013-12-08T10:26:15Z</time>
      </trkpt>
      <trkpt lat="44.33662" lon="2.73343">
        <ele>837</ele>
        <time>2013-12-08T10:26:18Z</time>
      </trkpt>
      <trkpt lat="44.33665" lon="2.7335">
        <ele>837</ele>
        <time>2013-12-08T10:26:21Z</time>
      </trkpt>
      <trkpt lat="44.33669" lon="2.73356">
        <ele>837</ele>
        <time>2013-12-08T10:26:24Z</time>
      </trkpt>
      <trkpt lat="44.33671" lon="2.73362">
        <ele>838</ele>
        <time>2013-12-08T10:26:27Z</time>
      </trkpt>
      <trkpt lat="44.33675" lon="2.73369">
        <ele>838</ele>
        <time>2013-12-08T10:26:31Z</time>
      </trkpt>
      <trkpt lat="44.33676" lon="2.73377">
        <ele>837</ele>
        <time>2013-12-08T10:26:35Z</time>
      </trkpt>
      <trkpt lat="44.33678" lon="2.73383">
        <ele>836</ele>
        <time>2013-12-08T10:26:38Z</time>
      </trkpt>
      <trkpt lat="44.3368" lon="2.7339">
        <ele>834</ele>
        <time>2013-12-08T10:26:41Z</time>
      </trkpt>
      <trkpt lat="44.33684" lon="2.73396">
        <ele>835</ele>
        <time>2013-12-08T10:26:45Z</time>
      </trkpt>
      <trkpt lat="44.33686" lon="2.73404">
        <ele>835</ele>
        <time>2013-12-08T10:26:49Z</time>
      </trkpt>
      <trkpt lat="44.33688" lon="2.7341">
        <ele>833</ele>
        <time>2013-12-08T10:26:52Z</time>
      </trkpt>
      <trkpt lat="44.3369" lon="2.73417">
        <ele>831</ele>
        <time>2013-12-08T10:26:55Z</time>
      </trkpt>
      <trkpt lat="44.33694" lon="2.73423">
        <ele>830</ele>
        <time>2013-12-08T10:26:59Z</time>
      </trkpt>
      <trkpt lat="44.33696" lon="2.73429">
        <ele>829</ele>
        <time>2013-12-08T10:27:02Z</time>
      </trkpt>
      <trkpt lat="44.33698" lon="2.73436">
        <ele>828</ele>
        <time>2013-12-08T10:27:05Z</time>
      </trkpt>
      <trkpt lat="44.33701" lon="2.73442">
        <ele>828</ele>
        <time>2013-12-08T10:27:08Z</time>
      </trkpt>
      <trkpt lat="44.33704" lon="2.73448">
        <ele>829</ele>
        <time>2013-12-08T10:27:11Z</time>
      </trkpt>
      <trkpt lat="44.33708" lon="2.73454">
        <ele>830</ele>
        <time>2013-12-08T10:27:15Z</time>
      </trkpt>
      <trkpt lat="44.3371" lon="2.73461">
        <ele>830</ele>
        <time>2013-12-08T10:27:18Z</time>
      </trkpt>
      <trkpt lat="44.33712" lon="2.73468">
        <ele>830</ele>
        <time>2013-12-08T10:27:22Z</time>
      </trkpt>
      <trkpt lat="44.33713" lon="2.73477">
        <ele>831</ele>
        <time>2013-12-08T10:27:26Z</time>
      </trkpt>
      <trkpt lat="44.33713" lon="2.73485">
        <ele>833</ele>
        <time>2013-12-08T10:27:30Z</time>
      </trkpt>
      <trkpt lat="44.33716" lon="2.73492">
        <ele>833</ele>
        <time>2013-12-08T10:27:34Z</time>
      </trkpt>
      <trkpt lat="44.33716" lon="2.73499">
        <ele>832</ele>
        <time>2013-12-08T10:27:37Z</time>
      </trkpt>
      <trkpt lat="44.33718" lon="2.73506">
        <ele>832</ele>
        <time>2013-12-08T10:27:40Z</time>
      </trkpt>
      <trkpt lat="44.3372" lon="2.73512">
        <ele>832</ele>
        <time>2013-12-08T10:27:43Z</time>
      </trkpt>
      <trkpt lat="44.33723" lon="2.7352">
        <ele>831</ele>
        <time>2013-12-08T10:27:47Z</time>
      </trkpt>
      <trkpt lat="44.33724" lon="2.73526">
        <ele>831</ele>
        <time>2013-12-08T10:27:50Z</time>
      </trkpt>
      <trkpt lat="44.33726" lon="2.73533">
        <ele>831</ele>
        <time>2013-12-08T10:27:53Z</time>
      </trkpt>
      <trkpt lat="44.33727" lon="2.73541">
        <ele>830</ele>
        <time>2013-12-08T10:27:57Z</time>
      </trkpt>
      <trkpt lat="44.33729" lon="2.73548">
        <ele>830</ele>
        <time>2013-12-08T10:28:01Z</time>
      </trkpt>
      <trkpt lat="44.3373" lon="2.73559">
        <ele>830</ele>
        <time>2013-12-08T10:28:05Z</time>
      </trkpt>
      <trkpt lat="44.3373" lon="2.73566">
        <ele>830</ele>
        <time>2013-12-08T10:28:08Z</time>
      </trkpt>
      <trkpt lat="44.33732" lon="2.73574">
        <ele>830</ele>
        <time>2013-12-08T10:28:12Z</time>
      </trkpt>
      <trkpt lat="44.33735" lon="2.7358">
        <ele>830</ele>
        <time>2013-12-08T10:28:16Z</time>
      </trkpt>
      <trkpt lat="44.33736" lon="2.7359">
        <ele>831</ele>
        <time>2013-12-08T10:28:20Z</time>
      </trkpt>
      <trkpt lat="44.33737" lon="2.73596">
        <ele>832</ele>
        <time>2013-12-08T10:28:23Z</time>
      </trkpt>
      <trkpt lat="44.33739" lon="2.73602">
        <ele>833</ele>
        <time>2013-12-08T10:28:26Z</time>
      </trkpt>
      <trkpt lat="44.3374" lon="2.7361">
        <ele>833</ele>
        <time>2013-12-08T10:28:29Z</time>
      </trkpt>
      <trkpt lat="44.33739" lon="2.73617">
        <ele>833</ele>
        <time>2013-12-08T10:28:33Z</time>
      </trkpt>
      <trkpt lat="44.33739" lon="2.73625">
        <ele>832</ele>
        <time>2013-12-08T10:28:37Z</time>
      </trkpt>
      <trkpt lat="44.33738" lon="2.73631">
        <ele>831</ele>
        <time>2013-12-08T10:28:40Z</time>
      </trkpt>
      <trkpt lat="44.33737" lon="2.73639">
        <ele>831</ele>
        <time>2013-12-08T10:28:44Z</time>
      </trkpt>
      <trkpt lat="44.33736" lon="2.73651">
        <ele>832</ele>
        <time>2013-12-08T10:28:50Z</time>
      </trkpt>
      <trkpt lat="44.33735" lon="2.73658">
        <ele>832</ele>
        <time>2013-12-08T10:28:53Z</time>
      </trkpt>
      <trkpt lat="44.33735" lon="2.73666">
        <ele>833</ele>
        <time>2013-12-08T10:28:57Z</time>
      </trkpt>
      <trkpt lat="44.33735" lon="2.73675">
        <ele>832</ele>
        <time>2013-12-08T10:29:01Z</time>
      </trkpt>
      <trkpt lat="44.33734" lon="2.73682">
        <ele>833</ele>
        <time>2013-12-08T10:29:04Z</time>
      </trkpt>
      <trkpt lat="44.33735" lon="2.73689">
        <ele>833</ele>
        <time>2013-12-08T10:29:08Z</time>
      </trkpt>
      <trkpt lat="44.33735" lon="2.73696">
        <ele>833</ele>
        <time>2013-12-08T10:29:12Z</time>
      </trkpt>
      <trkpt lat="44.33734" lon="2.73702">
        <ele>833</ele>
        <time>2013-12-08T10:29:15Z</time>
      </trkpt>
      <trkpt lat="44.33733" lon="2.73709">
        <ele>833</ele>
        <time>2013-12-08T10:29:18Z</time>
      </trkpt>
      <trkpt lat="44.33733" lon="2.73716">
        <ele>834</ele>
        <time>2013-12-08T10:29:21Z</time>
      </trkpt>
      <trkpt lat="44.33733" lon="2.73722">
        <ele>834</ele>
        <time>2013-12-08T10:29:25Z</time>
      </trkpt>
      <trkpt lat="44.33733" lon="2.7373">
        <ele>834</ele>
        <time>2013-12-08T10:29:29Z</time>
      </trkpt>
      <trkpt lat="44.33734" lon="2.73738">
        <ele>834</ele>
        <time>2013-12-08T10:29:33Z</time>
      </trkpt>
      <trkpt lat="44.33733" lon="2.73746">
        <ele>833</ele>
        <time>2013-12-08T10:29:37Z</time>
      </trkpt>
      <trkpt lat="44.33733" lon="2.73753">
        <ele>833</ele>
        <time>2013-12-08T10:29:40Z</time>
      </trkpt>
      <trkpt lat="44.33733" lon="2.73759">
        <ele>833</ele>
        <time>2013-12-08T10:29:43Z</time>
      </trkpt>
      <trkpt lat="44.33733" lon="2.73767">
        <ele>832</ele>
        <time>2013-12-08T10:29:47Z</time>
      </trkpt>
      <trkpt lat="44.33734" lon="2.73775">
        <ele>832</ele>
        <time>2013-12-08T10:29:51Z</time>
      </trkpt>
      <trkpt lat="44.33734" lon="2.73782">
        <ele>833</ele>
        <time>2013-12-08T10:29:54Z</time>
      </trkpt>
      <trkpt lat="44.33734" lon="2.7379">
        <ele>834</ele>
        <time>2013-12-08T10:29:58Z</time>
      </trkpt>
      <trkpt lat="44.33735" lon="2.73797">
        <ele>835</ele>
        <time>2013-12-08T10:30:01Z</time>
      </trkpt>
      <trkpt lat="44.33735" lon="2.73803">
        <ele>836</ele>
        <time>2013-12-08T10:30:04Z</time>
      </trkpt>
      <trkpt lat="44.33735" lon="2.73812">
        <ele>837</ele>
        <time>2013-12-08T10:30:08Z</time>
      </trkpt>
      <trkpt lat="44.33735" lon="2.73819">
        <ele>838</ele>
        <time>2013-12-08T10:30:11Z</time>
      </trkpt>
      <trkpt lat="44.33735" lon="2.73825">
        <ele>839</ele>
        <time>2013-12-08T10:30:14Z</time>
      </trkpt>
      <trkpt lat="44.33735" lon="2.73832">
        <ele>839</ele>
        <time>2013-12-08T10:30:17Z</time>
      </trkpt>
      <trkpt lat="44.33735" lon="2.73839">
        <ele>840</ele>
        <time>2013-12-08T10:30:20Z</time>
      </trkpt>
      <trkpt lat="44.33736" lon="2.73845">
        <ele>840</ele>
        <time>2013-12-08T10:30:24Z</time>
      </trkpt>
      <trkpt lat="44.33737" lon="2.73854">
        <ele>840</ele>
        <time>2013-12-08T10:30:28Z</time>
      </trkpt>
      <trkpt lat="44.33738" lon="2.73861">
        <ele>839</ele>
        <time>2013-12-08T10:30:32Z</time>
      </trkpt>
      <trkpt lat="44.3374" lon="2.73868">
        <ele>837</ele>
        <time>2013-12-08T10:30:36Z</time>
      </trkpt>
      <trkpt lat="44.33741" lon="2.73874">
        <ele>836</ele>
        <time>2013-12-08T10:30:39Z</time>
      </trkpt>
      <trkpt lat="44.33743" lon="2.7388">
        <ele>834</ele>
        <time>2013-12-08T10:30:42Z</time>
      </trkpt>
      <trkpt lat="44.33744" lon="2.73888">
        <ele>834</ele>
        <time>2013-12-08T10:30:46Z</time>
      </trkpt>
      <trkpt lat="44.33744" lon="2.73894">
        <ele>835</ele>
        <time>2013-12-08T10:30:49Z</time>
      </trkpt>
      <trkpt lat="44.33744" lon="2.73901">
        <ele>835</ele>
        <time>2013-12-08T10:30:52Z</time>
      </trkpt>
      <trkpt lat="44.33745" lon="2.73909">
        <ele>835</ele>
        <time>2013-12-08T10:30:56Z</time>
      </trkpt>
      <trkpt lat="44.33746" lon="2.73916">
        <ele>836</ele>
        <time>2013-12-08T10:30:59Z</time>
      </trkpt>
      <trkpt lat="44.33746" lon="2.73924">
        <ele>836</ele>
        <time>2013-12-08T10:31:03Z</time>
      </trkpt>
      <trkpt lat="44.33747" lon="2.73932">
        <ele>837</ele>
        <time>2013-12-08T10:31:07Z</time>
      </trkpt>
      <trkpt lat="44.33748" lon="2.7394">
        <ele>837</ele>
        <time>2013-12-08T10:31:11Z</time>
      </trkpt>
      <trkpt lat="44.33749" lon="2.73948">
        <ele>837</ele>
        <time>2013-12-08T10:31:14Z</time>
      </trkpt>
      <trkpt lat="44.33749" lon="2.73955">
        <ele>837</ele>
        <time>2013-12-08T10:31:18Z</time>
      </trkpt>
      <trkpt lat="44.33749" lon="2.73962">
        <ele>838</ele>
        <time>2013-12-08T10:31:22Z</time>
      </trkpt>
      <trkpt lat="44.3375" lon="2.7397">
        <ele>839</ele>
        <time>2013-12-08T10:31:26Z</time>
      </trkpt>
      <trkpt lat="44.3375" lon="2.73976">
        <ele>838</ele>
        <time>2013-12-08T10:31:29Z</time>
      </trkpt>
      <trkpt lat="44.33752" lon="2.73983">
        <ele>838</ele>
        <time>2013-12-08T10:31:32Z</time>
      </trkpt>
      <trkpt lat="44.33754" lon="2.7399">
        <ele>838</ele>
        <time>2013-12-08T10:31:36Z</time>
      </trkpt>
      <trkpt lat="44.33755" lon="2.73998">
        <ele>837</ele>
        <time>2013-12-08T10:31:41Z</time>
      </trkpt>
      <trkpt lat="44.33753" lon="2.74004">
        <ele>836</ele>
        <time>2013-12-08T10:31:45Z</time>
      </trkpt>
      <trkpt lat="44.3375" lon="2.74009">
        <ele>836</ele>
        <time>2013-12-08T10:31:48Z</time>
      </trkpt>
      <trkpt lat="44.33744" lon="2.74012">
        <ele>836</ele>
        <time>2013-12-08T10:31:52Z</time>
      </trkpt>
      <trkpt lat="44.3374" lon="2.74014">
        <ele>836</ele>
        <time>2013-12-08T10:31:55Z</time>
      </trkpt>
      <trkpt lat="44.33735" lon="2.74016">
        <ele>836</ele>
        <time>2013-12-08T10:31:58Z</time>
      </trkpt>
      <trkpt lat="44.3373" lon="2.7402">
        <ele>835</ele>
        <time>2013-12-08T10:32:01Z</time>
      </trkpt>
      <trkpt lat="44.33726" lon="2.74023">
        <ele>835</ele>
        <time>2013-12-08T10:32:04Z</time>
      </trkpt>
      <trkpt lat="44.33722" lon="2.74026">
        <ele>835</ele>
        <time>2013-12-08T10:32:07Z</time>
      </trkpt>
      <trkpt lat="44.33717" lon="2.74029">
        <ele>835</ele>
        <time>2013-12-08T10:32:10Z</time>
      </trkpt>
      <trkpt lat="44.33712" lon="2.74031">
        <ele>835</ele>
        <time>2013-12-08T10:32:14Z</time>
      </trkpt>
      <trkpt lat="44.33707" lon="2.74034">
        <ele>835</ele>
        <time>2013-12-08T10:32:17Z</time>
      </trkpt>
      <trkpt lat="44.33701" lon="2.74038">
        <ele>835</ele>
        <time>2013-12-08T10:32:20Z</time>
      </trkpt>
      <trkpt lat="44.33697" lon="2.74041">
        <ele>835</ele>
        <time>2013-12-08T10:32:23Z</time>
      </trkpt>
      <trkpt lat="44.33692" lon="2.74043">
        <ele>834</ele>
        <time>2013-12-08T10:32:26Z</time>
      </trkpt>
      <trkpt lat="44.33687" lon="2.74045">
        <ele>834</ele>
        <time>2013-12-08T10:32:29Z</time>
      </trkpt>
      <trkpt lat="44.33683" lon="2.74045">
        <ele>833</ele>
        <time>2013-12-08T10:32:32Z</time>
      </trkpt>
      <trkpt lat="44.33677" lon="2.74047">
        <ele>833</ele>
        <time>2013-12-08T10:32:35Z</time>
      </trkpt>
      <trkpt lat="44.33673" lon="2.74048">
        <ele>833</ele>
        <time>2013-12-08T10:32:38Z</time>
      </trkpt>
      <trkpt lat="44.33668" lon="2.74049">
        <ele>832</ele>
        <time>2013-12-08T10:32:41Z</time>
      </trkpt>
      <trkpt lat="44.33663" lon="2.7405">
        <ele>833</ele>
        <time>2013-12-08T10:32:44Z</time>
      </trkpt>
      <trkpt lat="44.33658" lon="2.74051">
        <ele>834</ele>
        <time>2013-12-08T10:32:47Z</time>
      </trkpt>
      <trkpt lat="44.33653" lon="2.74051">
        <ele>834</ele>
        <time>2013-12-08T10:32:51Z</time>
      </trkpt>
      <trkpt lat="44.33646" lon="2.74053">
        <ele>833</ele>
        <time>2013-12-08T10:32:55Z</time>
      </trkpt>
      <trkpt lat="44.33642" lon="2.74055">
        <ele>832</ele>
        <time>2013-12-08T10:32:58Z</time>
      </trkpt>
      <trkpt lat="44.33638" lon="2.74057">
        <ele>831</ele>
        <time>2013-12-08T10:33:01Z</time>
      </trkpt>
      <trkpt lat="44.33634" lon="2.74061">
        <ele>830</ele>
        <time>2013-12-08T10:33:04Z</time>
      </trkpt>
      <trkpt lat="44.3363" lon="2.74065">
        <ele>830</ele>
        <time>2013-12-08T10:33:07Z</time>
      </trkpt>
      <trkpt lat="44.33626" lon="2.7407">
        <ele>830</ele>
        <time>2013-12-08T10:33:10Z</time>
      </trkpt>
      <trkpt lat="44.33622" lon="2.74075">
        <ele>831</ele>
        <time>2013-12-08T10:33:13Z</time>
      </trkpt>
      <trkpt lat="44.33619" lon="2.74081">
        <ele>831</ele>
        <time>2013-12-08T10:33:16Z</time>
      </trkpt>
      <trkpt lat="44.33616" lon="2.74087">
        <ele>832</ele>
        <time>2013-12-08T10:33:19Z</time>
      </trkpt>
      <trkpt lat="44.33613" lon="2.74094">
        <ele>831</ele>
        <time>2013-12-08T10:33:23Z</time>
      </trkpt>
      <trkpt lat="44.33611" lon="2.74102">
        <ele>830</ele>
        <time>2013-12-08T10:33:27Z</time>
      </trkpt>
      <trkpt lat="44.33608" lon="2.74109">
        <ele>831</ele>
        <time>2013-12-08T10:33:31Z</time>
      </trkpt>
      <trkpt lat="44.33606" lon="2.74115">
        <ele>830</ele>
        <time>2013-12-08T10:33:34Z</time>
      </trkpt>
      <trkpt lat="44.33603" lon="2.7412">
        <ele>831</ele>
        <time>2013-12-08T10:33:36Z</time>
      </trkpt>
      <trkpt lat="44.336" lon="2.74125">
        <ele>832</ele>
        <time>2013-12-08T10:33:39Z</time>
      </trkpt>
      <trkpt lat="44.33597" lon="2.74131">
        <ele>832</ele>
        <time>2013-12-08T10:33:42Z</time>
      </trkpt>
      <trkpt lat="44.33595" lon="2.74136">
        <ele>832</ele>
        <time>2013-12-08T10:33:45Z</time>
      </trkpt>
      <trkpt lat="44.33592" lon="2.74143">
        <ele>833</ele>
        <time>2013-12-08T10:33:49Z</time>
      </trkpt>
      <trkpt lat="44.33589" lon="2.74149">
        <ele>832</ele>
        <time>2013-12-08T10:33:53Z</time>
      </trkpt>
      <trkpt lat="44.33586" lon="2.74155">
        <ele>831</ele>
        <time>2013-12-08T10:33:56Z</time>
      </trkpt>
      <trkpt lat="44.33582" lon="2.74163">
        <ele>831</ele>
        <time>2013-12-08T10:34:00Z</time>
      </trkpt>
      <trkpt lat="44.33578" lon="2.74169">
        <ele>831</ele>
        <time>2013-12-08T10:34:03Z</time>
      </trkpt>
      <trkpt lat="44.33575" lon="2.74174">
        <ele>830</ele>
        <time>2013-12-08T10:34:06Z</time>
      </trkpt>
      <trkpt lat="44.3357" lon="2.74179">
        <ele>829</ele>
        <time>2013-12-08T10:34:10Z</time>
      </trkpt>
      <trkpt lat="44.33566" lon="2.74184">
        <ele>829</ele>
        <time>2013-12-08T10:34:13Z</time>
      </trkpt>
      <trkpt lat="44.33563" lon="2.74189">
        <ele>829</ele>
        <time>2013-12-08T10:34:16Z</time>
      </trkpt>
      <trkpt lat="44.33558" lon="2.74193">
        <ele>829</ele>
        <time>2013-12-08T10:34:21Z</time>
      </trkpt>
      <trkpt lat="44.33554" lon="2.74197">
        <ele>830</ele>
        <time>2013-12-08T10:34:24Z</time>
      </trkpt>
      <trkpt lat="44.33549" lon="2.74202">
        <ele>830</ele>
        <time>2013-12-08T10:34:27Z</time>
      </trkpt>
      <trkpt lat="44.33545" lon="2.74206">
        <ele>830</ele>
        <time>2013-12-08T10:34:31Z</time>
      </trkpt>
      <trkpt lat="44.33541" lon="2.74212">
        <ele>829</ele>
        <time>2013-12-08T10:34:35Z</time>
      </trkpt>
      <trkpt lat="44.33537" lon="2.74215">
        <ele>828</ele>
        <time>2013-12-08T10:34:40Z</time>
      </trkpt>
      <trkpt lat="44.33533" lon="2.74218">
        <ele>827</ele>
        <time>2013-12-08T10:34:43Z</time>
      </trkpt>
      <trkpt lat="44.33527" lon="2.7422">
        <ele>827</ele>
        <time>2013-12-08T10:34:47Z</time>
      </trkpt>
      <trkpt lat="44.33517" lon="2.74219">
        <ele>827</ele>
        <time>2013-12-08T10:34:54Z</time>
      </trkpt>
      <trkpt lat="44.33513" lon="2.74217">
        <ele>827</ele>
        <time>2013-12-08T10:34:57Z</time>
      </trkpt>
      <trkpt lat="44.33508" lon="2.74213">
        <ele>827</ele>
        <time>2013-12-08T10:35:01Z</time>
      </trkpt>
      <trkpt lat="44.33504" lon="2.74208">
        <ele>827</ele>
        <time>2013-12-08T10:35:05Z</time>
      </trkpt>
      <trkpt lat="44.33502" lon="2.74202">
        <ele>827</ele>
        <time>2013-12-08T10:35:10Z</time>
      </trkpt>
      <trkpt lat="44.335" lon="2.74194">
        <ele>827</ele>
        <time>2013-12-08T10:35:14Z</time>
      </trkpt>
      <trkpt lat="44.33498" lon="2.74188">
        <ele>827</ele>
        <time>2013-12-08T10:35:17Z</time>
      </trkpt>
      <trkpt lat="44.33493" lon="2.74178">
        <ele>828</ele>
        <time>2013-12-08T10:35:23Z</time>
      </trkpt>
      <trkpt lat="44.3349" lon="2.74173">
        <ele>829</ele>
        <time>2013-12-08T10:35:26Z</time>
      </trkpt>
      <trkpt lat="44.33487" lon="2.74168">
        <ele>829</ele>
        <time>2013-12-08T10:35:29Z</time>
      </trkpt>
      <trkpt lat="44.33483" lon="2.74162">
        <ele>830</ele>
        <time>2013-12-08T10:35:32Z</time>
      </trkpt>
      <trkpt lat="44.3348" lon="2.74155">
        <ele>830</ele>
        <time>2013-12-08T10:35:35Z</time>
      </trkpt>
      <trkpt lat="44.33476" lon="2.74149">
        <ele>830</ele>
        <time>2013-12-08T10:35:39Z</time>
      </trkpt>
      <trkpt lat="44.33473" lon="2.74143">
        <ele>829</ele>
        <time>2013-12-08T10:35:42Z</time>
      </trkpt>
      <trkpt lat="44.33469" lon="2.74137">
        <ele>828</ele>
        <time>2013-12-08T10:35:46Z</time>
      </trkpt>
      <trkpt lat="44.33466" lon="2.74131">
        <ele>828</ele>
        <time>2013-12-08T10:35:50Z</time>
      </trkpt>
      <trkpt lat="44.33463" lon="2.74126">
        <ele>828</ele>
        <time>2013-12-08T10:35:53Z</time>
      </trkpt>
      <trkpt lat="44.33459" lon="2.74121">
        <ele>828</ele>
        <time>2013-12-08T10:35:56Z</time>
      </trkpt>
      <trkpt lat="44.33456" lon="2.74115">
        <ele>827</ele>
        <time>2013-12-08T10:36:00Z</time>
      </trkpt>
      <trkpt lat="44.33453" lon="2.74109">
        <ele>826</ele>
        <time>2013-12-08T10:36:03Z</time>
      </trkpt>
      <trkpt lat="44.3345" lon="2.74103">
        <ele>826</ele>
        <time>2013-12-08T10:36:06Z</time>
      </trkpt>
      <trkpt lat="44.33447" lon="2.74097">
        <ele>827</ele>
        <time>2013-12-08T10:36:09Z</time>
      </trkpt>
      <trkpt lat="44.33444" lon="2.7409">
        <ele>827</ele>
        <time>2013-12-08T10:36:13Z</time>
      </trkpt>
      <trkpt lat="44.33442" lon="2.74083">
        <ele>827</ele>
        <time>2013-12-08T10:36:16Z</time>
      </trkpt>
      <trkpt lat="44.3344" lon="2.74076">
        <ele>826</ele>
        <time>2013-12-08T10:36:19Z</time>
      </trkpt>
      <trkpt lat="44.33438" lon="2.7407">
        <ele>825</ele>
        <time>2013-12-08T10:36:22Z</time>
      </trkpt>
      <trkpt lat="44.33436" lon="2.74062">
        <ele>825</ele>
        <time>2013-12-08T10:36:25Z</time>
      </trkpt>
      <trkpt lat="44.33435" lon="2.74055">
        <ele>824</ele>
        <time>2013-12-08T10:36:28Z</time>
      </trkpt>
      <trkpt lat="44.33433" lon="2.74048">
        <ele>824</ele>
        <time>2013-12-08T10:36:32Z</time>
      </trkpt>
      <trkpt lat="44.3343" lon="2.7404">
        <ele>822</ele>
        <time>2013-12-08T10:36:37Z</time>
      </trkpt>
      <trkpt lat="44.33428" lon="2.74034">
        <ele>821</ele>
        <time>2013-12-08T10:36:40Z</time>
      </trkpt>
      <trkpt lat="44.33427" lon="2.74028">
        <ele>821</ele>
        <time>2013-12-08T10:36:43Z</time>
      </trkpt>
      <trkpt lat="44.33426" lon="2.7402">
        <ele>820</ele>
        <time>2013-12-08T10:36:46Z</time>
      </trkpt>
      <trkpt lat="44.33424" lon="2.74013">
        <ele>819</ele>
        <time>2013-12-08T10:36:49Z</time>
      </trkpt>
      <trkpt lat="44.33422" lon="2.74004">
        <ele>818</ele>
        <time>2013-12-08T10:36:53Z</time>
      </trkpt>
      <trkpt lat="44.3342" lon="2.73997">
        <ele>818</ele>
        <time>2013-12-08T10:36:56Z</time>
      </trkpt>
      <trkpt lat="44.33417" lon="2.73991">
        <ele>818</ele>
        <time>2013-12-08T10:36:59Z</time>
      </trkpt>
      <trkpt lat="44.33414" lon="2.73983">
        <ele>818</ele>
        <time>2013-12-08T10:37:03Z</time>
      </trkpt>
      <trkpt lat="44.33412" lon="2.73976">
        <ele>818</ele>
        <time>2013-12-08T10:37:06Z</time>
      </trkpt>
      <trkpt lat="44.3341" lon="2.73971">
        <ele>818</ele>
        <time>2013-12-08T10:37:09Z</time>
      </trkpt>
      <trkpt lat="44.33407" lon="2.73963">
        <ele>818</ele>
        <time>2013-12-08T10:37:13Z</time>
      </trkpt>
      <trkpt lat="44.33405" lon="2.73958">
        <ele>818</ele>
        <time>2013-12-08T10:37:16Z</time>
      </trkpt>
      <trkpt lat="44.33403" lon="2.73951">
        <ele>818</ele>
        <time>2013-12-08T10:37:19Z</time>
      </trkpt>
      <trkpt lat="44.33401" lon="2.73944">
        <ele>817</ele>
        <time>2013-12-08T10:37:23Z</time>
      </trkpt>
      <trkpt lat="44.33399" lon="2.73938">
        <ele>816</ele>
        <time>2013-12-08T10:37:26Z</time>
      </trkpt>
      <trkpt lat="44.33397" lon="2.73929">
        <ele>816</ele>
        <time>2013-12-08T10:37:30Z</time>
      </trkpt>
      <trkpt lat="44.33395" lon="2.73922">
        <ele>815</ele>
        <time>2013-12-08T10:37:33Z</time>
      </trkpt>
      <trkpt lat="44.33393" lon="2.73915">
        <ele>815</ele>
        <time>2013-12-08T10:37:40Z</time>
      </trkpt>
      <trkpt lat="44.33391" lon="2.73909">
        <ele>816</ele>
        <time>2013-12-08T10:37:46Z</time>
      </trkpt>
      <trkpt lat="44.33389" lon="2.73903">
        <ele>816</ele>
        <time>2013-12-08T10:37:51Z</time>
      </trkpt>
      <trkpt lat="44.33386" lon="2.73896">
        <ele>816</ele>
        <time>2013-12-08T10:37:57Z</time>
      </trkpt>
      <trkpt lat="44.33383" lon="2.73891">
        <ele>814</ele>
        <time>2013-12-08T10:38:05Z</time>
      </trkpt>
      <trkpt lat="44.3338" lon="2.73884">
        <ele>813</ele>
        <time>2013-12-08T10:38:08Z</time>
      </trkpt>
      <trkpt lat="44.33377" lon="2.73879">
        <ele>813</ele>
        <time>2013-12-08T10:38:10Z</time>
      </trkpt>
      <trkpt lat="44.33373" lon="2.73873">
        <ele>813</ele>
        <time>2013-12-08T10:38:13Z</time>
      </trkpt>
      <trkpt lat="44.3337" lon="2.73868">
        <ele>813</ele>
        <time>2013-12-08T10:38:16Z</time>
      </trkpt>
      <trkpt lat="44.33365" lon="2.73865">
        <ele>813</ele>
        <time>2013-12-08T10:38:19Z</time>
      </trkpt>
      <trkpt lat="44.33361" lon="2.73861">
        <ele>813</ele>
        <time>2013-12-08T10:38:22Z</time>
      </trkpt>
      <trkpt lat="44.33357" lon="2.73858">
        <ele>813</ele>
        <time>2013-12-08T10:38:25Z</time>
      </trkpt>
      <trkpt lat="44.33353" lon="2.73854">
        <ele>812</ele>
        <time>2013-12-08T10:38:30Z</time>
      </trkpt>
      <trkpt lat="44.33349" lon="2.7385">
        <ele>811</ele>
        <time>2013-12-08T10:38:33Z</time>
      </trkpt>
      <trkpt lat="44.33343" lon="2.73844">
        <ele>810</ele>
        <time>2013-12-08T10:38:37Z</time>
      </trkpt>
      <trkpt lat="44.33338" lon="2.73841">
        <ele>809</ele>
        <time>2013-12-08T10:38:40Z</time>
      </trkpt>
      <trkpt lat="44.3333" lon="2.73833">
        <ele>807</ele>
        <time>2013-12-08T10:38:46Z</time>
      </trkpt>
      <trkpt lat="44.33324" lon="2.73823">
        <ele>805</ele>
        <time>2013-12-08T10:38:51Z</time>
      </trkpt>
      <trkpt lat="44.33321" lon="2.73813">
        <ele>805</ele>
        <time>2013-12-08T10:38:55Z</time>
      </trkpt>
      <trkpt lat="44.33319" lon="2.73807">
        <ele>806</ele>
        <time>2013-12-08T10:38:58Z</time>
      </trkpt>
      <trkpt lat="44.33317" lon="2.73801">
        <ele>806</ele>
        <time>2013-12-08T10:39:02Z</time>
      </trkpt>
      <trkpt lat="44.33315" lon="2.73792">
        <ele>807</ele>
        <time>2013-12-08T10:39:07Z</time>
      </trkpt>
      <trkpt lat="44.33313" lon="2.73785">
        <ele>806</ele>
        <time>2013-12-08T10:39:11Z</time>
      </trkpt>
      <trkpt lat="44.33311" lon="2.73779">
        <ele>806</ele>
        <time>2013-12-08T10:39:14Z</time>
      </trkpt>
      <trkpt lat="44.33308" lon="2.73772">
        <ele>806</ele>
        <time>2013-12-08T10:39:18Z</time>
      </trkpt>
      <trkpt lat="44.33306" lon="2.73762">
        <ele>806</ele>
        <time>2013-12-08T10:39:22Z</time>
      </trkpt>
      <trkpt lat="44.33304" lon="2.73754">
        <ele>806</ele>
        <time>2013-12-08T10:39:25Z</time>
      </trkpt>
      <trkpt lat="44.33304" lon="2.73746">
        <ele>806</ele>
        <time>2013-12-08T10:39:29Z</time>
      </trkpt>
      <trkpt lat="44.33305" lon="2.73738">
        <ele>806</ele>
        <time>2013-12-08T10:39:33Z</time>
      </trkpt>
      <trkpt lat="44.33306" lon="2.73726">
        <ele>806</ele>
        <time>2013-12-08T10:39:38Z</time>
      </trkpt>
      <trkpt lat="44.33306" lon="2.73719">
        <ele>805</ele>
        <time>2013-12-08T10:39:41Z</time>
      </trkpt>
      <trkpt lat="44.33306" lon="2.73712">
        <ele>804</ele>
        <time>2013-12-08T10:39:44Z</time>
      </trkpt>
      <trkpt lat="44.33305" lon="2.73703">
        <ele>803</ele>
        <time>2013-12-08T10:39:50Z</time>
      </trkpt>
      <trkpt lat="44.33303" lon="2.73689">
        <ele>802</ele>
        <time>2013-12-08T10:39:58Z</time>
      </trkpt>
      <trkpt lat="44.33299" lon="2.73677">
        <ele>805</ele>
        <time>2013-12-08T10:40:06Z</time>
      </trkpt>
      <trkpt lat="44.33297" lon="2.73671">
        <ele>805</ele>
        <time>2013-12-08T10:40:10Z</time>
      </trkpt>
      <trkpt lat="44.33295" lon="2.73665">
        <ele>806</ele>
        <time>2013-12-08T10:40:14Z</time>
      </trkpt>
      <trkpt lat="44.33292" lon="2.7366">
        <ele>806</ele>
        <time>2013-12-08T10:40:17Z</time>
      </trkpt>
      <trkpt lat="44.33284" lon="2.73652">
        <ele>806</ele>
        <time>2013-12-08T10:40:23Z</time>
      </trkpt>
      <trkpt lat="44.33281" lon="2.73648">
        <ele>805</ele>
        <time>2013-12-08T10:40:26Z</time>
      </trkpt>
      <trkpt lat="44.33277" lon="2.73644">
        <ele>805</ele>
        <time>2013-12-08T10:40:29Z</time>
      </trkpt>
      <trkpt lat="44.33273" lon="2.73636">
        <ele>805</ele>
        <time>2013-12-08T10:40:32Z</time>
      </trkpt>
      <trkpt lat="44.3327" lon="2.73631">
        <ele>804</ele>
        <time>2013-12-08T10:40:35Z</time>
      </trkpt>
      <trkpt lat="44.33265" lon="2.73626">
        <ele>805</ele>
        <time>2013-12-08T10:40:38Z</time>
      </trkpt>
      <trkpt lat="44.33261" lon="2.73622">
        <ele>805</ele>
        <time>2013-12-08T10:40:41Z</time>
      </trkpt>
      <trkpt lat="44.33257" lon="2.73618">
        <ele>804</ele>
        <time>2013-12-08T10:40:46Z</time>
      </trkpt>
      <trkpt lat="44.33252" lon="2.73616">
        <ele>803</ele>
        <time>2013-12-08T10:40:50Z</time>
      </trkpt>
      <trkpt lat="44.33242" lon="2.73613">
        <ele>802</ele>
        <time>2013-12-08T10:40:58Z</time>
      </trkpt>
      <trkpt lat="44.33238" lon="2.7361">
        <ele>802</ele>
        <time>2013-12-08T10:41:01Z</time>
      </trkpt>
      <trkpt lat="44.33228" lon="2.73604">
        <ele>802</ele>
        <time>2013-12-08T10:41:08Z</time>
      </trkpt>
      <trkpt lat="44.33218" lon="2.73601">
        <ele>801</ele>
        <time>2013-12-08T10:41:14Z</time>
      </trkpt>
      <trkpt lat="44.33213" lon="2.73601">
        <ele>801</ele>
        <time>2013-12-08T10:41:17Z</time>
      </trkpt>
      <trkpt lat="44.33206" lon="2.73602">
        <ele>801</ele>
        <time>2013-12-08T10:41:21Z</time>
      </trkpt>
      <trkpt lat="44.33201" lon="2.73602">
        <ele>800</ele>
        <time>2013-12-08T10:41:24Z</time>
      </trkpt>
      <trkpt lat="44.33196" lon="2.73603">
        <ele>800</ele>
        <time>2013-12-08T10:41:27Z</time>
      </trkpt>
      <trkpt lat="44.3319" lon="2.73605">
        <ele>799</ele>
        <time>2013-12-08T10:41:30Z</time>
      </trkpt>
      <trkpt lat="44.33185" lon="2.73605">
        <ele>799</ele>
        <time>2013-12-08T10:41:33Z</time>
      </trkpt>
      <trkpt lat="44.3318" lon="2.73605">
        <ele>799</ele>
        <time>2013-12-08T10:41:37Z</time>
      </trkpt>
      <trkpt lat="44.33175" lon="2.73605">
        <ele>800</ele>
        <time>2013-12-08T10:41:40Z</time>
      </trkpt>
      <trkpt lat="44.3317" lon="2.73605">
        <ele>800</ele>
        <time>2013-12-08T10:41:45Z</time>
      </trkpt>
      <trkpt lat="44.33161" lon="2.73605">
        <ele>799</ele>
        <time>2013-12-08T10:41:52Z</time>
      </trkpt>
      <trkpt lat="44.33152" lon="2.73601">
        <ele>799</ele>
        <time>2013-12-08T10:41:57Z</time>
      </trkpt>
      <trkpt lat="44.33147" lon="2.736">
        <ele>799</ele>
        <time>2013-12-08T10:41:59Z</time>
      </trkpt>
      <trkpt lat="44.33138" lon="2.73598">
        <ele>800</ele>
        <time>2013-12-08T10:42:04Z</time>
      </trkpt>
      <trkpt lat="44.33132" lon="2.73597">
        <ele>802</ele>
        <time>2013-12-08T10:42:07Z</time>
      </trkpt>
      <trkpt lat="44.33128" lon="2.73594">
        <ele>802</ele>
        <time>2013-12-08T10:42:11Z</time>
      </trkpt>
      <trkpt lat="44.33123" lon="2.73591">
        <ele>802</ele>
        <time>2013-12-08T10:42:14Z</time>
      </trkpt>
      <trkpt lat="44.33115" lon="2.73585">
        <ele>803</ele>
        <time>2013-12-08T10:42:20Z</time>
      </trkpt>
      <trkpt lat="44.3311" lon="2.73584">
        <ele>804</ele>
        <time>2013-12-08T10:42:24Z</time>
      </trkpt>
      <trkpt lat="44.33106" lon="2.73581">
        <ele>804</ele>
        <time>2013-12-08T10:42:27Z</time>
      </trkpt>
      <trkpt lat="44.33097" lon="2.73577">
        <ele>803</ele>
        <time>2013-12-08T10:42:34Z</time>
      </trkpt>
      <trkpt lat="44.33086" lon="2.7357">
        <ele>802</ele>
        <time>2013-12-08T10:42:40Z</time>
      </trkpt>
      <trkpt lat="44.33081" lon="2.73567">
        <ele>802</ele>
        <time>2013-12-08T10:42:42Z</time>
      </trkpt>
      <trkpt lat="44.33076" lon="2.73564">
        <ele>801</ele>
        <time>2013-12-08T10:42:44Z</time>
      </trkpt>
      <trkpt lat="44.33072" lon="2.73562">
        <ele>801</ele>
        <time>2013-12-08T10:42:47Z</time>
      </trkpt>
      <trkpt lat="44.33068" lon="2.73558">
        <ele>801</ele>
        <time>2013-12-08T10:42:50Z</time>
      </trkpt>
      <trkpt lat="44.33064" lon="2.73554">
        <ele>801</ele>
        <time>2013-12-08T10:42:53Z</time>
      </trkpt>
      <trkpt lat="44.33059" lon="2.73551">
        <ele>800</ele>
        <time>2013-12-08T10:42:56Z</time>
      </trkpt>
      <trkpt lat="44.33055" lon="2.73547">
        <ele>800</ele>
        <time>2013-12-08T10:42:59Z</time>
      </trkpt>
      <trkpt lat="44.3305" lon="2.73543">
        <ele>800</ele>
        <time>2013-12-08T10:43:03Z</time>
      </trkpt>
      <trkpt lat="44.33046" lon="2.73538">
        <ele>799</ele>
        <time>2013-12-08T10:43:06Z</time>
      </trkpt>
      <trkpt lat="44.33042" lon="2.73534">
        <ele>799</ele>
        <time>2013-12-08T10:43:09Z</time>
      </trkpt>
      <trkpt lat="44.33038" lon="2.73531">
        <ele>799</ele>
        <time>2013-12-08T10:43:12Z</time>
      </trkpt>
      <trkpt lat="44.33034" lon="2.73527">
        <ele>799</ele>
        <time>2013-12-08T10:43:15Z</time>
      </trkpt>
      <trkpt lat="44.33029" lon="2.73523">
        <ele>800</ele>
        <time>2013-12-08T10:43:19Z</time>
      </trkpt>
      <trkpt lat="44.33024" lon="2.73519">
        <ele>800</ele>
        <time>2013-12-08T10:43:23Z</time>
      </trkpt>
      <trkpt lat="44.3302" lon="2.73515">
        <ele>800</ele>
        <time>2013-12-08T10:43:26Z</time>
      </trkpt>
      <trkpt lat="44.33016" lon="2.73511">
        <ele>800</ele>
        <time>2013-12-08T10:43:29Z</time>
      </trkpt>
      <trkpt lat="44.33013" lon="2.73507">
        <ele>801</ele>
        <time>2013-12-08T10:43:32Z</time>
      </trkpt>
      <trkpt lat="44.33009" lon="2.73503">
        <ele>801</ele>
        <time>2013-12-08T10:43:35Z</time>
      </trkpt>
      <trkpt lat="44.33005" lon="2.735">
        <ele>801</ele>
        <time>2013-12-08T10:43:38Z</time>
      </trkpt>
      <trkpt lat="44.33001" lon="2.73496">
        <ele>800</ele>
        <time>2013-12-08T10:43:41Z</time>
      </trkpt>
      <trkpt lat="44.32997" lon="2.73491">
        <ele>800</ele>
        <time>2013-12-08T10:43:44Z</time>
      </trkpt>
      <trkpt lat="44.32993" lon="2.73488">
        <ele>800</ele>
        <time>2013-12-08T10:43:48Z</time>
      </trkpt>
      <trkpt lat="44.32988" lon="2.73485">
        <ele>799</ele>
        <time>2013-12-08T10:43:51Z</time>
      </trkpt>
      <trkpt lat="44.32984" lon="2.73481">
        <ele>799</ele>
        <time>2013-12-08T10:43:55Z</time>
      </trkpt>
      <trkpt lat="44.32981" lon="2.73476">
        <ele>799</ele>
        <time>2013-12-08T10:43:58Z</time>
      </trkpt>
      <trkpt lat="44.32977" lon="2.73473">
        <ele>799</ele>
        <time>2013-12-08T10:44:02Z</time>
      </trkpt>
      <trkpt lat="44.32972" lon="2.73468">
        <ele>799</ele>
        <time>2013-12-08T10:44:06Z</time>
      </trkpt>
      <trkpt lat="44.32968" lon="2.73465">
        <ele>799</ele>
        <time>2013-12-08T10:44:09Z</time>
      </trkpt>
      <trkpt lat="44.32964" lon="2.73462">
        <ele>799</ele>
        <time>2013-12-08T10:44:12Z</time>
      </trkpt>
      <trkpt lat="44.3296" lon="2.73458">
        <ele>800</ele>
        <time>2013-12-08T10:44:16Z</time>
      </trkpt>
      <trkpt lat="44.32956" lon="2.73454">
        <ele>800</ele>
        <time>2013-12-08T10:44:20Z</time>
      </trkpt>
      <trkpt lat="44.32951" lon="2.73453">
        <ele>801</ele>
        <time>2013-12-08T10:44:23Z</time>
      </trkpt>
      <trkpt lat="44.32946" lon="2.73452">
        <ele>801</ele>
        <time>2013-12-08T10:44:26Z</time>
      </trkpt>
      <trkpt lat="44.32937" lon="2.7345">
        <ele>801</ele>
        <time>2013-12-08T10:44:32Z</time>
      </trkpt>
      <trkpt lat="44.32933" lon="2.73449">
        <ele>801</ele>
        <time>2013-12-08T10:44:35Z</time>
      </trkpt>
      <trkpt lat="44.32928" lon="2.73448">
        <ele>800</ele>
        <time>2013-12-08T10:44:38Z</time>
      </trkpt>
      <trkpt lat="44.32922" lon="2.73449">
        <ele>800</ele>
        <time>2013-12-08T10:44:42Z</time>
      </trkpt>
      <trkpt lat="44.32916" lon="2.7345">
        <ele>800</ele>
        <time>2013-12-08T10:44:45Z</time>
      </trkpt>
      <trkpt lat="44.32912" lon="2.7345">
        <ele>801</ele>
        <time>2013-12-08T10:44:48Z</time>
      </trkpt>
      <trkpt lat="44.32907" lon="2.73451">
        <ele>802</ele>
        <time>2013-12-08T10:44:51Z</time>
      </trkpt>
      <trkpt lat="44.32903" lon="2.73451">
        <ele>803</ele>
        <time>2013-12-08T10:44:54Z</time>
      </trkpt>
      <trkpt lat="44.32898" lon="2.73453">
        <ele>803</ele>
        <time>2013-12-08T10:44:58Z</time>
      </trkpt>
      <trkpt lat="44.3289" lon="2.73457">
        <ele>803</ele>
        <time>2013-12-08T10:45:04Z</time>
      </trkpt>
      <trkpt lat="44.32886" lon="2.73458">
        <ele>803</ele>
        <time>2013-12-08T10:45:07Z</time>
      </trkpt>
      <trkpt lat="44.3288" lon="2.73458">
        <ele>802</ele>
        <time>2013-12-08T10:45:11Z</time>
      </trkpt>
      <trkpt lat="44.32875" lon="2.73458">
        <ele>801</ele>
        <time>2013-12-08T10:45:14Z</time>
      </trkpt>
      <trkpt lat="44.3287" lon="2.7346">
        <ele>801</ele>
        <time>2013-12-08T10:45:17Z</time>
      </trkpt>
      <trkpt lat="44.32865" lon="2.73462">
        <ele>801</ele>
        <time>2013-12-08T10:45:21Z</time>
      </trkpt>
      <trkpt lat="44.32859" lon="2.73464">
        <ele>801</ele>
        <time>2013-12-08T10:45:24Z</time>
      </trkpt>
      <trkpt lat="44.32854" lon="2.73465">
        <ele>801</ele>
        <time>2013-12-08T10:45:27Z</time>
      </trkpt>
      <trkpt lat="44.32849" lon="2.73465">
        <ele>801</ele>
        <time>2013-12-08T10:45:30Z</time>
      </trkpt>
      <trkpt lat="44.32844" lon="2.73466">
        <ele>801</ele>
        <time>2013-12-08T10:45:34Z</time>
      </trkpt>
      <trkpt lat="44.32839" lon="2.73467">
        <ele>800</ele>
        <time>2013-12-08T10:45:38Z</time>
      </trkpt>
      <trkpt lat="44.32834" lon="2.73468">
        <ele>800</ele>
        <time>2013-12-08T10:45:41Z</time>
      </trkpt>
      <trkpt lat="44.32829" lon="2.73468">
        <ele>800</ele>
        <time>2013-12-08T10:45:44Z</time>
      </trkpt>
      <trkpt lat="44.32824" lon="2.7347">
        <ele>801</ele>
        <time>2013-12-08T10:45:47Z</time>
      </trkpt>
      <trkpt lat="44.32819" lon="2.73471">
        <ele>803</ele>
        <time>2013-12-08T10:45:50Z</time>
      </trkpt>
      <trkpt lat="44.32813" lon="2.73472">
        <ele>803</ele>
        <time>2013-12-08T10:45:53Z</time>
      </trkpt>
      <trkpt lat="44.32809" lon="2.73473">
        <ele>803</ele>
        <time>2013-12-08T10:45:56Z</time>
      </trkpt>
      <trkpt lat="44.32803" lon="2.73474">
        <ele>802</ele>
        <time>2013-12-08T10:46:00Z</time>
      </trkpt>
      <trkpt lat="44.32797" lon="2.73476">
        <ele>802</ele>
        <time>2013-12-08T10:46:03Z</time>
      </trkpt>
      <trkpt lat="44.32792" lon="2.73478">
        <ele>801</ele>
        <time>2013-12-08T10:46:06Z</time>
      </trkpt>
      <trkpt lat="44.32786" lon="2.7348">
        <ele>801</ele>
        <time>2013-12-08T10:46:09Z</time>
      </trkpt>
      <trkpt lat="44.32781" lon="2.73482">
        <ele>801</ele>
        <time>2013-12-08T10:46:12Z</time>
      </trkpt>
      <trkpt lat="44.32775" lon="2.73486">
        <ele>800</ele>
        <time>2013-12-08T10:46:16Z</time>
      </trkpt>
      <trkpt lat="44.3277" lon="2.73489">
        <ele>799</ele>
        <time>2013-12-08T10:46:20Z</time>
      </trkpt>
      <trkpt lat="44.32765" lon="2.73491">
        <ele>799</ele>
        <time>2013-12-08T10:46:24Z</time>
      </trkpt>
      <trkpt lat="44.3276" lon="2.73493">
        <ele>798</ele>
        <time>2013-12-08T10:46:27Z</time>
      </trkpt>
      <trkpt lat="44.32756" lon="2.73495">
        <ele>797</ele>
        <time>2013-12-08T10:46:30Z</time>
      </trkpt>
      <trkpt lat="44.32751" lon="2.73496">
        <ele>797</ele>
        <time>2013-12-08T10:46:33Z</time>
      </trkpt>
      <trkpt lat="44.32746" lon="2.73497">
        <ele>797</ele>
        <time>2013-12-08T10:46:36Z</time>
      </trkpt>
      <trkpt lat="44.32739" lon="2.73498">
        <ele>797</ele>
        <time>2013-12-08T10:46:39Z</time>
      </trkpt>
      <trkpt lat="44.32735" lon="2.73498">
        <ele>797</ele>
        <time>2013-12-08T10:46:42Z</time>
      </trkpt>
      <trkpt lat="44.32729" lon="2.73501">
        <ele>797</ele>
        <time>2013-12-08T10:46:46Z</time>
      </trkpt>
      <trkpt lat="44.32725" lon="2.73502">
        <ele>797</ele>
        <time>2013-12-08T10:46:49Z</time>
      </trkpt>
      <trkpt lat="44.32719" lon="2.73502">
        <ele>797</ele>
        <time>2013-12-08T10:46:52Z</time>
      </trkpt>
      <trkpt lat="44.32714" lon="2.73501">
        <ele>796</ele>
        <time>2013-12-08T10:46:55Z</time>
      </trkpt>
      <trkpt lat="44.32709" lon="2.73501">
        <ele>796</ele>
        <time>2013-12-08T10:46:57Z</time>
      </trkpt>
      <trkpt lat="44.32703" lon="2.73501">
        <ele>795</ele>
        <time>2013-12-08T10:47:00Z</time>
      </trkpt>
      <trkpt lat="44.32698" lon="2.73501">
        <ele>795</ele>
        <time>2013-12-08T10:47:03Z</time>
      </trkpt>
      <trkpt lat="44.32692" lon="2.73502">
        <ele>794</ele>
        <time>2013-12-08T10:47:09Z</time>
      </trkpt>
      <trkpt lat="44.32685" lon="2.73503">
        <ele>793</ele>
        <time>2013-12-08T10:47:13Z</time>
      </trkpt>
      <trkpt lat="44.3268" lon="2.73504">
        <ele>792</ele>
        <time>2013-12-08T10:47:17Z</time>
      </trkpt>
      <trkpt lat="44.32675" lon="2.73504">
        <ele>792</ele>
        <time>2013-12-08T10:47:21Z</time>
      </trkpt>
      <trkpt lat="44.32671" lon="2.73504">
        <ele>792</ele>
        <time>2013-12-08T10:47:24Z</time>
      </trkpt>
      <trkpt lat="44.32665" lon="2.73506">
        <ele>792</ele>
        <time>2013-12-08T10:47:27Z</time>
      </trkpt>
      <trkpt lat="44.3266" lon="2.73507">
        <ele>792</ele>
        <time>2013-12-08T10:47:30Z</time>
      </trkpt>
      <trkpt lat="44.32655" lon="2.73507">
        <ele>792</ele>
        <time>2013-12-08T10:47:33Z</time>
      </trkpt>
      <trkpt lat="44.3265" lon="2.73505">
        <ele>792</ele>
        <time>2013-12-08T10:47:36Z</time>
      </trkpt>
      <trkpt lat="44.32645" lon="2.73503">
        <ele>793</ele>
        <time>2013-12-08T10:47:40Z</time>
      </trkpt>
      <trkpt lat="44.3264" lon="2.73498">
        <ele>793</ele>
        <time>2013-12-08T10:47:44Z</time>
      </trkpt>
      <trkpt lat="44.32637" lon="2.73493">
        <ele>793</ele>
        <time>2013-12-08T10:47:47Z</time>
      </trkpt>
      <trkpt lat="44.32634" lon="2.73488">
        <ele>793</ele>
        <time>2013-12-08T10:47:50Z</time>
      </trkpt>
      <trkpt lat="44.32631" lon="2.73482">
        <ele>792</ele>
        <time>2013-12-08T10:47:53Z</time>
      </trkpt>
      <trkpt lat="44.32628" lon="2.73476">
        <ele>792</ele>
        <time>2013-12-08T10:47:56Z</time>
      </trkpt>
      <trkpt lat="44.32625" lon="2.73469">
        <ele>791</ele>
        <time>2013-12-08T10:48:00Z</time>
      </trkpt>
      <trkpt lat="44.32621" lon="2.73458">
        <ele>790</ele>
        <time>2013-12-08T10:48:06Z</time>
      </trkpt>
      <trkpt lat="44.32617" lon="2.73451">
        <ele>789</ele>
        <time>2013-12-08T10:48:10Z</time>
      </trkpt>
      <trkpt lat="44.32614" lon="2.73439">
        <ele>789</ele>
        <time>2013-12-08T10:48:17Z</time>
      </trkpt>
      <trkpt lat="44.32613" lon="2.73431">
        <ele>790</ele>
        <time>2013-12-08T10:48:21Z</time>
      </trkpt>
      <trkpt lat="44.32611" lon="2.73423">
        <ele>790</ele>
        <time>2013-12-08T10:48:25Z</time>
      </trkpt>
      <trkpt lat="44.32611" lon="2.73416">
        <ele>790</ele>
        <time>2013-12-08T10:48:28Z</time>
      </trkpt>
      <trkpt lat="44.32608" lon="2.73403">
        <ele>790</ele>
        <time>2013-12-08T10:48:34Z</time>
      </trkpt>
      <trkpt lat="44.32607" lon="2.73397">
        <ele>790</ele>
        <time>2013-12-08T10:48:37Z</time>
      </trkpt>
      <trkpt lat="44.32606" lon="2.73389">
        <ele>790</ele>
        <time>2013-12-08T10:48:40Z</time>
      </trkpt>
      <trkpt lat="44.32602" lon="2.73378">
        <ele>789</ele>
        <time>2013-12-08T10:48:46Z</time>
      </trkpt>
      <trkpt lat="44.32599" lon="2.7337">
        <ele>789</ele>
        <time>2013-12-08T10:48:49Z</time>
      </trkpt>
      <trkpt lat="44.32596" lon="2.73363">
        <ele>789</ele>
        <time>2013-12-08T10:48:52Z</time>
      </trkpt>
      <trkpt lat="44.32595" lon="2.73356">
        <ele>789</ele>
        <time>2013-12-08T10:48:55Z</time>
      </trkpt>
      <trkpt lat="44.32593" lon="2.73349">
        <ele>789</ele>
        <time>2013-12-08T10:48:59Z</time>
      </trkpt>
      <trkpt lat="44.3259" lon="2.73338">
        <ele>789</ele>
        <time>2013-12-08T10:49:05Z</time>
      </trkpt>
      <trkpt lat="44.3259" lon="2.73329">
        <ele>789</ele>
        <time>2013-12-08T10:49:11Z</time>
      </trkpt>
      <trkpt lat="44.32589" lon="2.73316">
        <ele>788</ele>
        <time>2013-12-08T10:49:18Z</time>
      </trkpt>
      <trkpt lat="44.32588" lon="2.73303">
        <ele>786</ele>
        <time>2013-12-08T10:49:22Z</time>
      </trkpt>
      <trkpt lat="44.32588" lon="2.73287">
        <ele>785</ele>
        <time>2013-12-08T10:49:29Z</time>
      </trkpt>
      <trkpt lat="44.32588" lon="2.73274">
        <ele>784</ele>
        <time>2013-12-08T10:49:34Z</time>
      </trkpt>
      <trkpt lat="44.32588" lon="2.73263">
        <ele>785</ele>
        <time>2013-12-08T10:49:38Z</time>
      </trkpt>
      <trkpt lat="44.32588" lon="2.73256">
        <ele>785</ele>
        <time>2013-12-08T10:49:41Z</time>
      </trkpt>
      <trkpt lat="44.3259" lon="2.73241">
        <ele>785</ele>
        <time>2013-12-08T10:49:49Z</time>
      </trkpt>
      <trkpt lat="44.32591" lon="2.73227">
        <ele>785</ele>
        <time>2013-12-08T10:49:56Z</time>
      </trkpt>
      <trkpt lat="44.32591" lon="2.7322">
        <ele>785</ele>
        <time>2013-12-08T10:49:59Z</time>
      </trkpt>
      <trkpt lat="44.32588" lon="2.73207">
        <ele>785</ele>
        <time>2013-12-08T10:50:07Z</time>
      </trkpt>
      <trkpt lat="44.32582" lon="2.73197">
        <ele>785</ele>
        <time>2013-12-08T10:50:12Z</time>
      </trkpt>
      <trkpt lat="44.32579" lon="2.73192">
        <ele>785</ele>
        <time>2013-12-08T10:50:15Z</time>
      </trkpt>
      <trkpt lat="44.32576" lon="2.73186">
        <ele>785</ele>
        <time>2013-12-08T10:50:18Z</time>
      </trkpt>
      <trkpt lat="44.32573" lon="2.7318">
        <ele>786</ele>
        <time>2013-12-08T10:50:21Z</time>
      </trkpt>
      <trkpt lat="44.32569" lon="2.73174">
        <ele>786</ele>
        <time>2013-12-08T10:50:24Z</time>
      </trkpt>
      <trkpt lat="44.32566" lon="2.73169">
        <ele>787</ele>
        <time>2013-12-08T10:50:27Z</time>
      </trkpt>
      <trkpt lat="44.32559" lon="2.73157">
        <ele>787</ele>
        <time>2013-12-08T10:50:33Z</time>
      </trkpt>
      <trkpt lat="44.32556" lon="2.73152">
        <ele>788</ele>
        <time>2013-12-08T10:50:36Z</time>
      </trkpt>
      <trkpt lat="44.32553" lon="2.73147">
        <ele>788</ele>
        <time>2013-12-08T10:50:39Z</time>
      </trkpt>
      <trkpt lat="44.3255" lon="2.73141">
        <ele>788</ele>
        <time>2013-12-08T10:50:42Z</time>
      </trkpt>
      <trkpt lat="44.32547" lon="2.73136">
        <ele>788</ele>
        <time>2013-12-08T10:50:45Z</time>
      </trkpt>
      <trkpt lat="44.32544" lon="2.73131">
        <ele>788</ele>
        <time>2013-12-08T10:50:48Z</time>
      </trkpt>
      <trkpt lat="44.32536" lon="2.73121">
        <ele>789</ele>
        <time>2013-12-08T10:50:54Z</time>
      </trkpt>
      <trkpt lat="44.32533" lon="2.73115">
        <ele>789</ele>
        <time>2013-12-08T10:50:57Z</time>
      </trkpt>
      <trkpt lat="44.32528" lon="2.73105">
        <ele>790</ele>
        <time>2013-12-08T10:51:02Z</time>
      </trkpt>
      <trkpt lat="44.32525" lon="2.73099">
        <ele>791</ele>
        <time>2013-12-08T10:51:05Z</time>
      </trkpt>
      <trkpt lat="44.32518" lon="2.73089">
        <ele>791</ele>
        <time>2013-12-08T10:51:12Z</time>
      </trkpt>
      <trkpt lat="44.32515" lon="2.73084">
        <ele>791</ele>
        <time>2013-12-08T10:51:15Z</time>
      </trkpt>
      <trkpt lat="44.32507" lon="2.73076">
        <ele>790</ele>
        <time>2013-12-08T10:51:21Z</time>
      </trkpt>
      <trkpt lat="44.32503" lon="2.73072">
        <ele>790</ele>
        <time>2013-12-08T10:51:25Z</time>
      </trkpt>
      <trkpt lat="44.32494" lon="2.73068">
        <ele>790</ele>
        <time>2013-12-08T10:51:33Z</time>
      </trkpt>
      <trkpt lat="44.32488" lon="2.73066">
        <ele>790</ele>
        <time>2013-12-08T10:51:37Z</time>
      </trkpt>
      <trkpt lat="44.32482" lon="2.73064">
        <ele>790</ele>
        <time>2013-12-08T10:51:41Z</time>
      </trkpt>
      <trkpt lat="44.32477" lon="2.73063">
        <ele>790</ele>
        <time>2013-12-08T10:51:44Z</time>
      </trkpt>
      <trkpt lat="44.32472" lon="2.73063">
        <ele>791</ele>
        <time>2013-12-08T10:51:47Z</time>
      </trkpt>
      <trkpt lat="44.32466" lon="2.73063">
        <ele>791</ele>
        <time>2013-12-08T10:51:50Z</time>
      </trkpt>
      <trkpt lat="44.32459" lon="2.73062">
        <ele>792</ele>
        <time>2013-12-08T10:51:54Z</time>
      </trkpt>
      <trkpt lat="44.32454" lon="2.73063">
        <ele>792</ele>
        <time>2013-12-08T10:51:58Z</time>
      </trkpt>
      <trkpt lat="44.32449" lon="2.73063">
        <ele>793</ele>
        <time>2013-12-08T10:52:02Z</time>
      </trkpt>
      <trkpt lat="44.3244" lon="2.73058">
        <ele>794</ele>
        <time>2013-12-08T10:52:08Z</time>
      </trkpt>
      <trkpt lat="44.32433" lon="2.73054">
        <ele>794</ele>
        <time>2013-12-08T10:52:12Z</time>
      </trkpt>
      <trkpt lat="44.32429" lon="2.7305">
        <ele>796</ele>
        <time>2013-12-08T10:52:15Z</time>
      </trkpt>
      <trkpt lat="44.32423" lon="2.73041">
        <ele>798</ele>
        <time>2013-12-08T10:52:21Z</time>
      </trkpt>
      <trkpt lat="44.32421" lon="2.73034">
        <ele>798</ele>
        <time>2013-12-08T10:52:24Z</time>
      </trkpt>
      <trkpt lat="44.32421" lon="2.73028">
        <ele>797</ele>
        <time>2013-12-08T10:52:28Z</time>
      </trkpt>
      <trkpt lat="44.32421" lon="2.73015">
        <ele>795</ele>
        <time>2013-12-08T10:52:35Z</time>
      </trkpt>
      <trkpt lat="44.32421" lon="2.73007">
        <ele>794</ele>
        <time>2013-12-08T10:52:39Z</time>
      </trkpt>
      <trkpt lat="44.32422" lon="2.72998">
        <ele>793</ele>
        <time>2013-12-08T10:52:42Z</time>
      </trkpt>
      <trkpt lat="44.32422" lon="2.72989">
        <ele>793</ele>
        <time>2013-12-08T10:52:47Z</time>
      </trkpt>
      <trkpt lat="44.3242" lon="2.72975">
        <ele>792</ele>
        <time>2013-12-08T10:52:52Z</time>
      </trkpt>
      <trkpt lat="44.32422" lon="2.72962">
        <ele>793</ele>
        <time>2013-12-08T10:52:59Z</time>
      </trkpt>
      <trkpt lat="44.3242" lon="2.72949">
        <ele>794</ele>
        <time>2013-12-08T10:53:06Z</time>
      </trkpt>
      <trkpt lat="44.32419" lon="2.7294">
        <ele>794</ele>
        <time>2013-12-08T10:53:09Z</time>
      </trkpt>
      <trkpt lat="44.32417" lon="2.72932">
        <ele>793</ele>
        <time>2013-12-08T10:53:12Z</time>
      </trkpt>
      <trkpt lat="44.32414" lon="2.72919">
        <ele>793</ele>
        <time>2013-12-08T10:53:18Z</time>
      </trkpt>
      <trkpt lat="44.32411" lon="2.72906">
        <ele>792</ele>
        <time>2013-12-08T10:53:24Z</time>
      </trkpt>
      <trkpt lat="44.32408" lon="2.72897">
        <ele>792</ele>
        <time>2013-12-08T10:53:28Z</time>
      </trkpt>
      <trkpt lat="44.32406" lon="2.72889">
        <ele>791</ele>
        <time>2013-12-08T10:53:31Z</time>
      </trkpt>
      <trkpt lat="44.32403" lon="2.72883">
        <ele>791</ele>
        <time>2013-12-08T10:53:34Z</time>
      </trkpt>
      <trkpt lat="44.32401" lon="2.72878">
        <ele>791</ele>
        <time>2013-12-08T10:53:37Z</time>
      </trkpt>
      <trkpt lat="44.32399" lon="2.72871">
        <ele>791</ele>
        <time>2013-12-08T10:53:40Z</time>
      </trkpt>
      <trkpt lat="44.32397" lon="2.72864">
        <ele>791</ele>
        <time>2013-12-08T10:53:43Z</time>
      </trkpt>
      <trkpt lat="44.32395" lon="2.72856">
        <ele>792</ele>
        <time>2013-12-08T10:53:46Z</time>
      </trkpt>
      <trkpt lat="44.32393" lon="2.7285">
        <ele>792</ele>
        <time>2013-12-08T10:53:49Z</time>
      </trkpt>
      <trkpt lat="44.32389" lon="2.72837">
        <ele>793</ele>
        <time>2013-12-08T10:53:54Z</time>
      </trkpt>
      <trkpt lat="44.32387" lon="2.72831">
        <ele>793</ele>
        <time>2013-12-08T10:53:57Z</time>
      </trkpt>
      <trkpt lat="44.32385" lon="2.72824">
        <ele>793</ele>
        <time>2013-12-08T10:54:02Z</time>
      </trkpt>
      <trkpt lat="44.32382" lon="2.72817">
        <ele>793</ele>
        <time>2013-12-08T10:54:06Z</time>
      </trkpt>
      <trkpt lat="44.3238" lon="2.72811">
        <ele>793</ele>
        <time>2013-12-08T10:54:09Z</time>
      </trkpt>
      <trkpt lat="44.32378" lon="2.72803">
        <ele>793</ele>
        <time>2013-12-08T10:54:13Z</time>
      </trkpt>
      <trkpt lat="44.32375" lon="2.72797">
        <ele>792</ele>
        <time>2013-12-08T10:54:16Z</time>
      </trkpt>
      <trkpt lat="44.32374" lon="2.7279">
        <ele>791</ele>
        <time>2013-12-08T10:54:20Z</time>
      </trkpt>
      <trkpt lat="44.32374" lon="2.72783">
        <ele>791</ele>
        <time>2013-12-08T10:54:24Z</time>
      </trkpt>
      <trkpt lat="44.32374" lon="2.72768">
        <ele>790</ele>
        <time>2013-12-08T10:54:31Z</time>
      </trkpt>
      <trkpt lat="44.32374" lon="2.72759">
        <ele>789</ele>
        <time>2013-12-08T10:54:35Z</time>
      </trkpt>
      <trkpt lat="44.32375" lon="2.72753">
        <ele>790</ele>
        <time>2013-12-08T10:54:38Z</time>
      </trkpt>
      <trkpt lat="44.32377" lon="2.72746">
        <ele>790</ele>
        <time>2013-12-08T10:54:41Z</time>
      </trkpt>
      <trkpt lat="44.32379" lon="2.7274">
        <ele>791</ele>
        <time>2013-12-08T10:54:44Z</time>
      </trkpt>
      <trkpt lat="44.32381" lon="2.72734">
        <ele>791</ele>
        <time>2013-12-08T10:54:47Z</time>
      </trkpt>
      <trkpt lat="44.32384" lon="2.72728">
        <ele>791</ele>
        <time>2013-12-08T10:54:50Z</time>
      </trkpt>
      <trkpt lat="44.32387" lon="2.72721">
        <ele>791</ele>
        <time>2013-12-08T10:54:53Z</time>
      </trkpt>
      <trkpt lat="44.32389" lon="2.72715">
        <ele>791</ele>
        <time>2013-12-08T10:54:56Z</time>
      </trkpt>
      <trkpt lat="44.32391" lon="2.72707">
        <ele>791</ele>
        <time>2013-12-08T10:55:00Z</time>
      </trkpt>
      <trkpt lat="44.32393" lon="2.72701">
        <ele>792</ele>
        <time>2013-12-08T10:55:03Z</time>
      </trkpt>
      <trkpt lat="44.32396" lon="2.72695">
        <ele>792</ele>
        <time>2013-12-08T10:55:06Z</time>
      </trkpt>
      <trkpt lat="44.32399" lon="2.72688">
        <ele>793</ele>
        <time>2013-12-08T10:55:10Z</time>
      </trkpt>
      <trkpt lat="44.32403" lon="2.72683">
        <ele>793</ele>
        <time>2013-12-08T10:55:14Z</time>
      </trkpt>
      <trkpt lat="44.32405" lon="2.72677">
        <ele>794</ele>
        <time>2013-12-08T10:55:18Z</time>
      </trkpt>
      <trkpt lat="44.32408" lon="2.72668">
        <ele>795</ele>
        <time>2013-12-08T10:55:31Z</time>
      </trkpt>
      <trkpt lat="44.32411" lon="2.72662">
        <ele>795</ele>
        <time>2013-12-08T10:55:35Z</time>
      </trkpt>
      <trkpt lat="44.32414" lon="2.72655">
        <ele>796</ele>
        <time>2013-12-08T10:55:38Z</time>
      </trkpt>
      <trkpt lat="44.32417" lon="2.72649">
        <ele>796</ele>
        <time>2013-12-08T10:55:42Z</time>
      </trkpt>
      <trkpt lat="44.32419" lon="2.72643">
        <ele>796</ele>
        <time>2013-12-08T10:55:45Z</time>
      </trkpt>
      <trkpt lat="44.32421" lon="2.72636">
        <ele>796</ele>
        <time>2013-12-08T10:55:49Z</time>
      </trkpt>
      <trkpt lat="44.32423" lon="2.72631">
        <ele>796</ele>
        <time>2013-12-08T10:55:53Z</time>
      </trkpt>
      <trkpt lat="44.32425" lon="2.72624">
        <ele>797</ele>
        <time>2013-12-08T10:55:57Z</time>
      </trkpt>
      <trkpt lat="44.32427" lon="2.72616">
        <ele>797</ele>
        <time>2013-12-08T10:56:01Z</time>
      </trkpt>
      <trkpt lat="44.3243" lon="2.72602">
        <ele>797</ele>
        <time>2013-12-08T10:56:08Z</time>
      </trkpt>
      <trkpt lat="44.32432" lon="2.72589">
        <ele>797</ele>
        <time>2013-12-08T10:56:15Z</time>
      </trkpt>
      <trkpt lat="44.32433" lon="2.72578">
        <ele>797</ele>
        <time>2013-12-08T10:56:20Z</time>
      </trkpt>
      <trkpt lat="44.32434" lon="2.72571">
        <ele>797</ele>
        <time>2013-12-08T10:56:23Z</time>
      </trkpt>
      <trkpt lat="44.32434" lon="2.72564">
        <ele>798</ele>
        <time>2013-12-08T10:56:26Z</time>
      </trkpt>
      <trkpt lat="44.32434" lon="2.72551">
        <ele>799</ele>
        <time>2013-12-08T10:56:32Z</time>
      </trkpt>
      <trkpt lat="44.32434" lon="2.72544">
        <ele>799</ele>
        <time>2013-12-08T10:56:35Z</time>
      </trkpt>
      <trkpt lat="44.32433" lon="2.72534">
        <ele>800</ele>
        <time>2013-12-08T10:56:40Z</time>
      </trkpt>
      <trkpt lat="44.32431" lon="2.72526">
        <ele>801</ele>
        <time>2013-12-08T10:56:44Z</time>
      </trkpt>
      <trkpt lat="44.3243" lon="2.7252">
        <ele>801</ele>
        <time>2013-12-08T10:56:47Z</time>
      </trkpt>
      <trkpt lat="44.32429" lon="2.72513">
        <ele>802</ele>
        <time>2013-12-08T10:56:50Z</time>
      </trkpt>
      <trkpt lat="44.32428" lon="2.72506">
        <ele>803</ele>
        <time>2013-12-08T10:56:53Z</time>
      </trkpt>
      <trkpt lat="44.32425" lon="2.72498">
        <ele>803</ele>
        <time>2013-12-08T10:56:57Z</time>
      </trkpt>
      <trkpt lat="44.32423" lon="2.72493">
        <ele>803</ele>
        <time>2013-12-08T10:57:00Z</time>
      </trkpt>
      <trkpt lat="44.32421" lon="2.72486">
        <ele>804</ele>
        <time>2013-12-08T10:57:03Z</time>
      </trkpt>
      <trkpt lat="44.32419" lon="2.7248">
        <ele>804</ele>
        <time>2013-12-08T10:57:06Z</time>
      </trkpt>
      <trkpt lat="44.32418" lon="2.72473">
        <ele>804</ele>
        <time>2013-12-08T10:57:10Z</time>
      </trkpt>
      <trkpt lat="44.32416" lon="2.72467">
        <ele>804</ele>
        <time>2013-12-08T10:57:13Z</time>
      </trkpt>
      <trkpt lat="44.32415" lon="2.7246">
        <ele>804</ele>
        <time>2013-12-08T10:57:16Z</time>
      </trkpt>
      <trkpt lat="44.3241" lon="2.72451">
        <ele>804</ele>
        <time>2013-12-08T10:57:22Z</time>
      </trkpt>
      <trkpt lat="44.32407" lon="2.72443">
        <ele>804</ele>
        <time>2013-12-08T10:57:26Z</time>
      </trkpt>
      <trkpt lat="44.32404" lon="2.72438">
        <ele>804</ele>
        <time>2013-12-08T10:57:28Z</time>
      </trkpt>
      <trkpt lat="44.32402" lon="2.72431">
        <ele>805</ele>
        <time>2013-12-08T10:57:31Z</time>
      </trkpt>
      <trkpt lat="44.32399" lon="2.72425">
        <ele>806</ele>
        <time>2013-12-08T10:57:35Z</time>
      </trkpt>
      <trkpt lat="44.32395" lon="2.7242">
        <ele>807</ele>
        <time>2013-12-08T10:57:38Z</time>
      </trkpt>
      <trkpt lat="44.32392" lon="2.72414">
        <ele>807</ele>
        <time>2013-12-08T10:57:42Z</time>
      </trkpt>
      <trkpt lat="44.32388" lon="2.72409">
        <ele>808</ele>
        <time>2013-12-08T10:57:45Z</time>
      </trkpt>
      <trkpt lat="44.32384" lon="2.72405">
        <ele>808</ele>
        <time>2013-12-08T10:57:48Z</time>
      </trkpt>
      <trkpt lat="44.32381" lon="2.72401">
        <ele>809</ele>
        <time>2013-12-08T10:57:51Z</time>
      </trkpt>
      <trkpt lat="44.32376" lon="2.72396">
        <ele>809</ele>
        <time>2013-12-08T10:57:55Z</time>
      </trkpt>
      <trkpt lat="44.32371" lon="2.72392">
        <ele>810</ele>
        <time>2013-12-08T10:57:59Z</time>
      </trkpt>
      <trkpt lat="44.32367" lon="2.72389">
        <ele>810</ele>
        <time>2013-12-08T10:58:02Z</time>
      </trkpt>
      <trkpt lat="44.32363" lon="2.72384">
        <ele>811</ele>
        <time>2013-12-08T10:58:05Z</time>
      </trkpt>
      <trkpt lat="44.32359" lon="2.72379">
        <ele>811</ele>
        <time>2013-12-08T10:58:09Z</time>
      </trkpt>
      <trkpt lat="44.32355" lon="2.72375">
        <ele>812</ele>
        <time>2013-12-08T10:58:12Z</time>
      </trkpt>
      <trkpt lat="44.32351" lon="2.7237">
        <ele>812</ele>
        <time>2013-12-08T10:58:16Z</time>
      </trkpt>
      <trkpt lat="44.32347" lon="2.72366">
        <ele>812</ele>
        <time>2013-12-08T10:58:20Z</time>
      </trkpt>
      <trkpt lat="44.32344" lon="2.72361">
        <ele>812</ele>
        <time>2013-12-08T10:58:23Z</time>
      </trkpt>
      <trkpt lat="44.3234" lon="2.72356">
        <ele>812</ele>
        <time>2013-12-08T10:58:26Z</time>
      </trkpt>
      <trkpt lat="44.32337" lon="2.72351">
        <ele>812</ele>
        <time>2013-12-08T10:58:29Z</time>
      </trkpt>
      <trkpt lat="44.32333" lon="2.72347">
        <ele>812</ele>
        <time>2013-12-08T10:58:33Z</time>
      </trkpt>
      <trkpt lat="44.32328" lon="2.72341">
        <ele>813</ele>
        <time>2013-12-08T10:58:38Z</time>
      </trkpt>
      <trkpt lat="44.32325" lon="2.72337">
        <ele>813</ele>
        <time>2013-12-08T10:58:42Z</time>
      </trkpt>
      <trkpt lat="44.3232" lon="2.7233">
        <ele>812</ele>
        <time>2013-12-08T10:58:47Z</time>
      </trkpt>
      <trkpt lat="44.32316" lon="2.72326">
        <ele>812</ele>
        <time>2013-12-08T10:58:50Z</time>
      </trkpt>
      <trkpt lat="44.32313" lon="2.72321">
        <ele>812</ele>
        <time>2013-12-08T10:58:53Z</time>
      </trkpt>
      <trkpt lat="44.3231" lon="2.72317">
        <ele>812</ele>
        <time>2013-12-08T10:58:56Z</time>
      </trkpt>
      <trkpt lat="44.32307" lon="2.72312">
        <ele>811</ele>
        <time>2013-12-08T10:58:59Z</time>
      </trkpt>
      <trkpt lat="44.32303" lon="2.72307">
        <ele>811</ele>
        <time>2013-12-08T10:59:03Z</time>
      </trkpt>
      <trkpt lat="44.323" lon="2.72302">
        <ele>812</ele>
        <time>2013-12-08T10:59:06Z</time>
      </trkpt>
      <trkpt lat="44.32295" lon="2.72297">
        <ele>812</ele>
        <time>2013-12-08T10:59:10Z</time>
      </trkpt>
      <trkpt lat="44.32291" lon="2.72291">
        <ele>812</ele>
        <time>2013-12-08T10:59:14Z</time>
      </trkpt>
      <trkpt lat="44.32288" lon="2.72286">
        <ele>813</ele>
        <time>2013-12-08T10:59:17Z</time>
      </trkpt>
      <trkpt lat="44.32284" lon="2.72282">
        <ele>813</ele>
        <time>2013-12-08T10:59:20Z</time>
      </trkpt>
      <trkpt lat="44.32281" lon="2.72278">
        <ele>813</ele>
        <time>2013-12-08T10:59:23Z</time>
      </trkpt>
      <trkpt lat="44.32277" lon="2.72273">
        <ele>813</ele>
        <time>2013-12-08T10:59:26Z</time>
      </trkpt>
      <trkpt lat="44.32273" lon="2.72268">
        <ele>813</ele>
        <time>2013-12-08T10:59:30Z</time>
      </trkpt>
      <trkpt lat="44.32269" lon="2.72264">
        <ele>813</ele>
        <time>2013-12-08T10:59:34Z</time>
      </trkpt>
      <trkpt lat="44.32265" lon="2.7226">
        <ele>813</ele>
        <time>2013-12-08T10:59:37Z</time>
      </trkpt>
      <trkpt lat="44.32261" lon="2.72255">
        <ele>814</ele>
        <time>2013-12-08T10:59:41Z</time>
      </trkpt>
      <trkpt lat="44.32257" lon="2.72249">
        <ele>813</ele>
        <time>2013-12-08T10:59:45Z</time>
      </trkpt>
      <trkpt lat="44.32253" lon="2.72244">
        <ele>813</ele>
        <time>2013-12-08T10:59:49Z</time>
      </trkpt>
      <trkpt lat="44.32247" lon="2.72237">
        <ele>814</ele>
        <time>2013-12-08T10:59:54Z</time>
      </trkpt>
      <trkpt lat="44.32243" lon="2.72232">
        <ele>814</ele>
        <time>2013-12-08T10:59:57Z</time>
      </trkpt>
      <trkpt lat="44.3224" lon="2.72228">
        <ele>814</ele>
        <time>2013-12-08T11:00:01Z</time>
      </trkpt>
      <trkpt lat="44.32237" lon="2.72223">
        <ele>815</ele>
        <time>2013-12-08T11:00:04Z</time>
      </trkpt>
      <trkpt lat="44.32234" lon="2.72216">
        <ele>816</ele>
        <time>2013-12-08T11:00:08Z</time>
      </trkpt>
      <trkpt lat="44.32232" lon="2.7221">
        <ele>816</ele>
        <time>2013-12-08T11:00:11Z</time>
      </trkpt>
      <trkpt lat="44.32229" lon="2.72203">
        <ele>817</ele>
        <time>2013-12-08T11:00:14Z</time>
      </trkpt>
      <trkpt lat="44.32225" lon="2.72191">
        <ele>818</ele>
        <time>2013-12-08T11:00:20Z</time>
      </trkpt>
      <trkpt lat="44.32223" lon="2.72178">
        <ele>817</ele>
        <time>2013-12-08T11:00:26Z</time>
      </trkpt>
      <trkpt lat="44.32222" lon="2.72171">
        <ele>816</ele>
        <time>2013-12-08T11:00:29Z</time>
      </trkpt>
      <trkpt lat="44.32222" lon="2.72164">
        <ele>815</ele>
        <time>2013-12-08T11:00:32Z</time>
      </trkpt>
      <trkpt lat="44.32222" lon="2.72157">
        <ele>815</ele>
        <time>2013-12-08T11:00:35Z</time>
      </trkpt>
      <trkpt lat="44.32222" lon="2.72149">
        <ele>815</ele>
        <time>2013-12-08T11:00:39Z</time>
      </trkpt>
      <trkpt lat="44.32224" lon="2.72142">
        <ele>814</ele>
        <time>2013-12-08T11:00:43Z</time>
      </trkpt>
      <trkpt lat="44.32224" lon="2.72135">
        <ele>813</ele>
        <time>2013-12-08T11:00:46Z</time>
      </trkpt>
      <trkpt lat="44.32226" lon="2.72125">
        <ele>812</ele>
        <time>2013-12-08T11:00:50Z</time>
      </trkpt>
      <trkpt lat="44.32228" lon="2.72118">
        <ele>811</ele>
        <time>2013-12-08T11:00:54Z</time>
      </trkpt>
      <trkpt lat="44.32231" lon="2.72111">
        <ele>811</ele>
        <time>2013-12-08T11:00:57Z</time>
      </trkpt>
      <trkpt lat="44.32233" lon="2.72105">
        <ele>810</ele>
        <time>2013-12-08T11:01:00Z</time>
      </trkpt>
      <trkpt lat="44.32235" lon="2.72099">
        <ele>810</ele>
        <time>2013-12-08T11:01:03Z</time>
      </trkpt>
      <trkpt lat="44.32239" lon="2.72093">
        <ele>809</ele>
        <time>2013-12-08T11:01:06Z</time>
      </trkpt>
      <trkpt lat="44.32242" lon="2.72086">
        <ele>809</ele>
        <time>2013-12-08T11:01:09Z</time>
      </trkpt>
      <trkpt lat="44.32245" lon="2.7208">
        <ele>810</ele>
        <time>2013-12-08T11:01:12Z</time>
      </trkpt>
      <trkpt lat="44.32249" lon="2.72067">
        <ele>812</ele>
        <time>2013-12-08T11:01:19Z</time>
      </trkpt>
      <trkpt lat="44.32251" lon="2.7206">
        <ele>813</ele>
        <time>2013-12-08T11:01:23Z</time>
      </trkpt>
      <trkpt lat="44.32252" lon="2.72053">
        <ele>813</ele>
        <time>2013-12-08T11:01:26Z</time>
      </trkpt>
      <trkpt lat="44.32252" lon="2.72045">
        <ele>812</ele>
        <time>2013-12-08T11:01:30Z</time>
      </trkpt>
      <trkpt lat="44.32251" lon="2.72039">
        <ele>811</ele>
        <time>2013-12-08T11:01:33Z</time>
      </trkpt>
      <trkpt lat="44.32249" lon="2.72026">
        <ele>810</ele>
        <time>2013-12-08T11:01:38Z</time>
      </trkpt>
      <trkpt lat="44.32249" lon="2.72019">
        <ele>809</ele>
        <time>2013-12-08T11:01:41Z</time>
      </trkpt>
      <trkpt lat="44.32248" lon="2.72011">
        <ele>809</ele>
        <time>2013-12-08T11:01:44Z</time>
      </trkpt>
      <trkpt lat="44.32247" lon="2.72005">
        <ele>808</ele>
        <time>2013-12-08T11:01:47Z</time>
      </trkpt>
      <trkpt lat="44.32246" lon="2.71996">
        <ele>808</ele>
        <time>2013-12-08T11:01:51Z</time>
      </trkpt>
      <trkpt lat="44.32246" lon="2.71989">
        <ele>808</ele>
        <time>2013-12-08T11:01:54Z</time>
      </trkpt>
      <trkpt lat="44.32245" lon="2.71982">
        <ele>807</ele>
        <time>2013-12-08T11:01:57Z</time>
      </trkpt>
      <trkpt lat="44.32244" lon="2.71974">
        <ele>807</ele>
        <time>2013-12-08T11:02:00Z</time>
      </trkpt>
      <trkpt lat="44.32244" lon="2.71967">
        <ele>807</ele>
        <time>2013-12-08T11:02:03Z</time>
      </trkpt>
      <trkpt lat="44.32242" lon="2.71952">
        <ele>806</ele>
        <time>2013-12-08T11:02:10Z</time>
      </trkpt>
      <trkpt lat="44.32241" lon="2.71944">
        <ele>805</ele>
        <time>2013-12-08T11:02:13Z</time>
      </trkpt>
      <trkpt lat="44.3224" lon="2.71938">
        <ele>805</ele>
        <time>2013-12-08T11:02:16Z</time>
      </trkpt>
      <trkpt lat="44.3224" lon="2.71931">
        <ele>805</ele>
        <time>2013-12-08T11:02:19Z</time>
      </trkpt>
      <trkpt lat="44.3224" lon="2.71924">
        <ele>805</ele>
        <time>2013-12-08T11:02:22Z</time>
      </trkpt>
      <trkpt lat="44.3224" lon="2.71917">
        <ele>804</ele>
        <time>2013-12-08T11:02:25Z</time>
      </trkpt>
      <trkpt lat="44.32242" lon="2.7191">
        <ele>804</ele>
        <time>2013-12-08T11:02:28Z</time>
      </trkpt>
      <trkpt lat="44.32244" lon="2.71903">
        <ele>804</ele>
        <time>2013-12-08T11:02:31Z</time>
      </trkpt>
      <trkpt lat="44.32246" lon="2.71897">
        <ele>804</ele>
        <time>2013-12-08T11:02:34Z</time>
      </trkpt>
      <trkpt lat="44.32249" lon="2.7189">
        <ele>803</ele>
        <time>2013-12-08T11:02:38Z</time>
      </trkpt>
      <trkpt lat="44.32252" lon="2.71883">
        <ele>803</ele>
        <time>2013-12-08T11:02:42Z</time>
      </trkpt>
      <trkpt lat="44.32254" lon="2.71876">
        <ele>803</ele>
        <time>2013-12-08T11:02:45Z</time>
      </trkpt>
      <trkpt lat="44.32256" lon="2.71868">
        <ele>802</ele>
        <time>2013-12-08T11:02:49Z</time>
      </trkpt>
      <trkpt lat="44.32257" lon="2.71861">
        <ele>802</ele>
        <time>2013-12-08T11:02:52Z</time>
      </trkpt>
      <trkpt lat="44.3226" lon="2.71853">
        <ele>800</ele>
        <time>2013-12-08T11:02:57Z</time>
      </trkpt>
      <trkpt lat="44.32262" lon="2.71846">
        <ele>799</ele>
        <time>2013-12-08T11:03:00Z</time>
      </trkpt>
      <trkpt lat="44.32264" lon="2.71839">
        <ele>799</ele>
        <time>2013-12-08T11:03:03Z</time>
      </trkpt>
      <trkpt lat="44.32266" lon="2.71833">
        <ele>799</ele>
        <time>2013-12-08T11:03:06Z</time>
      </trkpt>
      <trkpt lat="44.32269" lon="2.71827">
        <ele>799</ele>
        <time>2013-12-08T11:03:09Z</time>
      </trkpt>
      <trkpt lat="44.32271" lon="2.7182">
        <ele>799</ele>
        <time>2013-12-08T11:03:12Z</time>
      </trkpt>
      <trkpt lat="44.32273" lon="2.71814">
        <ele>798</ele>
        <time>2013-12-08T11:03:15Z</time>
      </trkpt>
      <trkpt lat="44.32275" lon="2.71806">
        <ele>798</ele>
        <time>2013-12-08T11:03:19Z</time>
      </trkpt>
      <trkpt lat="44.32278" lon="2.718">
        <ele>798</ele>
        <time>2013-12-08T11:03:22Z</time>
      </trkpt>
      <trkpt lat="44.32279" lon="2.71794">
        <ele>798</ele>
        <time>2013-12-08T11:03:25Z</time>
      </trkpt>
      <trkpt lat="44.32282" lon="2.71788">
        <ele>798</ele>
        <time>2013-12-08T11:03:28Z</time>
      </trkpt>
      <trkpt lat="44.32284" lon="2.71779">
        <ele>797</ele>
        <time>2013-12-08T11:03:32Z</time>
      </trkpt>
      <trkpt lat="44.32283" lon="2.71764">
        <ele>795</ele>
        <time>2013-12-08T11:03:39Z</time>
      </trkpt>
      <trkpt lat="44.32282" lon="2.71756">
        <ele>795</ele>
        <time>2013-12-08T11:03:42Z</time>
      </trkpt>
      <trkpt lat="44.32278" lon="2.71744">
        <ele>795</ele>
        <time>2013-12-08T11:03:47Z</time>
      </trkpt>
      <trkpt lat="44.32276" lon="2.71738">
        <ele>795</ele>
        <time>2013-12-08T11:03:50Z</time>
      </trkpt>
      <trkpt lat="44.32274" lon="2.71731">
        <ele>795</ele>
        <time>2013-12-08T11:03:54Z</time>
      </trkpt>
      <trkpt lat="44.32271" lon="2.71725">
        <ele>794</ele>
        <time>2013-12-08T11:03:57Z</time>
      </trkpt>
      <trkpt lat="44.32268" lon="2.7172">
        <ele>794</ele>
        <time>2013-12-08T11:04:00Z</time>
      </trkpt>
      <trkpt lat="44.32265" lon="2.71714">
        <ele>794</ele>
        <time>2013-12-08T11:04:03Z</time>
      </trkpt>
      <trkpt lat="44.32262" lon="2.71708">
        <ele>795</ele>
        <time>2013-12-08T11:04:06Z</time>
      </trkpt>
      <trkpt lat="44.32256" lon="2.71699">
        <ele>796</ele>
        <time>2013-12-08T11:04:12Z</time>
      </trkpt>
      <trkpt lat="44.32252" lon="2.71694">
        <ele>796</ele>
        <time>2013-12-08T11:04:16Z</time>
      </trkpt>
      <trkpt lat="44.32249" lon="2.71688">
        <ele>796</ele>
        <time>2013-12-08T11:04:19Z</time>
      </trkpt>
      <trkpt lat="44.32247" lon="2.71682">
        <ele>796</ele>
        <time>2013-12-08T11:04:22Z</time>
      </trkpt>
      <trkpt lat="44.32244" lon="2.71676">
        <ele>796</ele>
        <time>2013-12-08T11:04:25Z</time>
      </trkpt>
      <trkpt lat="44.32242" lon="2.7167">
        <ele>796</ele>
        <time>2013-12-08T11:04:28Z</time>
      </trkpt>
      <trkpt lat="44.32239" lon="2.71664">
        <ele>796</ele>
        <time>2013-12-08T11:04:32Z</time>
      </trkpt>
      <trkpt lat="44.32237" lon="2.71657">
        <ele>796</ele>
        <time>2013-12-08T11:04:35Z</time>
      </trkpt>
      <trkpt lat="44.32235" lon="2.71651">
        <ele>796</ele>
        <time>2013-12-08T11:04:38Z</time>
      </trkpt>
      <trkpt lat="44.32232" lon="2.71643">
        <ele>797</ele>
        <time>2013-12-08T11:04:42Z</time>
      </trkpt>
      <trkpt lat="44.3223" lon="2.71636">
        <ele>798</ele>
        <time>2013-12-08T11:04:45Z</time>
      </trkpt>
      <trkpt lat="44.32229" lon="2.7163">
        <ele>798</ele>
        <time>2013-12-08T11:04:48Z</time>
      </trkpt>
      <trkpt lat="44.32228" lon="2.71623">
        <ele>799</ele>
        <time>2013-12-08T11:04:52Z</time>
      </trkpt>
      <trkpt lat="44.32227" lon="2.71616">
        <ele>800</ele>
        <time>2013-12-08T11:04:55Z</time>
      </trkpt>
      <trkpt lat="44.32226" lon="2.71609">
        <ele>801</ele>
        <time>2013-12-08T11:04:58Z</time>
      </trkpt>
      <trkpt lat="44.32225" lon="2.71602">
        <ele>802</ele>
        <time>2013-12-08T11:05:01Z</time>
      </trkpt>
      <trkpt lat="44.32225" lon="2.71594">
        <ele>801</ele>
        <time>2013-12-08T11:05:05Z</time>
      </trkpt>
      <trkpt lat="44.32225" lon="2.71587">
        <ele>802</ele>
        <time>2013-12-08T11:05:09Z</time>
      </trkpt>
      <trkpt lat="44.32224" lon="2.7158">
        <ele>803</ele>
        <time>2013-12-08T11:05:12Z</time>
      </trkpt>
      <trkpt lat="44.32224" lon="2.71572">
        <ele>803</ele>
        <time>2013-12-08T11:05:16Z</time>
      </trkpt>
      <trkpt lat="44.32225" lon="2.71566">
        <ele>804</ele>
        <time>2013-12-08T11:05:19Z</time>
      </trkpt>
      <trkpt lat="44.32225" lon="2.71558">
        <ele>804</ele>
        <time>2013-12-08T11:05:23Z</time>
      </trkpt>
      <trkpt lat="44.32227" lon="2.71551">
        <ele>804</ele>
        <time>2013-12-08T11:05:27Z</time>
      </trkpt>
      <trkpt lat="44.32227" lon="2.71545">
        <ele>805</ele>
        <time>2013-12-08T11:05:31Z</time>
      </trkpt>
      <trkpt lat="44.32228" lon="2.71538">
        <ele>804</ele>
        <time>2013-12-08T11:05:34Z</time>
      </trkpt>
      <trkpt lat="44.3223" lon="2.71531">
        <ele>805</ele>
        <time>2013-12-08T11:05:38Z</time>
      </trkpt>
      <trkpt lat="44.32231" lon="2.71525">
        <ele>805</ele>
        <time>2013-12-08T11:05:41Z</time>
      </trkpt>
      <trkpt lat="44.32234" lon="2.71518">
        <ele>805</ele>
        <time>2013-12-08T11:05:45Z</time>
      </trkpt>
      <trkpt lat="44.32236" lon="2.71512">
        <ele>805</ele>
        <time>2013-12-08T11:05:48Z</time>
      </trkpt>
      <trkpt lat="44.32239" lon="2.71506">
        <ele>805</ele>
        <time>2013-12-08T11:05:51Z</time>
      </trkpt>
      <trkpt lat="44.32242" lon="2.71501">
        <ele>805</ele>
        <time>2013-12-08T11:05:54Z</time>
      </trkpt>
      <trkpt lat="44.32246" lon="2.71495">
        <ele>806</ele>
        <time>2013-12-08T11:05:58Z</time>
      </trkpt>
      <trkpt lat="44.32249" lon="2.7149">
        <ele>806</ele>
        <time>2013-12-08T11:06:01Z</time>
      </trkpt>
      <trkpt lat="44.32253" lon="2.71484">
        <ele>806</ele>
        <time>2013-12-08T11:06:06Z</time>
      </trkpt>
      <trkpt lat="44.32257" lon="2.71481">
        <ele>806</ele>
        <time>2013-12-08T11:06:10Z</time>
      </trkpt>
      <trkpt lat="44.32262" lon="2.71477">
        <ele>806</ele>
        <time>2013-12-08T11:06:13Z</time>
      </trkpt>
      <trkpt lat="44.32265" lon="2.71472">
        <ele>807</ele>
        <time>2013-12-08T11:06:16Z</time>
      </trkpt>
      <trkpt lat="44.32269" lon="2.71466">
        <ele>807</ele>
        <time>2013-12-08T11:06:19Z</time>
      </trkpt>
      <trkpt lat="44.32272" lon="2.7146">
        <ele>807</ele>
        <time>2013-12-08T11:06:23Z</time>
      </trkpt>
      <trkpt lat="44.32276" lon="2.71455">
        <ele>807</ele>
        <time>2013-12-08T11:06:27Z</time>
      </trkpt>
      <trkpt lat="44.3228" lon="2.7145">
        <ele>806</ele>
        <time>2013-12-08T11:06:31Z</time>
      </trkpt>
      <trkpt lat="44.32284" lon="2.71445">
        <ele>807</ele>
        <time>2013-12-08T11:06:35Z</time>
      </trkpt>
      <trkpt lat="44.32287" lon="2.7144">
        <ele>807</ele>
        <time>2013-12-08T11:06:39Z</time>
      </trkpt>
      <trkpt lat="44.32292" lon="2.71435">
        <ele>807</ele>
        <time>2013-12-08T11:06:43Z</time>
      </trkpt>
      <trkpt lat="44.32296" lon="2.71431">
        <ele>808</ele>
        <time>2013-12-08T11:06:48Z</time>
      </trkpt>
      <trkpt lat="44.323" lon="2.71426">
        <ele>809</ele>
        <time>2013-12-08T11:06:51Z</time>
      </trkpt>
      <trkpt lat="44.32305" lon="2.71422">
        <ele>809</ele>
        <time>2013-12-08T11:06:55Z</time>
      </trkpt>
      <trkpt lat="44.32309" lon="2.71418">
        <ele>810</ele>
        <time>2013-12-08T11:06:58Z</time>
      </trkpt>
      <trkpt lat="44.32312" lon="2.71414">
        <ele>811</ele>
        <time>2013-12-08T11:07:01Z</time>
      </trkpt>
      <trkpt lat="44.32316" lon="2.71409">
        <ele>811</ele>
        <time>2013-12-08T11:07:05Z</time>
      </trkpt>
      <trkpt lat="44.32319" lon="2.71404">
        <ele>812</ele>
        <time>2013-12-08T11:07:09Z</time>
      </trkpt>
      <trkpt lat="44.32323" lon="2.71399">
        <ele>813</ele>
        <time>2013-12-08T11:07:12Z</time>
      </trkpt>
      <trkpt lat="44.32326" lon="2.71393">
        <ele>813</ele>
        <time>2013-12-08T11:07:15Z</time>
      </trkpt>
      <trkpt lat="44.32329" lon="2.71387">
        <ele>813</ele>
        <time>2013-12-08T11:07:18Z</time>
      </trkpt>
      <trkpt lat="44.32332" lon="2.71381">
        <ele>814</ele>
        <time>2013-12-08T11:07:21Z</time>
      </trkpt>
      <trkpt lat="44.32335" lon="2.71375">
        <ele>815</ele>
        <time>2013-12-08T11:07:24Z</time>
      </trkpt>
      <trkpt lat="44.32337" lon="2.71369">
        <ele>815</ele>
        <time>2013-12-08T11:07:28Z</time>
      </trkpt>
      <trkpt lat="44.32339" lon="2.71363">
        <ele>815</ele>
        <time>2013-12-08T11:07:31Z</time>
      </trkpt>
      <trkpt lat="44.32341" lon="2.71357">
        <ele>816</ele>
        <time>2013-12-08T11:07:34Z</time>
      </trkpt>
      <trkpt lat="44.32343" lon="2.7135">
        <ele>816</ele>
        <time>2013-12-08T11:07:38Z</time>
      </trkpt>
      <trkpt lat="44.32345" lon="2.71343">
        <ele>816</ele>
        <time>2013-12-08T11:07:42Z</time>
      </trkpt>
      <trkpt lat="44.32347" lon="2.71335">
        <ele>816</ele>
        <time>2013-12-08T11:07:46Z</time>
      </trkpt>
      <trkpt lat="44.32349" lon="2.71329">
        <ele>816</ele>
        <time>2013-12-08T11:07:49Z</time>
      </trkpt>
      <trkpt lat="44.32351" lon="2.7132">
        <ele>816</ele>
        <time>2013-12-08T11:07:54Z</time>
      </trkpt>
      <trkpt lat="44.32352" lon="2.71313">
        <ele>816</ele>
        <time>2013-12-08T11:07:58Z</time>
      </trkpt>
      <trkpt lat="44.32355" lon="2.71307">
        <ele>816</ele>
        <time>2013-12-08T11:08:02Z</time>
      </trkpt>
      <trkpt lat="44.32356" lon="2.713">
        <ele>816</ele>
        <time>2013-12-08T11:08:06Z</time>
      </trkpt>
      <trkpt lat="44.32357" lon="2.71289">
        <ele>815</ele>
        <time>2013-12-08T11:08:12Z</time>
      </trkpt>
      <trkpt lat="44.32358" lon="2.71283">
        <ele>815</ele>
        <time>2013-12-08T11:08:15Z</time>
      </trkpt>
      <trkpt lat="44.32359" lon="2.71277">
        <ele>816</ele>
        <time>2013-12-08T11:08:18Z</time>
      </trkpt>
      <trkpt lat="44.3236" lon="2.71269">
        <ele>816</ele>
        <time>2013-12-08T11:08:22Z</time>
      </trkpt>
      <trkpt lat="44.32362" lon="2.71261">
        <ele>817</ele>
        <time>2013-12-08T11:08:26Z</time>
      </trkpt>
      <trkpt lat="44.32364" lon="2.71249">
        <ele>817</ele>
        <time>2013-12-08T11:08:34Z</time>
      </trkpt>
      <trkpt lat="44.32366" lon="2.71236">
        <ele>818</ele>
        <time>2013-12-08T11:08:40Z</time>
      </trkpt>
      <trkpt lat="44.32366" lon="2.7123">
        <ele>819</ele>
        <time>2013-12-08T11:08:43Z</time>
      </trkpt>
      <trkpt lat="44.32366" lon="2.71222">
        <ele>821</ele>
        <time>2013-12-08T11:08:47Z</time>
      </trkpt>
      <trkpt lat="44.32365" lon="2.71214">
        <ele>821</ele>
        <time>2013-12-08T11:08:51Z</time>
      </trkpt>
      <trkpt lat="44.32363" lon="2.71207">
        <ele>820</ele>
        <time>2013-12-08T11:08:55Z</time>
      </trkpt>
      <trkpt lat="44.32361" lon="2.712">
        <ele>821</ele>
        <time>2013-12-08T11:08:59Z</time>
      </trkpt>
      <trkpt lat="44.32359" lon="2.71194">
        <ele>821</ele>
        <time>2013-12-08T11:09:02Z</time>
      </trkpt>
      <trkpt lat="44.32357" lon="2.71187">
        <ele>822</ele>
        <time>2013-12-08T11:09:05Z</time>
      </trkpt>
      <trkpt lat="44.32355" lon="2.71181">
        <ele>823</ele>
        <time>2013-12-08T11:09:08Z</time>
      </trkpt>
      <trkpt lat="44.32351" lon="2.71174">
        <ele>824</ele>
        <time>2013-12-08T11:09:13Z</time>
      </trkpt>
      <trkpt lat="44.32348" lon="2.71167">
        <ele>825</ele>
        <time>2013-12-08T11:09:17Z</time>
      </trkpt>
      <trkpt lat="44.32347" lon="2.71161">
        <ele>825</ele>
        <time>2013-12-08T11:09:22Z</time>
      </trkpt>
      <trkpt lat="44.32344" lon="2.71154">
        <ele>826</ele>
        <time>2013-12-08T11:09:26Z</time>
      </trkpt>
      <trkpt lat="44.32341" lon="2.71148">
        <ele>826</ele>
        <time>2013-12-08T11:09:30Z</time>
      </trkpt>
      <trkpt lat="44.32338" lon="2.71142">
        <ele>826</ele>
        <time>2013-12-08T11:09:34Z</time>
      </trkpt>
      <trkpt lat="44.32334" lon="2.71137">
        <ele>827</ele>
        <time>2013-12-08T11:09:38Z</time>
      </trkpt>
      <trkpt lat="44.32331" lon="2.71133">
        <ele>827</ele>
        <time>2013-12-08T11:09:42Z</time>
      </trkpt>
      <trkpt lat="44.32327" lon="2.71128">
        <ele>828</ele>
        <time>2013-12-08T11:09:46Z</time>
      </trkpt>
      <trkpt lat="44.32324" lon="2.71123">
        <ele>828</ele>
        <time>2013-12-08T11:09:49Z</time>
      </trkpt>
      <trkpt lat="44.32316" lon="2.71114">
        <ele>829</ele>
        <time>2013-12-08T11:09:56Z</time>
      </trkpt>
      <trkpt lat="44.32311" lon="2.71107">
        <ele>830</ele>
        <time>2013-12-08T11:10:01Z</time>
      </trkpt>
      <trkpt lat="44.32306" lon="2.71103">
        <ele>831</ele>
        <time>2013-12-08T11:10:05Z</time>
      </trkpt>
      <trkpt lat="44.32301" lon="2.71099">
        <ele>831</ele>
        <time>2013-12-08T11:10:09Z</time>
      </trkpt>
      <trkpt lat="44.32296" lon="2.71096">
        <ele>832</ele>
        <time>2013-12-08T11:10:13Z</time>
      </trkpt>
      <trkpt lat="44.32292" lon="2.71092">
        <ele>832</ele>
        <time>2013-12-08T11:10:16Z</time>
      </trkpt>
      <trkpt lat="44.32286" lon="2.71086">
        <ele>832</ele>
        <time>2013-12-08T11:10:21Z</time>
      </trkpt>
      <trkpt lat="44.32282" lon="2.71082">
        <ele>832</ele>
        <time>2013-12-08T11:10:25Z</time>
      </trkpt>
      <trkpt lat="44.32279" lon="2.71077">
        <ele>833</ele>
        <time>2013-12-08T11:10:29Z</time>
      </trkpt>
      <trkpt lat="44.32275" lon="2.71073">
        <ele>833</ele>
        <time>2013-12-08T11:10:34Z</time>
      </trkpt>
      <trkpt lat="44.32272" lon="2.71068">
        <ele>833</ele>
        <time>2013-12-08T11:10:38Z</time>
      </trkpt>
      <trkpt lat="44.3227" lon="2.71062">
        <ele>833</ele>
        <time>2013-12-08T11:10:42Z</time>
      </trkpt>
      <trkpt lat="44.32267" lon="2.71053">
        <ele>833</ele>
        <time>2013-12-08T11:10:48Z</time>
      </trkpt>
      <trkpt lat="44.32266" lon="2.7104">
        <ele>835</ele>
        <time>2013-12-08T11:10:56Z</time>
      </trkpt>
      <trkpt lat="44.32265" lon="2.71032">
        <ele>837</ele>
        <time>2013-12-08T11:11:00Z</time>
      </trkpt>
      <trkpt lat="44.32264" lon="2.71023">
        <ele>838</ele>
        <time>2013-12-08T11:11:04Z</time>
      </trkpt>
      <trkpt lat="44.32264" lon="2.71016">
        <ele>839</ele>
        <time>2013-12-08T11:11:07Z</time>
      </trkpt>
      <trkpt lat="44.32264" lon="2.71008">
        <ele>839</ele>
        <time>2013-12-08T11:11:11Z</time>
      </trkpt>
      <trkpt lat="44.32264" lon="2.71001">
        <ele>841</ele>
        <time>2013-12-08T11:11:15Z</time>
      </trkpt>
      <trkpt lat="44.32264" lon="2.70994">
        <ele>842</ele>
        <time>2013-12-08T11:11:18Z</time>
      </trkpt>
      <trkpt lat="44.32265" lon="2.70987">
        <ele>843</ele>
        <time>2013-12-08T11:11:22Z</time>
      </trkpt>
      <trkpt lat="44.32265" lon="2.7098">
        <ele>844</ele>
        <time>2013-12-08T11:11:25Z</time>
      </trkpt>
      <trkpt lat="44.32267" lon="2.70969">
        <ele>844</ele>
        <time>2013-12-08T11:11:30Z</time>
      </trkpt>
      <trkpt lat="44.32267" lon="2.70962">
        <ele>844</ele>
        <time>2013-12-08T11:11:33Z</time>
      </trkpt>
      <trkpt lat="44.32267" lon="2.70954">
        <ele>844</ele>
        <time>2013-12-08T11:11:37Z</time>
      </trkpt>
      <trkpt lat="44.32268" lon="2.70942">
        <ele>844</ele>
        <time>2013-12-08T11:11:44Z</time>
      </trkpt>
      <trkpt lat="44.32268" lon="2.70934">
        <ele>843</ele>
        <time>2013-12-08T11:11:48Z</time>
      </trkpt>
      <trkpt lat="44.32267" lon="2.70927">
        <ele>842</ele>
        <time>2013-12-08T11:11:51Z</time>
      </trkpt>
      <trkpt lat="44.32267" lon="2.70921">
        <ele>842</ele>
        <time>2013-12-08T11:11:54Z</time>
      </trkpt>
      <trkpt lat="44.32265" lon="2.70914">
        <ele>843</ele>
        <time>2013-12-08T11:11:58Z</time>
      </trkpt>
      <trkpt lat="44.32265" lon="2.70906">
        <ele>843</ele>
        <time>2013-12-08T11:12:02Z</time>
      </trkpt>
      <trkpt lat="44.32265" lon="2.70894">
        <ele>843</ele>
        <time>2013-12-08T11:12:08Z</time>
      </trkpt>
      <trkpt lat="44.32264" lon="2.70887">
        <ele>843</ele>
        <time>2013-12-08T11:12:11Z</time>
      </trkpt>
      <trkpt lat="44.32264" lon="2.7088">
        <ele>843</ele>
        <time>2013-12-08T11:12:14Z</time>
      </trkpt>
      <trkpt lat="44.32263" lon="2.70873">
        <ele>842</ele>
        <time>2013-12-08T11:12:18Z</time>
      </trkpt>
      <trkpt lat="44.32263" lon="2.70866">
        <ele>842</ele>
        <time>2013-12-08T11:12:22Z</time>
      </trkpt>
      <trkpt lat="44.32262" lon="2.70857">
        <ele>841</ele>
        <time>2013-12-08T11:12:25Z</time>
      </trkpt>
      <trkpt lat="44.32261" lon="2.7085">
        <ele>841</ele>
        <time>2013-12-08T11:12:28Z</time>
      </trkpt>
      <trkpt lat="44.3226" lon="2.70843">
        <ele>841</ele>
        <time>2013-12-08T11:12:31Z</time>
      </trkpt>
      <trkpt lat="44.3226" lon="2.70837">
        <ele>842</ele>
        <time>2013-12-08T11:12:34Z</time>
      </trkpt>
      <trkpt lat="44.32259" lon="2.70829">
        <ele>842</ele>
        <time>2013-12-08T11:12:38Z</time>
      </trkpt>
      <trkpt lat="44.32259" lon="2.70823">
        <ele>843</ele>
        <time>2013-12-08T11:12:41Z</time>
      </trkpt>
      <trkpt lat="44.3226" lon="2.70815">
        <ele>843</ele>
        <time>2013-12-08T11:12:45Z</time>
      </trkpt>
      <trkpt lat="44.32261" lon="2.70809">
        <ele>843</ele>
        <time>2013-12-08T11:12:49Z</time>
      </trkpt>
      <trkpt lat="44.32263" lon="2.70802">
        <ele>843</ele>
        <time>2013-12-08T11:12:52Z</time>
      </trkpt>
      <trkpt lat="44.32264" lon="2.70796">
        <ele>843</ele>
        <time>2013-12-08T11:12:55Z</time>
      </trkpt>
      <trkpt lat="44.32266" lon="2.7079">
        <ele>843</ele>
        <time>2013-12-08T11:12:58Z</time>
      </trkpt>
      <trkpt lat="44.32267" lon="2.70782">
        <ele>842</ele>
        <time>2013-12-08T11:13:02Z</time>
      </trkpt>
      <trkpt lat="44.3227" lon="2.70775">
        <ele>842</ele>
        <time>2013-12-08T11:13:05Z</time>
      </trkpt>
      <trkpt lat="44.32273" lon="2.70768">
        <ele>842</ele>
        <time>2013-12-08T11:13:08Z</time>
      </trkpt>
      <trkpt lat="44.32275" lon="2.70761">
        <ele>842</ele>
        <time>2013-12-08T11:13:11Z</time>
      </trkpt>
      <trkpt lat="44.32277" lon="2.70755">
        <ele>843</ele>
        <time>2013-12-08T11:13:14Z</time>
      </trkpt>
      <trkpt lat="44.32278" lon="2.70748">
        <ele>843</ele>
        <time>2013-12-08T11:13:18Z</time>
      </trkpt>
      <trkpt lat="44.3228" lon="2.70742">
        <ele>843</ele>
        <time>2013-12-08T11:13:21Z</time>
      </trkpt>
      <trkpt lat="44.32281" lon="2.70736">
        <ele>843</ele>
        <time>2013-12-08T11:13:24Z</time>
      </trkpt>
      <trkpt lat="44.32282" lon="2.70728">
        <ele>842</ele>
        <time>2013-12-08T11:13:28Z</time>
      </trkpt>
      <trkpt lat="44.32281" lon="2.7072">
        <ele>842</ele>
        <time>2013-12-08T11:13:32Z</time>
      </trkpt>
      <trkpt lat="44.32281" lon="2.70712">
        <ele>842</ele>
        <time>2013-12-08T11:13:35Z</time>
      </trkpt>
      <trkpt lat="44.32281" lon="2.70704">
        <ele>842</ele>
        <time>2013-12-08T11:13:38Z</time>
      </trkpt>
      <trkpt lat="44.32281" lon="2.70697">
        <ele>841</ele>
        <time>2013-12-08T11:13:41Z</time>
      </trkpt>
      <trkpt lat="44.32281" lon="2.70685">
        <ele>841</ele>
        <time>2013-12-08T11:13:47Z</time>
      </trkpt>
      <trkpt lat="44.32282" lon="2.70677">
        <ele>841</ele>
        <time>2013-12-08T11:13:51Z</time>
      </trkpt>
      <trkpt lat="44.32282" lon="2.7067">
        <ele>841</ele>
        <time>2013-12-08T11:13:54Z</time>
      </trkpt>
      <trkpt lat="44.32282" lon="2.70662">
        <ele>842</ele>
        <time>2013-12-08T11:13:57Z</time>
      </trkpt>
      <trkpt lat="44.32282" lon="2.70654">
        <ele>842</ele>
        <time>2013-12-08T11:14:00Z</time>
      </trkpt>
      <trkpt lat="44.32282" lon="2.70647">
        <ele>843</ele>
        <time>2013-12-08T11:14:03Z</time>
      </trkpt>
      <trkpt lat="44.32282" lon="2.70641">
        <ele>843</ele>
        <time>2013-12-08T11:14:06Z</time>
      </trkpt>
      <trkpt lat="44.32283" lon="2.70634">
        <ele>844</ele>
        <time>2013-12-08T11:14:09Z</time>
      </trkpt>
      <trkpt lat="44.32283" lon="2.70628">
        <ele>844</ele>
        <time>2013-12-08T11:14:12Z</time>
      </trkpt>
      <trkpt lat="44.32284" lon="2.70615">
        <ele>844</ele>
        <time>2013-12-08T11:14:18Z</time>
      </trkpt>
      <trkpt lat="44.32288" lon="2.70602">
        <ele>844</ele>
        <time>2013-12-08T11:14:24Z</time>
      </trkpt>
      <trkpt lat="44.32291" lon="2.70589">
        <ele>845</ele>
        <time>2013-12-08T11:14:31Z</time>
      </trkpt>
      <trkpt lat="44.32294" lon="2.70576">
        <ele>846</ele>
        <time>2013-12-08T11:14:38Z</time>
      </trkpt>
      <trkpt lat="44.32296" lon="2.70561">
        <ele>845</ele>
        <time>2013-12-08T11:14:45Z</time>
      </trkpt>
      <trkpt lat="44.32298" lon="2.70549">
        <ele>845</ele>
        <time>2013-12-08T11:14:50Z</time>
      </trkpt>
      <trkpt lat="44.32301" lon="2.70535">
        <ele>844</ele>
        <time>2013-12-08T11:14:56Z</time>
      </trkpt>
      <trkpt lat="44.32302" lon="2.70521">
        <ele>845</ele>
        <time>2013-12-08T11:15:01Z</time>
      </trkpt>
      <trkpt lat="44.32303" lon="2.70515">
        <ele>846</ele>
        <time>2013-12-08T11:15:04Z</time>
      </trkpt>
      <trkpt lat="44.32304" lon="2.70508">
        <ele>846</ele>
        <time>2013-12-08T11:15:07Z</time>
      </trkpt>
      <trkpt lat="44.32305" lon="2.705">
        <ele>847</ele>
        <time>2013-12-08T11:15:11Z</time>
      </trkpt>
      <trkpt lat="44.32304" lon="2.70486">
        <ele>849</ele>
        <time>2013-12-08T11:15:17Z</time>
      </trkpt>
      <trkpt lat="44.32304" lon="2.70479">
        <ele>849</ele>
        <time>2013-12-08T11:15:20Z</time>
      </trkpt>
      <trkpt lat="44.32304" lon="2.70472">
        <ele>849</ele>
        <time>2013-12-08T11:15:23Z</time>
      </trkpt>
      <trkpt lat="44.32304" lon="2.70459">
        <ele>849</ele>
        <time>2013-12-08T11:15:30Z</time>
      </trkpt>
      <trkpt lat="44.32303" lon="2.70446">
        <ele>849</ele>
        <time>2013-12-08T11:15:36Z</time>
      </trkpt>
      <trkpt lat="44.32302" lon="2.70433">
        <ele>849</ele>
        <time>2013-12-08T11:15:42Z</time>
      </trkpt>
      <trkpt lat="44.32301" lon="2.70423">
        <ele>849</ele>
        <time>2013-12-08T11:15:47Z</time>
      </trkpt>
      <trkpt lat="44.32301" lon="2.70416">
        <ele>849</ele>
        <time>2013-12-08T11:15:50Z</time>
      </trkpt>
      <trkpt lat="44.32301" lon="2.70409">
        <ele>849</ele>
        <time>2013-12-08T11:15:54Z</time>
      </trkpt>
      <trkpt lat="44.32302" lon="2.70399">
        <ele>848</ele>
        <time>2013-12-08T11:15:58Z</time>
      </trkpt>
      <trkpt lat="44.32302" lon="2.70392">
        <ele>847</ele>
        <time>2013-12-08T11:16:02Z</time>
      </trkpt>
      <trkpt lat="44.32302" lon="2.70382">
        <ele>847</ele>
        <time>2013-12-08T11:16:07Z</time>
      </trkpt>
      <trkpt lat="44.32303" lon="2.70368">
        <ele>846</ele>
        <time>2013-12-08T11:16:14Z</time>
      </trkpt>
      <trkpt lat="44.32304" lon="2.7036">
        <ele>847</ele>
        <time>2013-12-08T11:16:18Z</time>
      </trkpt>
      <trkpt lat="44.32306" lon="2.70354">
        <ele>847</ele>
        <time>2013-12-08T11:16:21Z</time>
      </trkpt>
      <trkpt lat="44.32308" lon="2.70344">
        <ele>847</ele>
        <time>2013-12-08T11:16:26Z</time>
      </trkpt>
      <trkpt lat="44.32309" lon="2.70337">
        <ele>847</ele>
        <time>2013-12-08T11:16:29Z</time>
      </trkpt>
      <trkpt lat="44.32313" lon="2.70331">
        <ele>845</ele>
        <time>2013-12-08T11:16:33Z</time>
      </trkpt>
      <trkpt lat="44.32316" lon="2.70325">
        <ele>844</ele>
        <time>2013-12-08T11:16:37Z</time>
      </trkpt>
      <trkpt lat="44.32319" lon="2.7032">
        <ele>844</ele>
        <time>2013-12-08T11:16:40Z</time>
      </trkpt>
      <trkpt lat="44.32323" lon="2.70315">
        <ele>844</ele>
        <time>2013-12-08T11:16:44Z</time>
      </trkpt>
      <trkpt lat="44.32328" lon="2.7031">
        <ele>844</ele>
        <time>2013-12-08T11:16:48Z</time>
      </trkpt>
      <trkpt lat="44.32333" lon="2.70303">
        <ele>843</ele>
        <time>2013-12-08T11:16:52Z</time>
      </trkpt>
      <trkpt lat="44.32336" lon="2.70297">
        <ele>843</ele>
        <time>2013-12-08T11:16:56Z</time>
      </trkpt>
      <trkpt lat="44.32341" lon="2.70289">
        <ele>843</ele>
        <time>2013-12-08T11:17:00Z</time>
      </trkpt>
      <trkpt lat="44.32345" lon="2.70284">
        <ele>843</ele>
        <time>2013-12-08T11:17:03Z</time>
      </trkpt>
      <trkpt lat="44.32349" lon="2.7028">
        <ele>843</ele>
        <time>2013-12-08T11:17:06Z</time>
      </trkpt>
      <trkpt lat="44.32353" lon="2.70275">
        <ele>844</ele>
        <time>2013-12-08T11:17:09Z</time>
      </trkpt>
      <trkpt lat="44.32357" lon="2.7027">
        <ele>844</ele>
        <time>2013-12-08T11:17:13Z</time>
      </trkpt>
      <trkpt lat="44.3236" lon="2.70266">
        <ele>844</ele>
        <time>2013-12-08T11:17:17Z</time>
      </trkpt>
      <trkpt lat="44.32368" lon="2.70256">
        <ele>844</ele>
        <time>2013-12-08T11:17:25Z</time>
      </trkpt>
      <trkpt lat="44.32371" lon="2.7025">
        <ele>844</ele>
        <time>2013-12-08T11:17:27Z</time>
      </trkpt>
      <trkpt lat="44.32374" lon="2.70245">
        <ele>845</ele>
        <time>2013-12-08T11:17:29Z</time>
      </trkpt>
      <trkpt lat="44.32377" lon="2.70238">
        <ele>845</ele>
        <time>2013-12-08T11:17:32Z</time>
      </trkpt>
      <trkpt lat="44.32381" lon="2.70233">
        <ele>845</ele>
        <time>2013-12-08T11:17:35Z</time>
      </trkpt>
      <trkpt lat="44.32385" lon="2.70227">
        <ele>846</ele>
        <time>2013-12-08T11:17:38Z</time>
      </trkpt>
      <trkpt lat="44.32388" lon="2.70222">
        <ele>846</ele>
        <time>2013-12-08T11:17:42Z</time>
      </trkpt>
      <trkpt lat="44.32393" lon="2.70217">
        <ele>846</ele>
        <time>2013-12-08T11:17:46Z</time>
      </trkpt>
      <trkpt lat="44.32398" lon="2.70213">
        <ele>846</ele>
        <time>2013-12-08T11:17:50Z</time>
      </trkpt>
      <trkpt lat="44.32402" lon="2.70209">
        <ele>846</ele>
        <time>2013-12-08T11:17:53Z</time>
      </trkpt>
      <trkpt lat="44.32407" lon="2.70206">
        <ele>846</ele>
        <time>2013-12-08T11:17:56Z</time>
      </trkpt>
      <trkpt lat="44.32411" lon="2.70203">
        <ele>846</ele>
        <time>2013-12-08T11:17:59Z</time>
      </trkpt>
      <trkpt lat="44.32416" lon="2.70201">
        <ele>846</ele>
        <time>2013-12-08T11:18:02Z</time>
      </trkpt>
      <trkpt lat="44.32421" lon="2.70198">
        <ele>846</ele>
        <time>2013-12-08T11:18:05Z</time>
      </trkpt>
      <trkpt lat="44.32426" lon="2.70197">
        <ele>846</ele>
        <time>2013-12-08T11:18:08Z</time>
      </trkpt>
      <trkpt lat="44.32431" lon="2.70195">
        <ele>846</ele>
        <time>2013-12-08T11:18:12Z</time>
      </trkpt>
      <trkpt lat="44.32437" lon="2.70192">
        <ele>846</ele>
        <time>2013-12-08T11:18:17Z</time>
      </trkpt>
      <trkpt lat="44.32443" lon="2.7019">
        <ele>846</ele>
        <time>2013-12-08T11:18:21Z</time>
      </trkpt>
      <trkpt lat="44.32449" lon="2.70186">
        <ele>846</ele>
        <time>2013-12-08T11:18:25Z</time>
      </trkpt>
      <trkpt lat="44.32454" lon="2.70181">
        <ele>844</ele>
        <time>2013-12-08T11:18:28Z</time>
      </trkpt>
      <trkpt lat="44.32459" lon="2.70177">
        <ele>843</ele>
        <time>2013-12-08T11:18:32Z</time>
      </trkpt>
      <trkpt lat="44.32464" lon="2.70174">
        <ele>842</ele>
        <time>2013-12-08T11:18:35Z</time>
      </trkpt>
      <trkpt lat="44.32471" lon="2.70169">
        <ele>841</ele>
        <time>2013-12-08T11:18:39Z</time>
      </trkpt>
      <trkpt lat="44.32477" lon="2.70166">
        <ele>841</ele>
        <time>2013-12-08T11:18:43Z</time>
      </trkpt>
      <trkpt lat="44.32484" lon="2.7016">
        <ele>842</ele>
        <time>2013-12-08T11:18:48Z</time>
      </trkpt>
      <trkpt lat="44.32488" lon="2.70157">
        <ele>842</ele>
        <time>2013-12-08T11:18:51Z</time>
      </trkpt>
      <trkpt lat="44.32493" lon="2.70154">
        <ele>843</ele>
        <time>2013-12-08T11:18:54Z</time>
      </trkpt>
      <trkpt lat="44.32499" lon="2.70152">
        <ele>843</ele>
        <time>2013-12-08T11:18:57Z</time>
      </trkpt>
      <trkpt lat="44.32504" lon="2.70149">
        <ele>843</ele>
        <time>2013-12-08T11:19:00Z</time>
      </trkpt>
      <trkpt lat="44.32509" lon="2.70146">
        <ele>842</ele>
        <time>2013-12-08T11:19:03Z</time>
      </trkpt>
      <trkpt lat="44.32514" lon="2.70143">
        <ele>842</ele>
        <time>2013-12-08T11:19:07Z</time>
      </trkpt>
      <trkpt lat="44.32521" lon="2.70143">
        <ele>842</ele>
        <time>2013-12-08T11:19:10Z</time>
      </trkpt>
      <trkpt lat="44.32526" lon="2.7014">
        <ele>842</ele>
        <time>2013-12-08T11:19:14Z</time>
      </trkpt>
      <trkpt lat="44.32531" lon="2.70138">
        <ele>842</ele>
        <time>2013-12-08T11:19:18Z</time>
      </trkpt>
      <trkpt lat="44.32536" lon="2.70135">
        <ele>841</ele>
        <time>2013-12-08T11:19:21Z</time>
      </trkpt>
      <trkpt lat="44.32543" lon="2.70133">
        <ele>841</ele>
        <time>2013-12-08T11:19:25Z</time>
      </trkpt>
      <trkpt lat="44.32553" lon="2.70134">
        <ele>840</ele>
        <time>2013-12-08T11:19:32Z</time>
      </trkpt>
      <trkpt lat="44.32559" lon="2.7013">
        <ele>838</ele>
        <time>2013-12-08T11:19:36Z</time>
      </trkpt>
      <trkpt lat="44.32565" lon="2.70126">
        <ele>837</ele>
        <time>2013-12-08T11:19:39Z</time>
      </trkpt>
      <trkpt lat="44.32571" lon="2.70123">
        <ele>838</ele>
        <time>2013-12-08T11:19:42Z</time>
      </trkpt>
      <trkpt lat="44.32576" lon="2.7012">
        <ele>839</ele>
        <time>2013-12-08T11:19:45Z</time>
      </trkpt>
      <trkpt lat="44.32581" lon="2.70116">
        <ele>839</ele>
        <time>2013-12-08T11:19:48Z</time>
      </trkpt>
      <trkpt lat="44.32587" lon="2.70113">
        <ele>838</ele>
        <time>2013-12-08T11:19:52Z</time>
      </trkpt>
      <trkpt lat="44.32592" lon="2.7011">
        <ele>838</ele>
        <time>2013-12-08T11:19:55Z</time>
      </trkpt>
      <trkpt lat="44.32597" lon="2.70107">
        <ele>837</ele>
        <time>2013-12-08T11:19:59Z</time>
      </trkpt>
      <trkpt lat="44.32602" lon="2.70101">
        <ele>836</ele>
        <time>2013-12-08T11:20:03Z</time>
      </trkpt>
      <trkpt lat="44.32606" lon="2.70095">
        <ele>835</ele>
        <time>2013-12-08T11:20:07Z</time>
      </trkpt>
      <trkpt lat="44.3261" lon="2.7009">
        <ele>834</ele>
        <time>2013-12-08T11:20:10Z</time>
      </trkpt>
      <trkpt lat="44.32613" lon="2.70084">
        <ele>834</ele>
        <time>2013-12-08T11:20:13Z</time>
      </trkpt>
      <trkpt lat="44.32617" lon="2.70078">
        <ele>834</ele>
        <time>2013-12-08T11:20:16Z</time>
      </trkpt>
      <trkpt lat="44.32621" lon="2.70072">
        <ele>834</ele>
        <time>2013-12-08T11:20:19Z</time>
      </trkpt>
      <trkpt lat="44.32622" lon="2.70069">
        <ele>834</ele>
        <time>2013-12-08T11:20:20Z</time>
      </trkpt>
      <trkpt lat="44.32626" lon="2.70059">
        <ele>833</ele>
        <time>2013-12-08T11:20:24Z</time>
      </trkpt>
      <trkpt lat="44.32628" lon="2.70052">
        <ele>833</ele>
        <time>2013-12-08T11:20:27Z</time>
      </trkpt>
      <trkpt lat="44.32631" lon="2.70043">
        <ele>833</ele>
        <time>2013-12-08T11:20:31Z</time>
      </trkpt>
      <trkpt lat="44.32634" lon="2.70035">
        <ele>833</ele>
        <time>2013-12-08T11:20:35Z</time>
      </trkpt>
      <trkpt lat="44.32639" lon="2.70024">
        <ele>832</ele>
        <time>2013-12-08T11:20:41Z</time>
      </trkpt>
      <trkpt lat="44.32641" lon="2.70017">
        <ele>831</ele>
        <time>2013-12-08T11:20:44Z</time>
      </trkpt>
      <trkpt lat="44.32643" lon="2.7001">
        <ele>831</ele>
        <time>2013-12-08T11:20:47Z</time>
      </trkpt>
      <trkpt lat="44.32646" lon="2.70002">
        <ele>831</ele>
        <time>2013-12-08T11:20:51Z</time>
      </trkpt>
      <trkpt lat="44.32649" lon="2.69997">
        <ele>831</ele>
        <time>2013-12-08T11:20:54Z</time>
      </trkpt>
      <trkpt lat="44.32653" lon="2.6999">
        <ele>830</ele>
        <time>2013-12-08T11:20:58Z</time>
      </trkpt>
      <trkpt lat="44.32657" lon="2.69985">
        <ele>830</ele>
        <time>2013-12-08T11:21:01Z</time>
      </trkpt>
      <trkpt lat="44.32661" lon="2.6998">
        <ele>830</ele>
        <time>2013-12-08T11:21:04Z</time>
      </trkpt>
      <trkpt lat="44.32663" lon="2.69975">
        <ele>829</ele>
        <time>2013-12-08T11:21:07Z</time>
      </trkpt>
      <trkpt lat="44.32666" lon="2.6997">
        <ele>828</ele>
        <time>2013-12-08T11:21:10Z</time>
      </trkpt>
      <trkpt lat="44.3267" lon="2.69965">
        <ele>828</ele>
        <time>2013-12-08T11:21:13Z</time>
      </trkpt>
      <trkpt lat="44.32673" lon="2.69958">
        <ele>828</ele>
        <time>2013-12-08T11:21:16Z</time>
      </trkpt>
      <trkpt lat="44.32677" lon="2.69953">
        <ele>827</ele>
        <time>2013-12-08T11:21:19Z</time>
      </trkpt>
      <trkpt lat="44.32682" lon="2.69954">
        <ele>828</ele>
        <time>2013-12-08T11:21:23Z</time>
      </trkpt>
      <trkpt lat="44.32685" lon="2.69958">
        <ele>828</ele>
        <time>2013-12-08T11:21:26Z</time>
      </trkpt>
      <trkpt lat="44.32692" lon="2.6997">
        <ele>830</ele>
        <time>2013-12-08T11:21:32Z</time>
      </trkpt>
      <trkpt lat="44.32697" lon="2.6998">
        <ele>830</ele>
        <time>2013-12-08T11:21:37Z</time>
      </trkpt>
      <trkpt lat="44.327" lon="2.69985">
        <ele>831</ele>
        <time>2013-12-08T11:21:40Z</time>
      </trkpt>
      <trkpt lat="44.32702" lon="2.69991">
        <ele>832</ele>
        <time>2013-12-08T11:21:43Z</time>
      </trkpt>
      <trkpt lat="44.32705" lon="2.69998">
        <ele>832</ele>
        <time>2013-12-08T11:21:46Z</time>
      </trkpt>
      <trkpt lat="44.32707" lon="2.70005">
        <ele>833</ele>
        <time>2013-12-08T11:21:50Z</time>
      </trkpt>
      <trkpt lat="44.3271" lon="2.70012">
        <ele>833</ele>
        <time>2013-12-08T11:21:53Z</time>
      </trkpt>
      <trkpt lat="44.32713" lon="2.70021">
        <ele>832</ele>
        <time>2013-12-08T11:21:58Z</time>
      </trkpt>
      <trkpt lat="44.32716" lon="2.70028">
        <ele>831</ele>
        <time>2013-12-08T11:22:02Z</time>
      </trkpt>
      <trkpt lat="44.32719" lon="2.70034">
        <ele>831</ele>
        <time>2013-12-08T11:22:05Z</time>
      </trkpt>
      <trkpt lat="44.32722" lon="2.7004">
        <ele>831</ele>
        <time>2013-12-08T11:22:08Z</time>
      </trkpt>
      <trkpt lat="44.32724" lon="2.70045">
        <ele>830</ele>
        <time>2013-12-08T11:22:11Z</time>
      </trkpt>
      <trkpt lat="44.32728" lon="2.70052">
        <ele>830</ele>
        <time>2013-12-08T11:22:15Z</time>
      </trkpt>
      <trkpt lat="44.3273" lon="2.70059">
        <ele>830</ele>
        <time>2013-12-08T11:22:19Z</time>
      </trkpt>
      <trkpt lat="44.32732" lon="2.70064">
        <ele>829</ele>
        <time>2013-12-08T11:22:22Z</time>
      </trkpt>
      <trkpt lat="44.32735" lon="2.7007">
        <ele>829</ele>
        <time>2013-12-08T11:22:25Z</time>
      </trkpt>
      <trkpt lat="44.32738" lon="2.70076">
        <ele>828</ele>
        <time>2013-12-08T11:22:28Z</time>
      </trkpt>
      <trkpt lat="44.3274" lon="2.70082">
        <ele>828</ele>
        <time>2013-12-08T11:22:31Z</time>
      </trkpt>
      <trkpt lat="44.32742" lon="2.7009">
        <ele>827</ele>
        <time>2013-12-08T11:22:35Z</time>
      </trkpt>
      <trkpt lat="44.32744" lon="2.70096">
        <ele>827</ele>
        <time>2013-12-08T11:22:39Z</time>
      </trkpt>
      <trkpt lat="44.32746" lon="2.70102">
        <ele>826</ele>
        <time>2013-12-08T11:22:42Z</time>
      </trkpt>
      <trkpt lat="44.32749" lon="2.70109">
        <ele>826</ele>
        <time>2013-12-08T11:22:46Z</time>
      </trkpt>
      <trkpt lat="44.32752" lon="2.70115">
        <ele>825</ele>
        <time>2013-12-08T11:22:49Z</time>
      </trkpt>
      <trkpt lat="44.32755" lon="2.70121">
        <ele>825</ele>
        <time>2013-12-08T11:22:52Z</time>
      </trkpt>
      <trkpt lat="44.32758" lon="2.70127">
        <ele>825</ele>
        <time>2013-12-08T11:22:56Z</time>
      </trkpt>
      <trkpt lat="44.32761" lon="2.70134">
        <ele>824</ele>
        <time>2013-12-08T11:23:00Z</time>
      </trkpt>
      <trkpt lat="44.32764" lon="2.7014">
        <ele>824</ele>
        <time>2013-12-08T11:23:03Z</time>
      </trkpt>
      <trkpt lat="44.32766" lon="2.70146">
        <ele>824</ele>
        <time>2013-12-08T11:23:06Z</time>
      </trkpt>
      <trkpt lat="44.32768" lon="2.70152">
        <ele>824</ele>
        <time>2013-12-08T11:23:09Z</time>
      </trkpt>
      <trkpt lat="44.32771" lon="2.70159">
        <ele>823</ele>
        <time>2013-12-08T11:23:13Z</time>
      </trkpt>
      <trkpt lat="44.32772" lon="2.70166">
        <ele>823</ele>
        <time>2013-12-08T11:23:16Z</time>
      </trkpt>
      <trkpt lat="44.32771" lon="2.70174">
        <ele>823</ele>
        <time>2013-12-08T11:23:20Z</time>
      </trkpt>
      <trkpt lat="44.3277" lon="2.70183">
        <ele>823</ele>
        <time>2013-12-08T11:23:24Z</time>
      </trkpt>
      <trkpt lat="44.32769" lon="2.7019">
        <ele>823</ele>
        <time>2013-12-08T11:23:27Z</time>
      </trkpt>
      <trkpt lat="44.32769" lon="2.70197">
        <ele>823</ele>
        <time>2013-12-08T11:23:30Z</time>
      </trkpt>
      <trkpt lat="44.32768" lon="2.70205">
        <ele>822</ele>
        <time>2013-12-08T11:23:33Z</time>
      </trkpt>
      <trkpt lat="44.32768" lon="2.70212">
        <ele>822</ele>
        <time>2013-12-08T11:23:36Z</time>
      </trkpt>
      <trkpt lat="44.32767" lon="2.70219">
        <ele>823</ele>
        <time>2013-12-08T11:23:40Z</time>
      </trkpt>
      <trkpt lat="44.32766" lon="2.70225">
        <ele>823</ele>
        <time>2013-12-08T11:23:43Z</time>
      </trkpt>
      <trkpt lat="44.32766" lon="2.70232">
        <ele>822</ele>
        <time>2013-12-08T11:23:46Z</time>
      </trkpt>
      <trkpt lat="44.32765" lon="2.70238">
        <ele>821</ele>
        <time>2013-12-08T11:23:50Z</time>
      </trkpt>
      <trkpt lat="44.32766" lon="2.70245">
        <ele>820</ele>
        <time>2013-12-08T11:23:53Z</time>
      </trkpt>
      <trkpt lat="44.32766" lon="2.70251">
        <ele>820</ele>
        <time>2013-12-08T11:23:56Z</time>
      </trkpt>
      <trkpt lat="44.32767" lon="2.70258">
        <ele>820</ele>
        <time>2013-12-08T11:23:59Z</time>
      </trkpt>
      <trkpt lat="44.32766" lon="2.70265">
        <ele>819</ele>
        <time>2013-12-08T11:24:03Z</time>
      </trkpt>
      <trkpt lat="44.32769" lon="2.70278">
        <ele>818</ele>
        <time>2013-12-08T11:24:11Z</time>
      </trkpt>
      <trkpt lat="44.32771" lon="2.70286">
        <ele>818</ele>
        <time>2013-12-08T11:24:15Z</time>
      </trkpt>
      <trkpt lat="44.32773" lon="2.70292">
        <ele>818</ele>
        <time>2013-12-08T11:24:18Z</time>
      </trkpt>
      <trkpt lat="44.32775" lon="2.70301">
        <ele>818</ele>
        <time>2013-12-08T11:24:23Z</time>
      </trkpt>
      <trkpt lat="44.32778" lon="2.70311">
        <ele>818</ele>
        <time>2013-12-08T11:24:29Z</time>
      </trkpt>
      <trkpt lat="44.3278" lon="2.70322">
        <ele>818</ele>
        <time>2013-12-08T11:24:34Z</time>
      </trkpt>
      <trkpt lat="44.32783" lon="2.70334">
        <ele>818</ele>
        <time>2013-12-08T11:24:40Z</time>
      </trkpt>
      <trkpt lat="44.32788" lon="2.70345">
        <ele>817</ele>
        <time>2013-12-08T11:24:46Z</time>
      </trkpt>
      <trkpt lat="44.32793" lon="2.70357">
        <ele>817</ele>
        <time>2013-12-08T11:24:54Z</time>
      </trkpt>
      <trkpt lat="44.32798" lon="2.70367">
        <ele>816</ele>
        <time>2013-12-08T11:24:59Z</time>
      </trkpt>
      <trkpt lat="44.32802" lon="2.70373">
        <ele>817</ele>
        <time>2013-12-08T11:25:03Z</time>
      </trkpt>
      <trkpt lat="44.32806" lon="2.70377">
        <ele>817</ele>
        <time>2013-12-08T11:25:07Z</time>
      </trkpt>
      <trkpt lat="44.3281" lon="2.70381">
        <ele>817</ele>
        <time>2013-12-08T11:25:10Z</time>
      </trkpt>
      <trkpt lat="44.32816" lon="2.70384">
        <ele>817</ele>
        <time>2013-12-08T11:25:14Z</time>
      </trkpt>
      <trkpt lat="44.32821" lon="2.70387">
        <ele>817</ele>
        <time>2013-12-08T11:25:17Z</time>
      </trkpt>
      <trkpt lat="44.32829" lon="2.70394">
        <ele>815</ele>
        <time>2013-12-08T11:25:22Z</time>
      </trkpt>
      <trkpt lat="44.32832" lon="2.70399">
        <ele>814</ele>
        <time>2013-12-08T11:25:25Z</time>
      </trkpt>
      <trkpt lat="44.32836" lon="2.70405">
        <ele>814</ele>
        <time>2013-12-08T11:25:28Z</time>
      </trkpt>
      <trkpt lat="44.3284" lon="2.70412">
        <ele>814</ele>
        <time>2013-12-08T11:25:31Z</time>
      </trkpt>
      <trkpt lat="44.32843" lon="2.70418">
        <ele>814</ele>
        <time>2013-12-08T11:25:34Z</time>
      </trkpt>
      <trkpt lat="44.32844" lon="2.70426">
        <ele>813</ele>
        <time>2013-12-08T11:25:37Z</time>
      </trkpt>
      <trkpt lat="44.32845" lon="2.70433">
        <ele>813</ele>
        <time>2013-12-08T11:25:40Z</time>
      </trkpt>
      <trkpt lat="44.32846" lon="2.70441">
        <ele>813</ele>
        <time>2013-12-08T11:25:44Z</time>
      </trkpt>
      <trkpt lat="44.32848" lon="2.70448">
        <ele>813</ele>
        <time>2013-12-08T11:25:46Z</time>
      </trkpt>
      <trkpt lat="44.32851" lon="2.70454">
        <ele>813</ele>
        <time>2013-12-08T11:25:49Z</time>
      </trkpt>
      <trkpt lat="44.32857" lon="2.70463">
        <ele>814</ele>
        <time>2013-12-08T11:25:55Z</time>
      </trkpt>
      <trkpt lat="44.32861" lon="2.70467">
        <ele>813</ele>
        <time>2013-12-08T11:25:58Z</time>
      </trkpt>
      <trkpt lat="44.32866" lon="2.70471">
        <ele>811</ele>
        <time>2013-12-08T11:26:02Z</time>
      </trkpt>
      <trkpt lat="44.32871" lon="2.70473">
        <ele>811</ele>
        <time>2013-12-08T11:26:07Z</time>
      </trkpt>
      <trkpt lat="44.32876" lon="2.70474">
        <ele>811</ele>
        <time>2013-12-08T11:26:12Z</time>
      </trkpt>
      <trkpt lat="44.32882" lon="2.70471">
        <ele>811</ele>
        <time>2013-12-08T11:26:16Z</time>
      </trkpt>
      <trkpt lat="44.32886" lon="2.70464">
        <ele>812</ele>
        <time>2013-12-08T11:26:20Z</time>
      </trkpt>
      <trkpt lat="44.32888" lon="2.70457">
        <ele>813</ele>
        <time>2013-12-08T11:26:23Z</time>
      </trkpt>
      <trkpt lat="44.32893" lon="2.70448">
        <ele>814</ele>
        <time>2013-12-08T11:26:27Z</time>
      </trkpt>
      <trkpt lat="44.32897" lon="2.70443">
        <ele>814</ele>
        <time>2013-12-08T11:26:30Z</time>
      </trkpt>
      <trkpt lat="44.32901" lon="2.70437">
        <ele>815</ele>
        <time>2013-12-08T11:26:34Z</time>
      </trkpt>
      <trkpt lat="44.32905" lon="2.70432">
        <ele>815</ele>
        <time>2013-12-08T11:26:38Z</time>
      </trkpt>
      <trkpt lat="44.32909" lon="2.70426">
        <ele>816</ele>
        <time>2013-12-08T11:26:42Z</time>
      </trkpt>
      <trkpt lat="44.32912" lon="2.7042">
        <ele>817</ele>
        <time>2013-12-08T11:26:46Z</time>
      </trkpt>
      <trkpt lat="44.32917" lon="2.70415">
        <ele>817</ele>
        <time>2013-12-08T11:26:50Z</time>
      </trkpt>
      <trkpt lat="44.32921" lon="2.70409">
        <ele>816</ele>
        <time>2013-12-08T11:26:54Z</time>
      </trkpt>
      <trkpt lat="44.32923" lon="2.70403">
        <ele>817</ele>
        <time>2013-12-08T11:26:58Z</time>
      </trkpt>
      <trkpt lat="44.32926" lon="2.70398">
        <ele>817</ele>
        <time>2013-12-08T11:27:01Z</time>
      </trkpt>
      <trkpt lat="44.3293" lon="2.70393">
        <ele>817</ele>
        <time>2013-12-08T11:27:04Z</time>
      </trkpt>
      <trkpt lat="44.32934" lon="2.70388">
        <ele>816</ele>
        <time>2013-12-08T11:27:08Z</time>
      </trkpt>
      <trkpt lat="44.32937" lon="2.70387">
        <ele>816</ele>
        <time>2013-12-08T11:27:16Z</time>
      </trkpt>
      <trkpt lat="44.3294" lon="2.70387">
        <ele>816</ele>
        <time>2013-12-08T11:28:32Z</time>
      </trkpt>
      <trkpt lat="44.32941" lon="2.70381">
        <ele>816</ele>
        <time>2013-12-08T11:33:56Z</time>
      </trkpt>
      <trkpt lat="44.32943" lon="2.70379">
        <ele>816</ele>
        <time>2013-12-08T11:34:02Z</time>
      </trkpt>
      <trkpt lat="44.32946" lon="2.70378">
        <ele>812</ele>
        <time>2013-12-08T11:35:07Z</time>
      </trkpt>
      <trkpt lat="44.32944" lon="2.70374">
        <ele>812</ele>
        <time>2013-12-08T11:36:54Z</time>
      </trkpt>
      <trkpt lat="44.32941" lon="2.70372">
        <ele>812</ele>
        <time>2013-12-08T11:37:06Z</time>
      </trkpt>
      <trkpt lat="44.32946" lon="2.70372">
        <ele>812</ele>
        <time>2013-12-08T11:38:15Z</time>
      </trkpt>
      <trkpt lat="44.32946" lon="2.70373">
        <ele>812</ele>
        <time>2013-12-08T11:41:05Z</time>
      </trkpt>
      <trkpt lat="44.32944" lon="2.70375">
        <ele>812</ele>
        <time>2013-12-08T11:42:08Z</time>
      </trkpt>
      <trkpt lat="44.32946" lon="2.70374">
        <ele>811</ele>
        <time>2013-12-08T11:44:32Z</time>
      </trkpt>
      <trkpt lat="44.32947" lon="2.70386">
        <ele>812</ele>
        <time>2013-12-08T11:44:46Z</time>
      </trkpt>
      <trkpt lat="44.32946" lon="2.70393">
        <ele>814</ele>
        <time>2013-12-08T11:44:52Z</time>
      </trkpt>
      <trkpt lat="44.32949" lon="2.70399">
        <ele>816</ele>
        <time>2013-12-08T11:45:01Z</time>
      </trkpt>
      <trkpt lat="44.32953" lon="2.704">
        <ele>817</ele>
        <time>2013-12-08T11:45:07Z</time>
      </trkpt>
      <trkpt lat="44.32952" lon="2.70402">
        <ele>817</ele>
        <time>2013-12-08T11:45:47Z</time>
      </trkpt>
      <trkpt lat="44.32948" lon="2.70407">
        <ele>817</ele>
        <time>2013-12-08T11:46:01Z</time>
      </trkpt>
      <trkpt lat="44.32947" lon="2.70404">
        <ele>816</ele>
        <time>2013-12-08T11:47:29Z</time>
      </trkpt>
      <trkpt lat="44.32946" lon="2.70391">
        <ele>816</ele>
        <time>2013-12-08T11:47:47Z</time>
      </trkpt>
      <trkpt lat="44.32943" lon="2.70379">
        <ele>816</ele>
        <time>2013-12-08T11:47:57Z</time>
      </trkpt>
      <trkpt lat="44.32945" lon="2.70374">
        <ele>813</ele>
        <time>2013-12-08T11:48:11Z</time>
      </trkpt>
      <trkpt lat="44.32946" lon="2.70371">
        <ele>812</ele>
        <time>2013-12-08T11:48:24Z</time>
      </trkpt>
      <trkpt lat="44.32948" lon="2.70358">
        <ele>811</ele>
        <time>2013-12-08T11:49:00Z</time>
      </trkpt>
      <trkpt lat="44.32949" lon="2.70352">
        <ele>813</ele>
        <time>2013-12-08T11:49:11Z</time>
      </trkpt>
      <trkpt lat="44.32944" lon="2.70346">
        <ele>815</ele>
        <time>2013-12-08T11:50:00Z</time>
      </trkpt>
      <trkpt lat="44.32939" lon="2.70346">
        <ele>815</ele>
        <time>2013-12-08T11:50:05Z</time>
      </trkpt>
      <trkpt lat="44.3294" lon="2.70352">
        <ele>811</ele>
        <time>2013-12-08T11:51:35Z</time>
      </trkpt>
      <trkpt lat="44.32943" lon="2.70355">
        <ele>812</ele>
        <time>2013-12-08T11:52:15Z</time>
      </trkpt>
      <trkpt lat="44.32947" lon="2.70358">
        <ele>811</ele>
        <time>2013-12-08T11:52:23Z</time>
      </trkpt>
      <trkpt lat="44.32951" lon="2.70348">
        <ele>813</ele>
        <time>2013-12-08T11:53:30Z</time>
      </trkpt>
      <trkpt lat="44.32949" lon="2.70351">
        <ele>814</ele>
        <time>2013-12-08T11:54:41Z</time>
      </trkpt>
      <trkpt lat="44.3295" lon="2.70355">
        <ele>813</ele>
        <time>2013-12-08T11:54:52Z</time>
      </trkpt>
      <trkpt lat="44.3295" lon="2.7035">
        <ele>811</ele>
        <time>2013-12-08T11:55:36Z</time>
      </trkpt>
    </trkseg>
  </trk>
</gpx>